<?xml version='1.0' encoding='UTF-8'?><gpx version="1.1" creator="JPX - https://github.com/jenetics/jpx" xmlns="http://www.topografix.com/GPX/1/1"><trk><trkseg><trkpt lat="42.0844183" lon="12.1796667"><ele>269.0</ele><time>2026-05-02T08:45:46.354Z</time></trkpt><trkpt lat="42.0844833" lon="12.1796383"><ele>269.0</ele><time>2026-05-02T08:45:51.352Z</time></trkpt><trkpt lat="42.0845717" lon="12.1796417"><ele>269.0</ele><time>2026-05-02T08:45:54.353Z</time></trkpt><trkpt lat="42.08465" lon="12.1796383"><ele>269.0</ele><time>2026-05-02T08:45:56.352Z</time></trkpt><trkpt lat="42.08474" lon="12.1796483"><ele>269.0</ele><time>2026-05-02T08:45:58.353Z</time></trkpt><trkpt lat="42.0848417" lon="12.1796517"><ele>269.0</ele><time>2026-05-02T08:46:00.351Z</time></trkpt><trkpt lat="42.084945" lon="12.1795833"><ele>268.33333333333337</ele><time>2026-05-02T08:46:02.351Z</time></trkpt><trkpt lat="42.085025" lon="12.1794883"><ele>267.6666666666667</ele><time>2026-05-02T08:46:04.353Z</time></trkpt><trkpt lat="42.0850933" lon="12.1793967"><ele>267.0</ele><time>2026-05-02T08:46:06.35Z</time></trkpt><trkpt lat="42.0851483" lon="12.179315"><ele>266.3333333333333</ele><time>2026-05-02T08:46:08.353Z</time></trkpt><trkpt lat="42.0852017" lon="12.1792367"><ele>265.66666666666663</ele><time>2026-05-02T08:46:10.354Z</time></trkpt><trkpt lat="42.08526" lon="12.1791683"><ele>265.0</ele><time>2026-05-02T08:46:12.362Z</time></trkpt><trkpt lat="42.08531" lon="12.1790917"><ele>266.0</ele><time>2026-05-02T08:46:14.352Z</time></trkpt><trkpt lat="42.0853367" lon="12.1790083"><ele>267.0</ele><time>2026-05-02T08:46:16.353Z</time></trkpt><trkpt lat="42.085345" lon="12.1789233"><ele>268.0</ele><time>2026-05-02T08:46:18.36Z</time></trkpt><trkpt lat="42.0853383" lon="12.1788367"><ele>269.0</ele><time>2026-05-02T08:46:20.354Z</time></trkpt><trkpt lat="42.085285" lon="12.178735"><ele>270.0</ele><time>2026-05-02T08:46:23.351Z</time></trkpt><trkpt lat="42.0852" lon="12.1786683"><ele>271.0</ele><time>2026-05-02T08:46:26.351Z</time></trkpt><trkpt lat="42.0850667" lon="12.1786483"><ele>271.0</ele><time>2026-05-02T08:46:30.355Z</time></trkpt><trkpt lat="42.084995" lon="12.17862"><ele>271.0</ele><time>2026-05-02T08:46:32.355Z</time></trkpt><trkpt lat="42.08494" lon="12.1785583"><ele>271.0</ele><time>2026-05-02T08:46:34.357Z</time></trkpt><trkpt lat="42.0848717" lon="12.178475"><ele>271.0</ele><time>2026-05-02T08:46:37.352Z</time></trkpt><trkpt lat="42.0848117" lon="12.178405"><ele>271.0</ele><time>2026-05-02T08:46:40.356Z</time></trkpt><trkpt lat="42.0847533" lon="12.1783317"><ele>271.0</ele><time>2026-05-02T08:46:43.364Z</time></trkpt><trkpt lat="42.0847" lon="12.1782433"><ele>272.16666666666663</ele><time>2026-05-02T08:46:46.349Z</time></trkpt><trkpt lat="42.08465" lon="12.1781583"><ele>273.3333333333333</ele><time>2026-05-02T08:46:49.354Z</time></trkpt><trkpt lat="42.084595" lon="12.1780833"><ele>274.5</ele><time>2026-05-02T08:46:52.353Z</time></trkpt><trkpt lat="42.0845267" lon="12.17801"><ele>275.6666666666667</ele><time>2026-05-02T08:46:55.355Z</time></trkpt><trkpt lat="42.0844567" lon="12.1779533"><ele>276.83333333333337</ele><time>2026-05-02T08:46:58.361Z</time></trkpt><trkpt lat="42.084395" lon="12.17789"><ele>278.0</ele><time>2026-05-02T08:47:01.354Z</time></trkpt><trkpt lat="42.0843417" lon="12.177825"><ele>278.0</ele><time>2026-05-02T08:47:04.352Z</time></trkpt><trkpt lat="42.084285" lon="12.1777567"><ele>278.0</ele><time>2026-05-02T08:47:08.354Z</time></trkpt><trkpt lat="42.084255" lon="12.1776733"><ele>278.0</ele><time>2026-05-02T08:47:11.353Z</time></trkpt><trkpt lat="42.0842483" lon="12.1775567"><ele>278.0</ele><time>2026-05-02T08:47:14.351Z</time></trkpt><trkpt lat="42.08424" lon="12.1774333"><ele>278.0</ele><time>2026-05-02T08:47:17.352Z</time></trkpt><trkpt lat="42.08424" lon="12.1773467"><ele>278.0</ele><time>2026-05-02T08:47:19.352Z</time></trkpt><trkpt lat="42.0842367" lon="12.1772583"><ele>278.42857142857144</ele><time>2026-05-02T08:47:21.354Z</time></trkpt><trkpt lat="42.084235" lon="12.1771717"><ele>278.8571428571429</ele><time>2026-05-02T08:47:23.352Z</time></trkpt><trkpt lat="42.0842333" lon="12.1770767"><ele>279.28571428571433</ele><time>2026-05-02T08:47:25.356Z</time></trkpt><trkpt lat="42.084235" lon="12.1769767"><ele>279.7142857142857</ele><time>2026-05-02T08:47:27.357Z</time></trkpt><trkpt lat="42.08423" lon="12.1768733"><ele>280.14285714285717</ele><time>2026-05-02T08:47:29.352Z</time></trkpt><trkpt lat="42.084225" lon="12.1767683"><ele>280.5714285714286</ele><time>2026-05-02T08:47:31.351Z</time></trkpt><trkpt lat="42.0842267" lon="12.1766617"><ele>281.0</ele><time>2026-05-02T08:47:33.353Z</time></trkpt><trkpt lat="42.0842233" lon="12.1765533"><ele>281.1666666666667</ele><time>2026-05-02T08:47:35.354Z</time></trkpt><trkpt lat="42.08422" lon="12.1764433"><ele>281.33333333333337</ele><time>2026-05-02T08:47:37.355Z</time></trkpt><trkpt lat="42.0842167" lon="12.1763333"><ele>281.5</ele><time>2026-05-02T08:47:39.357Z</time></trkpt><trkpt lat="42.0842167" lon="12.1762217"><ele>281.6666666666667</ele><time>2026-05-02T08:47:41.352Z</time></trkpt><trkpt lat="42.0842133" lon="12.176115"><ele>281.8333333333333</ele><time>2026-05-02T08:47:43.35Z</time></trkpt><trkpt lat="42.084215" lon="12.17601"><ele>282.0</ele><time>2026-05-02T08:47:45.356Z</time></trkpt><trkpt lat="42.0842183" lon="12.175905"><ele>282.0</ele><time>2026-05-02T08:47:47.35Z</time></trkpt><trkpt lat="42.0842217" lon="12.1757983"><ele>282.0</ele><time>2026-05-02T08:47:49.351Z</time></trkpt><trkpt lat="42.0842267" lon="12.175695"><ele>282.0</ele><time>2026-05-02T08:47:51.355Z</time></trkpt><trkpt lat="42.0842383" lon="12.1756033"><ele>282.0</ele><time>2026-05-02T08:47:53.351Z</time></trkpt><trkpt lat="42.0842333" lon="12.1755167"><ele>282.0</ele><time>2026-05-02T08:47:55.354Z</time></trkpt><trkpt lat="42.0842167" lon="12.1753883"><ele>282.0</ele><time>2026-05-02T08:47:58.353Z</time></trkpt><trkpt lat="42.08421" lon="12.1752967"><ele>282.2857142857143</ele><time>2026-05-02T08:48:00.353Z</time></trkpt><trkpt lat="42.0842067" lon="12.1752067"><ele>282.57142857142856</ele><time>2026-05-02T08:48:02.353Z</time></trkpt><trkpt lat="42.0841967" lon="12.175115"><ele>282.85714285714283</ele><time>2026-05-02T08:48:04.356Z</time></trkpt><trkpt lat="42.0841833" lon="12.1750217"><ele>283.1428571428571</ele><time>2026-05-02T08:48:06.355Z</time></trkpt><trkpt lat="42.0841717" lon="12.1749233"><ele>283.4285714285714</ele><time>2026-05-02T08:48:08.352Z</time></trkpt><trkpt lat="42.0841683" lon="12.1748267"><ele>283.7142857142857</ele><time>2026-05-02T08:48:10.353Z</time></trkpt><trkpt lat="42.084165" lon="12.1747267"><ele>284.0</ele><time>2026-05-02T08:48:12.35Z</time></trkpt><trkpt lat="42.08416" lon="12.174635"><ele>284.5</ele><time>2026-05-02T08:48:14.354Z</time></trkpt><trkpt lat="42.0841567" lon="12.1745467"><ele>285.0</ele><time>2026-05-02T08:48:16.352Z</time></trkpt><trkpt lat="42.0841517" lon="12.1744533"><ele>285.5</ele><time>2026-05-02T08:48:18.353Z</time></trkpt><trkpt lat="42.0841433" lon="12.1743617"><ele>286.0</ele><time>2026-05-02T08:48:20.351Z</time></trkpt><trkpt lat="42.0841367" lon="12.1742467"><ele>286.5</ele><time>2026-05-02T08:48:23.356Z</time></trkpt><trkpt lat="42.0841367" lon="12.17413"><ele>287.0</ele><time>2026-05-02T08:48:26.352Z</time></trkpt><trkpt lat="42.0841317" lon="12.174015"><ele>287.5</ele><time>2026-05-02T08:48:29.356Z</time></trkpt><trkpt lat="42.0841317" lon="12.173895"><ele>288.0</ele><time>2026-05-02T08:48:32.353Z</time></trkpt><trkpt lat="42.08413" lon="12.1737717"><ele>288.5</ele><time>2026-05-02T08:48:35.351Z</time></trkpt><trkpt lat="42.0841233" lon="12.1736617"><ele>289.0</ele><time>2026-05-02T08:48:38.357Z</time></trkpt><trkpt lat="42.0841183" lon="12.173555"><ele>289.5</ele><time>2026-05-02T08:48:41.356Z</time></trkpt><trkpt lat="42.0841133" lon="12.1734333"><ele>290.0</ele><time>2026-05-02T08:48:44.353Z</time></trkpt><trkpt lat="42.0841183" lon="12.173305"><ele>290.0</ele><time>2026-05-02T08:48:47.351Z</time></trkpt><trkpt lat="42.0841283" lon="12.1732067"><ele>290.0</ele><time>2026-05-02T08:48:49.352Z</time></trkpt><trkpt lat="42.08412" lon="12.173085"><ele>290.0</ele><time>2026-05-02T08:48:52.352Z</time></trkpt><trkpt lat="42.0841233" lon="12.1729983"><ele>290.0</ele><time>2026-05-02T08:48:54.352Z</time></trkpt><trkpt lat="42.0841217" lon="12.1728833"><ele>290.0</ele><time>2026-05-02T08:48:57.352Z</time></trkpt><trkpt lat="42.0841233" lon="12.1727733"><ele>290.0</ele><time>2026-05-02T08:49:00.352Z</time></trkpt><trkpt lat="42.08412" lon="12.172685"><ele>290.57142857142856</ele><time>2026-05-02T08:49:03.351Z</time></trkpt><trkpt lat="42.08413" lon="12.1725833"><ele>291.14285714285717</ele><time>2026-05-02T08:49:07.355Z</time></trkpt><trkpt lat="42.0841383" lon="12.1724917"><ele>291.7142857142857</ele><time>2026-05-02T08:49:10.355Z</time></trkpt><trkpt lat="42.08414" lon="12.172405"><ele>292.2857142857143</ele><time>2026-05-02T08:49:13.352Z</time></trkpt><trkpt lat="42.0841233" lon="12.172305"><ele>292.8571428571429</ele><time>2026-05-02T08:49:16.35Z</time></trkpt><trkpt lat="42.0841183" lon="12.1722067"><ele>293.42857142857144</ele><time>2026-05-02T08:49:19.349Z</time></trkpt><trkpt lat="42.0841217" lon="12.1721017"><ele>294.0</ele><time>2026-05-02T08:49:23.353Z</time></trkpt><trkpt lat="42.0841167" lon="12.1719833"><ele>294.3333333333333</ele><time>2026-05-02T08:49:26.351Z</time></trkpt><trkpt lat="42.0841067" lon="12.17186"><ele>294.6666666666667</ele><time>2026-05-02T08:49:29.35Z</time></trkpt><trkpt lat="42.084105" lon="12.1717367"><ele>295.0</ele><time>2026-05-02T08:49:32.351Z</time></trkpt><trkpt lat="42.0840933" lon="12.17161"><ele>295.33333333333337</ele><time>2026-05-02T08:49:35.352Z</time></trkpt><trkpt lat="42.0840883" lon="12.1715167"><ele>295.6666666666667</ele><time>2026-05-02T08:49:37.358Z</time></trkpt><trkpt lat="42.0841383" lon="12.1714167"><ele>296.0</ele><time>2026-05-02T08:49:40.355Z</time></trkpt><trkpt lat="42.084225" lon="12.1713867"><ele>296.1666666666667</ele><time>2026-05-02T08:49:43.355Z</time></trkpt><trkpt lat="42.08431" lon="12.17136"><ele>296.33333333333337</ele><time>2026-05-02T08:49:46.35Z</time></trkpt><trkpt lat="42.084395" lon="12.1713167"><ele>296.5</ele><time>2026-05-02T08:49:49.352Z</time></trkpt><trkpt lat="42.084475" lon="12.1712583"><ele>296.6666666666667</ele><time>2026-05-02T08:49:52.35Z</time></trkpt><trkpt lat="42.0845333" lon="12.1712183"><ele>296.8333333333333</ele><time>2026-05-02T08:49:54.353Z</time></trkpt><trkpt lat="42.0845983" lon="12.1711983"><ele>297.0</ele><time>2026-05-02T08:49:56.351Z</time></trkpt><trkpt lat="42.0846633" lon="12.1711933"><ele>297.0</ele><time>2026-05-02T08:49:58.352Z</time></trkpt><trkpt lat="42.08473" lon="12.17119"><ele>297.0</ele><time>2026-05-02T08:50:00.35Z</time></trkpt><trkpt lat="42.084795" lon="12.1711833"><ele>297.0</ele><time>2026-05-02T08:50:02.352Z</time></trkpt><trkpt lat="42.0848667" lon="12.171185"><ele>297.0</ele><time>2026-05-02T08:50:04.352Z</time></trkpt><trkpt lat="42.08494" lon="12.17119"><ele>297.0</ele><time>2026-05-02T08:50:06.352Z</time></trkpt><trkpt lat="42.0850133" lon="12.171195"><ele>297.0</ele><time>2026-05-02T08:50:08.354Z</time></trkpt><trkpt lat="42.0850883" lon="12.1711933"><ele>297.0</ele><time>2026-05-02T08:50:10.356Z</time></trkpt><trkpt lat="42.0851633" lon="12.1711833"><ele>297.5</ele><time>2026-05-02T08:50:12.353Z</time></trkpt><trkpt lat="42.0852367" lon="12.171185"><ele>298.0</ele><time>2026-05-02T08:50:14.351Z</time></trkpt><trkpt lat="42.0853133" lon="12.171185"><ele>298.5</ele><time>2026-05-02T08:50:16.351Z</time></trkpt><trkpt lat="42.0853867" lon="12.171185"><ele>299.0</ele><time>2026-05-02T08:50:18.352Z</time></trkpt><trkpt lat="42.085465" lon="12.171185"><ele>299.5</ele><time>2026-05-02T08:50:20.353Z</time></trkpt><trkpt lat="42.0855433" lon="12.17119"><ele>300.0</ele><time>2026-05-02T08:50:22.351Z</time></trkpt><trkpt lat="42.0856167" lon="12.171195"><ele>300.0</ele><time>2026-05-02T08:50:24.356Z</time></trkpt><trkpt lat="42.08569" lon="12.1711917"><ele>300.0</ele><time>2026-05-02T08:50:26.352Z</time></trkpt><trkpt lat="42.0857633" lon="12.1711917"><ele>300.0</ele><time>2026-05-02T08:50:28.351Z</time></trkpt><trkpt lat="42.0858333" lon="12.1712"><ele>300.0</ele><time>2026-05-02T08:50:30.352Z</time></trkpt><trkpt lat="42.0859117" lon="12.1712033"><ele>300.0</ele><time>2026-05-02T08:50:32.351Z</time></trkpt><trkpt lat="42.085995" lon="12.17121"><ele>300.0</ele><time>2026-05-02T08:50:34.35Z</time></trkpt><trkpt lat="42.0860833" lon="12.171215"><ele>299.8333333333333</ele><time>2026-05-02T08:50:36.352Z</time></trkpt><trkpt lat="42.0861683" lon="12.1712183"><ele>299.6666666666667</ele><time>2026-05-02T08:50:38.352Z</time></trkpt><trkpt lat="42.0862433" lon="12.1712283"><ele>299.5</ele><time>2026-05-02T08:50:40.352Z</time></trkpt><trkpt lat="42.0863117" lon="12.17124"><ele>299.33333333333337</ele><time>2026-05-02T08:50:43.352Z</time></trkpt><trkpt lat="42.086355" lon="12.1711383"><ele>299.1666666666667</ele><time>2026-05-02T08:50:53.352Z</time></trkpt><trkpt lat="42.086355" lon="12.1710367"><ele>299.0</ele><time>2026-05-02T08:50:55.352Z</time></trkpt><trkpt lat="42.08635" lon="12.1709183"><ele>299.0</ele><time>2026-05-02T08:50:57.352Z</time></trkpt><trkpt lat="42.0863533" lon="12.1707917"><ele>299.0</ele><time>2026-05-02T08:50:59.354Z</time></trkpt><trkpt lat="42.0863783" lon="12.17066"><ele>299.0</ele><time>2026-05-02T08:51:01.351Z</time></trkpt><trkpt lat="42.0864267" lon="12.1705117"><ele>299.0</ele><time>2026-05-02T08:51:03.36Z</time></trkpt><trkpt lat="42.0864617" lon="12.1704317"><ele>299.0</ele><time>2026-05-02T08:51:04.353Z</time></trkpt><trkpt lat="42.0865017" lon="12.17034"><ele>298.8</ele><time>2026-05-02T08:51:05.353Z</time></trkpt><trkpt lat="42.0865467" lon="12.1702383"><ele>298.59999999999997</ele><time>2026-05-02T08:51:06.352Z</time></trkpt><trkpt lat="42.0865967" lon="12.17013"><ele>298.4</ele><time>2026-05-02T08:51:07.349Z</time></trkpt><trkpt lat="42.086645" lon="12.1700117"><ele>298.2</ele><time>2026-05-02T08:51:08.362Z</time></trkpt><trkpt lat="42.0866917" lon="12.1699017"><ele>298.0</ele><time>2026-05-02T08:51:09.351Z</time></trkpt><trkpt lat="42.0867367" lon="12.1697933"><ele>297.8333333333333</ele><time>2026-05-02T08:51:10.354Z</time></trkpt><trkpt lat="42.08678" lon="12.1696867"><ele>297.66666666666663</ele><time>2026-05-02T08:51:11.351Z</time></trkpt><trkpt lat="42.0868233" lon="12.1695817"><ele>297.5</ele><time>2026-05-02T08:51:12.357Z</time></trkpt><trkpt lat="42.0868667" lon="12.1694817"><ele>297.3333333333333</ele><time>2026-05-02T08:51:13.353Z</time></trkpt><trkpt lat="42.0869083" lon="12.1693867"><ele>297.1666666666667</ele><time>2026-05-02T08:51:14.357Z</time></trkpt><trkpt lat="42.0869467" lon="12.1692983"><ele>297.0</ele><time>2026-05-02T08:51:15.352Z</time></trkpt><trkpt lat="42.0869833" lon="12.1692167"><ele>297.0</ele><time>2026-05-02T08:51:16.35Z</time></trkpt><trkpt lat="42.0870167" lon="12.1691417"><ele>297.0</ele><time>2026-05-02T08:51:17.353Z</time></trkpt><trkpt lat="42.0870717" lon="12.1690033"><ele>297.0</ele><time>2026-05-02T08:51:19.35Z</time></trkpt><trkpt lat="42.0871133" lon="12.1688867"><ele>297.0</ele><time>2026-05-02T08:51:21.35Z</time></trkpt><trkpt lat="42.08716" lon="12.1688033"><ele>297.0</ele><time>2026-05-02T08:51:23.35Z</time></trkpt><trkpt lat="42.0872083" lon="12.1687283"><ele>297.0</ele><time>2026-05-02T08:51:26.353Z</time></trkpt><trkpt lat="42.0872667" lon="12.1686583"><ele>297.2857142857143</ele><time>2026-05-02T08:51:45.354Z</time></trkpt><trkpt lat="42.08732" lon="12.1686067"><ele>297.5714285714286</ele><time>2026-05-02T08:51:47.349Z</time></trkpt><trkpt lat="42.0873767" lon="12.16854"><ele>297.8571428571429</ele><time>2026-05-02T08:51:49.36Z</time></trkpt><trkpt lat="42.08743" lon="12.1684617"><ele>298.14285714285717</ele><time>2026-05-02T08:51:51.354Z</time></trkpt><trkpt lat="42.08748" lon="12.1683833"><ele>298.42857142857144</ele><time>2026-05-02T08:51:53.353Z</time></trkpt><trkpt lat="42.0875333" lon="12.1683217"><ele>298.7142857142857</ele><time>2026-05-02T08:51:55.353Z</time></trkpt><trkpt lat="42.0875883" lon="12.1682633"><ele>299.0</ele><time>2026-05-02T08:51:57.351Z</time></trkpt><trkpt lat="42.0876383" lon="12.1682017"><ele>299.4</ele><time>2026-05-02T08:51:59.356Z</time></trkpt><trkpt lat="42.0876933" lon="12.1681267"><ele>299.79999999999995</ele><time>2026-05-02T08:52:01.363Z</time></trkpt><trkpt lat="42.0877467" lon="12.1680417"><ele>300.20000000000005</ele><time>2026-05-02T08:52:03.349Z</time></trkpt><trkpt lat="42.0878183" lon="12.16795"><ele>300.6</ele><time>2026-05-02T08:52:05.35Z</time></trkpt><trkpt lat="42.0879017" lon="12.1678483"><ele>301.0</ele><time>2026-05-02T08:52:07.351Z</time></trkpt><trkpt lat="42.087985" lon="12.1677383"><ele>301.0</ele><time>2026-05-02T08:52:09.352Z</time></trkpt><trkpt lat="42.08808" lon="12.1676233"><ele>301.0</ele><time>2026-05-02T08:52:11.348Z</time></trkpt><trkpt lat="42.0881283" lon="12.1675633"><ele>301.0</ele><time>2026-05-02T08:52:12.363Z</time></trkpt><trkpt lat="42.0882167" lon="12.1674517"><ele>301.0</ele><time>2026-05-02T08:52:14.352Z</time></trkpt><trkpt lat="42.0883" lon="12.1673533"><ele>301.0</ele><time>2026-05-02T08:52:16.348Z</time></trkpt><trkpt lat="42.088365" lon="12.1672717"><ele>301.0</ele><time>2026-05-02T08:52:18.35Z</time></trkpt><trkpt lat="42.0883583" lon="12.167165"><ele>301.0</ele><time>2026-05-02T08:52:20.353Z</time></trkpt><trkpt lat="42.0882733" lon="12.1670683"><ele>301.0</ele><time>2026-05-02T08:52:22.352Z</time></trkpt><trkpt lat="42.0881717" lon="12.16696"><ele>301.0</ele><time>2026-05-02T08:52:24.351Z</time></trkpt><trkpt lat="42.088115" lon="12.1669083"><ele>301.0</ele><time>2026-05-02T08:52:25.353Z</time></trkpt><trkpt lat="42.0880633" lon="12.166845"><ele>301.0</ele><time>2026-05-02T08:52:26.353Z</time></trkpt><trkpt lat="42.088015" lon="12.1667867"><ele>301.0</ele><time>2026-05-02T08:52:27.353Z</time></trkpt><trkpt lat="42.0879633" lon="12.1667283"><ele>301.0</ele><time>2026-05-02T08:52:28.355Z</time></trkpt><trkpt lat="42.0879083" lon="12.166665"><ele>301.0</ele><time>2026-05-02T08:52:29.352Z</time></trkpt><trkpt lat="42.0878533" lon="12.1665917"><ele>301.0</ele><time>2026-05-02T08:52:30.358Z</time></trkpt><trkpt lat="42.0878017" lon="12.1665167"><ele>301.0</ele><time>2026-05-02T08:52:31.353Z</time></trkpt><trkpt lat="42.08775" lon="12.16644"><ele>301.0</ele><time>2026-05-02T08:52:32.354Z</time></trkpt><trkpt lat="42.0877" lon="12.1663683"><ele>300.8333333333333</ele><time>2026-05-02T08:52:33.352Z</time></trkpt><trkpt lat="42.08765" lon="12.1663017"><ele>300.66666666666663</ele><time>2026-05-02T08:52:34.351Z</time></trkpt><trkpt lat="42.0876017" lon="12.1662433"><ele>300.5</ele><time>2026-05-02T08:52:35.352Z</time></trkpt><trkpt lat="42.0875117" lon="12.166135"><ele>300.3333333333333</ele><time>2026-05-02T08:52:37.352Z</time></trkpt><trkpt lat="42.08746" lon="12.1660833"><ele>300.1666666666667</ele><time>2026-05-02T08:52:38.353Z</time></trkpt><trkpt lat="42.08737" lon="12.1659867"><ele>300.0</ele><time>2026-05-02T08:52:40.352Z</time></trkpt><trkpt lat="42.0872733" lon="12.1658783"><ele>299.8333333333333</ele><time>2026-05-02T08:52:42.352Z</time></trkpt><trkpt lat="42.0872017" lon="12.1657867"><ele>299.6666666666667</ele><time>2026-05-02T08:52:44.349Z</time></trkpt><trkpt lat="42.08714" lon="12.1657133"><ele>299.5</ele><time>2026-05-02T08:52:47.352Z</time></trkpt><trkpt lat="42.0870867" lon="12.16566"><ele>299.33333333333337</ele><time>2026-05-02T08:52:49.351Z</time></trkpt><trkpt lat="42.0870283" lon="12.1655883"><ele>299.1666666666667</ele><time>2026-05-02T08:52:51.352Z</time></trkpt><trkpt lat="42.0869617" lon="12.1655133"><ele>299.0</ele><time>2026-05-02T08:52:53.351Z</time></trkpt><trkpt lat="42.0868867" lon="12.1654317"><ele>299.0</ele><time>2026-05-02T08:52:55.35Z</time></trkpt><trkpt lat="42.08681" lon="12.165345"><ele>299.0</ele><time>2026-05-02T08:52:57.352Z</time></trkpt><trkpt lat="42.0867267" lon="12.16526"><ele>299.0</ele><time>2026-05-02T08:52:59.36Z</time></trkpt><trkpt lat="42.0866517" lon="12.16515"><ele>299.0</ele><time>2026-05-02T08:53:01.354Z</time></trkpt><trkpt lat="42.0865617" lon="12.16505"><ele>299.0</ele><time>2026-05-02T08:53:03.351Z</time></trkpt><trkpt lat="42.0864667" lon="12.1649517"><ele>298.8</ele><time>2026-05-02T08:53:05.349Z</time></trkpt><trkpt lat="42.0863683" lon="12.1648583"><ele>298.59999999999997</ele><time>2026-05-02T08:53:07.35Z</time></trkpt><trkpt lat="42.0862767" lon="12.164755"><ele>298.4</ele><time>2026-05-02T08:53:09.353Z</time></trkpt><trkpt lat="42.0862283" lon="12.1646983"><ele>298.2</ele><time>2026-05-02T08:53:10.351Z</time></trkpt><trkpt lat="42.0861333" lon="12.16459"><ele>298.0</ele><time>2026-05-02T08:53:12.353Z</time></trkpt><trkpt lat="42.0860383" lon="12.1644867"><ele>298.0</ele><time>2026-05-02T08:53:14.349Z</time></trkpt><trkpt lat="42.0859883" lon="12.164435"><ele>298.0</ele><time>2026-05-02T08:53:15.352Z</time></trkpt><trkpt lat="42.085895" lon="12.164325"><ele>298.0</ele><time>2026-05-02T08:53:17.351Z</time></trkpt><trkpt lat="42.0857933" lon="12.1642333"><ele>298.0</ele><time>2026-05-02T08:53:19.354Z</time></trkpt><trkpt lat="42.08569" lon="12.1641433"><ele>298.0</ele><time>2026-05-02T08:53:21.353Z</time></trkpt><trkpt lat="42.085635" lon="12.1641017"><ele>297.0</ele><time>2026-05-02T08:53:22.354Z</time></trkpt><trkpt lat="42.085525" lon="12.1640267"><ele>296.0</ele><time>2026-05-02T08:53:24.356Z</time></trkpt><trkpt lat="42.0854683" lon="12.163985"><ele>295.0</ele><time>2026-05-02T08:53:25.353Z</time></trkpt><trkpt lat="42.0853583" lon="12.1639083"><ele>294.0</ele><time>2026-05-02T08:53:27.352Z</time></trkpt><trkpt lat="42.085245" lon="12.163835"><ele>293.0</ele><time>2026-05-02T08:53:29.349Z</time></trkpt><trkpt lat="42.0851383" lon="12.1637533"><ele>292.99999999999994</ele><time>2026-05-02T08:53:31.355Z</time></trkpt><trkpt lat="42.085075" lon="12.163725"><ele>293.0</ele><time>2026-05-02T08:53:32.352Z</time></trkpt><trkpt lat="42.085015" lon="12.1636983"><ele>293.0</ele><time>2026-05-02T08:53:33.352Z</time></trkpt><trkpt lat="42.0849533" lon="12.1636717"><ele>293.0</ele><time>2026-05-02T08:53:34.349Z</time></trkpt><trkpt lat="42.08489" lon="12.163645"><ele>293.0</ele><time>2026-05-02T08:53:35.353Z</time></trkpt><trkpt lat="42.0848267" lon="12.1636133"><ele>292.99999999999994</ele><time>2026-05-02T08:53:36.351Z</time></trkpt><trkpt lat="42.0847567" lon="12.16358"><ele>293.0</ele><time>2026-05-02T08:53:37.35Z</time></trkpt><trkpt lat="42.084685" lon="12.1635417"><ele>292.1666666666667</ele><time>2026-05-02T08:53:38.357Z</time></trkpt><trkpt lat="42.0846133" lon="12.1635"><ele>291.33333333333337</ele><time>2026-05-02T08:53:39.351Z</time></trkpt><trkpt lat="42.084535" lon="12.1634567"><ele>290.5</ele><time>2026-05-02T08:53:40.351Z</time></trkpt><trkpt lat="42.084455" lon="12.163415"><ele>289.6666666666667</ele><time>2026-05-02T08:53:41.349Z</time></trkpt><trkpt lat="42.0843767" lon="12.1633767"><ele>288.8333333333333</ele><time>2026-05-02T08:53:42.35Z</time></trkpt><trkpt lat="42.0842933" lon="12.163335"><ele>288.0</ele><time>2026-05-02T08:53:43.351Z</time></trkpt><trkpt lat="42.0842117" lon="12.16329"><ele>288.0</ele><time>2026-05-02T08:53:44.351Z</time></trkpt><trkpt lat="42.0841317" lon="12.163245"><ele>288.0</ele><time>2026-05-02T08:53:45.35Z</time></trkpt><trkpt lat="42.0840467" lon="12.163195"><ele>288.0</ele><time>2026-05-02T08:53:46.358Z</time></trkpt><trkpt lat="42.0839617" lon="12.16315"><ele>288.0</ele><time>2026-05-02T08:53:47.349Z</time></trkpt><trkpt lat="42.083875" lon="12.1631083"><ele>288.0</ele><time>2026-05-02T08:53:48.351Z</time></trkpt><trkpt lat="42.083795" lon="12.1630667"><ele>288.0</ele><time>2026-05-02T08:53:49.353Z</time></trkpt><trkpt lat="42.083725" lon="12.1630217"><ele>286.7142857142857</ele><time>2026-05-02T08:53:50.351Z</time></trkpt><trkpt lat="42.08366" lon="12.162985"><ele>285.42857142857144</ele><time>2026-05-02T08:53:51.355Z</time></trkpt><trkpt lat="42.08359" lon="12.16295"><ele>284.1428571428571</ele><time>2026-05-02T08:53:52.35Z</time></trkpt><trkpt lat="42.0835233" lon="12.162915"><ele>282.8571428571429</ele><time>2026-05-02T08:53:53.35Z</time></trkpt><trkpt lat="42.0834617" lon="12.1628833"><ele>281.57142857142856</ele><time>2026-05-02T08:53:54.359Z</time></trkpt><trkpt lat="42.0833983" lon="12.1628533"><ele>280.2857142857143</ele><time>2026-05-02T08:53:55.349Z</time></trkpt><trkpt lat="42.08334" lon="12.16282"><ele>279.0</ele><time>2026-05-02T08:53:56.35Z</time></trkpt><trkpt lat="42.083235" lon="12.16275"><ele>279.0</ele><time>2026-05-02T08:53:58.349Z</time></trkpt><trkpt lat="42.0831233" lon="12.1626933"><ele>279.0</ele><time>2026-05-02T08:54:00.352Z</time></trkpt><trkpt lat="42.0830233" lon="12.1626433"><ele>279.0</ele><time>2026-05-02T08:54:02.35Z</time></trkpt><trkpt lat="42.0829283" lon="12.1625933"><ele>279.0</ele><time>2026-05-02T08:54:04.352Z</time></trkpt><trkpt lat="42.0828333" lon="12.16256"><ele>279.0</ele><time>2026-05-02T08:54:06.36Z</time></trkpt><trkpt lat="42.0827517" lon="12.16251"><ele>279.0</ele><time>2026-05-02T08:54:08.352Z</time></trkpt><trkpt lat="42.0826733" lon="12.1624583"><ele>279.0</ele><time>2026-05-02T08:54:10.352Z</time></trkpt><trkpt lat="42.082595" lon="12.1624133"><ele>279.0</ele><time>2026-05-02T08:54:12.351Z</time></trkpt><trkpt lat="42.0825233" lon="12.1623733"><ele>279.0</ele><time>2026-05-02T08:54:14.351Z</time></trkpt><trkpt lat="42.082445" lon="12.1623467"><ele>279.0</ele><time>2026-05-02T08:54:16.35Z</time></trkpt><trkpt lat="42.0823567" lon="12.1622967"><ele>279.0</ele><time>2026-05-02T08:54:19.355Z</time></trkpt><trkpt lat="42.0822917" lon="12.1622417"><ele>278.0</ele><time>2026-05-02T08:54:21.352Z</time></trkpt><trkpt lat="42.0822" lon="12.1622067"><ele>277.0</ele><time>2026-05-02T08:54:23.352Z</time></trkpt><trkpt lat="42.0820983" lon="12.16215"><ele>276.0</ele><time>2026-05-02T08:54:25.359Z</time></trkpt><trkpt lat="42.0819867" lon="12.1620817"><ele>275.0</ele><time>2026-05-02T08:54:27.354Z</time></trkpt><trkpt lat="42.08188" lon="12.16202"><ele>274.0</ele><time>2026-05-02T08:54:29.352Z</time></trkpt><trkpt lat="42.08182" lon="12.1619883"><ele>274.0</ele><time>2026-05-02T08:54:30.359Z</time></trkpt><trkpt lat="42.08172" lon="12.16193"><ele>274.0</ele><time>2026-05-02T08:54:32.353Z</time></trkpt><trkpt lat="42.0816433" lon="12.1618867"><ele>274.0</ele><time>2026-05-02T08:54:34.354Z</time></trkpt><trkpt lat="42.0815667" lon="12.1618567"><ele>274.0</ele><time>2026-05-02T08:54:37.355Z</time></trkpt><trkpt lat="42.0815333" lon="12.1617767"><ele>274.0</ele><time>2026-05-02T08:54:41.355Z</time></trkpt><trkpt lat="42.081555" lon="12.1616917"><ele>274.0</ele><time>2026-05-02T08:54:43.353Z</time></trkpt><trkpt lat="42.081585" lon="12.1615617"><ele>273.66666666666663</ele><time>2026-05-02T08:54:45.352Z</time></trkpt><trkpt lat="42.0816017" lon="12.1614767"><ele>273.3333333333333</ele><time>2026-05-02T08:54:46.355Z</time></trkpt><trkpt lat="42.0816217" lon="12.1613817"><ele>273.0</ele><time>2026-05-02T08:54:47.351Z</time></trkpt><trkpt lat="42.0816467" lon="12.16127"><ele>272.6666666666667</ele><time>2026-05-02T08:54:48.352Z</time></trkpt><trkpt lat="42.081675" lon="12.1611533"><ele>272.33333333333337</ele><time>2026-05-02T08:54:49.35Z</time></trkpt><trkpt lat="42.0817033" lon="12.161025"><ele>272.0</ele><time>2026-05-02T08:54:50.351Z</time></trkpt><trkpt lat="42.0817367" lon="12.1608917"><ele>272.0</ele><time>2026-05-02T08:54:51.351Z</time></trkpt><trkpt lat="42.08177" lon="12.1607533"><ele>272.0</ele><time>2026-05-02T08:54:52.352Z</time></trkpt><trkpt lat="42.0818033" lon="12.1606117"><ele>272.0</ele><time>2026-05-02T08:54:53.356Z</time></trkpt><trkpt lat="42.08184" lon="12.1604733"><ele>272.0</ele><time>2026-05-02T08:54:54.35Z</time></trkpt><trkpt lat="42.081875" lon="12.1603367"><ele>272.0</ele><time>2026-05-02T08:54:55.35Z</time></trkpt><trkpt lat="42.08191" lon="12.1601983"><ele>271.8</ele><time>2026-05-02T08:54:56.349Z</time></trkpt><trkpt lat="42.081945" lon="12.16006"><ele>271.6</ele><time>2026-05-02T08:54:57.353Z</time></trkpt><trkpt lat="42.0819767" lon="12.1599267"><ele>271.40000000000003</ele><time>2026-05-02T08:54:58.35Z</time></trkpt><trkpt lat="42.08201" lon="12.1597933"><ele>271.2</ele><time>2026-05-02T08:54:59.352Z</time></trkpt><trkpt lat="42.08204" lon="12.1596617"><ele>271.0</ele><time>2026-05-02T08:55:00.351Z</time></trkpt><trkpt lat="42.0820733" lon="12.159535"><ele>269.8</ele><time>2026-05-02T08:55:01.351Z</time></trkpt><trkpt lat="42.0821017" lon="12.159405"><ele>268.6</ele><time>2026-05-02T08:55:02.359Z</time></trkpt><trkpt lat="42.0821267" lon="12.1592833"><ele>267.4</ele><time>2026-05-02T08:55:03.353Z</time></trkpt><trkpt lat="42.0821567" lon="12.1591617"><ele>266.2</ele><time>2026-05-02T08:55:04.351Z</time></trkpt><trkpt lat="42.0821883" lon="12.15905"><ele>265.0</ele><time>2026-05-02T08:55:05.351Z</time></trkpt><trkpt lat="42.082225" lon="12.158935"><ele>264.5</ele><time>2026-05-02T08:55:06.354Z</time></trkpt><trkpt lat="42.0822533" lon="12.158825"><ele>264.0</ele><time>2026-05-02T08:55:07.356Z</time></trkpt><trkpt lat="42.0822817" lon="12.1587167"><ele>263.5</ele><time>2026-05-02T08:55:08.355Z</time></trkpt><trkpt lat="42.0823083" lon="12.158605"><ele>263.0</ele><time>2026-05-02T08:55:09.353Z</time></trkpt><trkpt lat="42.0823367" lon="12.158495"><ele>262.5</ele><time>2026-05-02T08:55:10.356Z</time></trkpt><trkpt lat="42.0823633" lon="12.158385"><ele>262.0</ele><time>2026-05-02T08:55:11.351Z</time></trkpt><trkpt lat="42.082395" lon="12.1582783"><ele>261.8571428571429</ele><time>2026-05-02T08:55:12.351Z</time></trkpt><trkpt lat="42.0824283" lon="12.158175"><ele>261.7142857142857</ele><time>2026-05-02T08:55:13.354Z</time></trkpt><trkpt lat="42.0824533" lon="12.158075"><ele>261.57142857142856</ele><time>2026-05-02T08:55:14.351Z</time></trkpt><trkpt lat="42.082475" lon="12.15798"><ele>261.42857142857144</ele><time>2026-05-02T08:55:15.351Z</time></trkpt><trkpt lat="42.0824933" lon="12.1578883"><ele>261.2857142857143</ele><time>2026-05-02T08:55:16.354Z</time></trkpt><trkpt lat="42.0825117" lon="12.1578033"><ele>261.14285714285717</ele><time>2026-05-02T08:55:17.358Z</time></trkpt><trkpt lat="42.0825283" lon="12.157715"><ele>261.0</ele><time>2026-05-02T08:55:18.35Z</time></trkpt><trkpt lat="42.082545" lon="12.1576317"><ele>261.5</ele><time>2026-05-02T08:55:19.35Z</time></trkpt><trkpt lat="42.0825867" lon="12.1574683"><ele>262.0</ele><time>2026-05-02T08:55:21.35Z</time></trkpt><trkpt lat="42.0826283" lon="12.15731"><ele>262.5</ele><time>2026-05-02T08:55:23.352Z</time></trkpt><trkpt lat="42.0826667" lon="12.1571517"><ele>263.0</ele><time>2026-05-02T08:55:25.351Z</time></trkpt><trkpt lat="42.0827033" lon="12.1569933"><ele>263.0</ele><time>2026-05-02T08:55:27.352Z</time></trkpt><trkpt lat="42.0827433" lon="12.1568467"><ele>263.0</ele><time>2026-05-02T08:55:29.352Z</time></trkpt><trkpt lat="42.0827783" lon="12.1567117"><ele>263.0</ele><time>2026-05-02T08:55:31.352Z</time></trkpt><trkpt lat="42.0828067" lon="12.1565817"><ele>263.0</ele><time>2026-05-02T08:55:33.351Z</time></trkpt><trkpt lat="42.08283" lon="12.1564667"><ele>263.0</ele><time>2026-05-02T08:55:35.368Z</time></trkpt><trkpt lat="42.08285" lon="12.1563533"><ele>263.0</ele><time>2026-05-02T08:55:37.35Z</time></trkpt><trkpt lat="42.0828717" lon="12.1562483"><ele>263.0</ele><time>2026-05-02T08:55:39.354Z</time></trkpt><trkpt lat="42.0828917" lon="12.15616"><ele>263.0</ele><time>2026-05-02T08:55:41.349Z</time></trkpt><trkpt lat="42.0829117" lon="12.156075"><ele>263.0</ele><time>2026-05-02T08:55:43.351Z</time></trkpt><trkpt lat="42.08293" lon="12.1559817"><ele>263.0</ele><time>2026-05-02T08:55:45.35Z</time></trkpt><trkpt lat="42.0829583" lon="12.15588"><ele>263.0</ele><time>2026-05-02T08:55:47.358Z</time></trkpt><trkpt lat="42.0829867" lon="12.15576"><ele>263.0</ele><time>2026-05-02T08:55:49.35Z</time></trkpt><trkpt lat="42.083025" lon="12.155625"><ele>263.0</ele><time>2026-05-02T08:55:51.35Z</time></trkpt><trkpt lat="42.0830533" lon="12.1554667"><ele>263.0</ele><time>2026-05-02T08:55:53.351Z</time></trkpt><trkpt lat="42.083085" lon="12.1553167"><ele>263.0</ele><time>2026-05-02T08:55:55.35Z</time></trkpt><trkpt lat="42.0831233" lon="12.15516"><ele>263.0</ele><time>2026-05-02T08:55:57.358Z</time></trkpt><trkpt lat="42.08316" lon="12.155005"><ele>263.0</ele><time>2026-05-02T08:55:59.352Z</time></trkpt><trkpt lat="42.0831967" lon="12.15485"><ele>263.0</ele><time>2026-05-02T08:56:01.351Z</time></trkpt><trkpt lat="42.0832367" lon="12.1547017"><ele>263.0</ele><time>2026-05-02T08:56:03.351Z</time></trkpt><trkpt lat="42.0832683" lon="12.15455"><ele>263.6</ele><time>2026-05-02T08:56:05.352Z</time></trkpt><trkpt lat="42.0833017" lon="12.1544067"><ele>264.20000000000005</ele><time>2026-05-02T08:56:07.349Z</time></trkpt><trkpt lat="42.0833383" lon="12.1542633"><ele>264.8</ele><time>2026-05-02T08:56:09.352Z</time></trkpt><trkpt lat="42.08337" lon="12.154125"><ele>265.40000000000003</ele><time>2026-05-02T08:56:11.359Z</time></trkpt><trkpt lat="42.0834083" lon="12.1539933"><ele>266.0</ele><time>2026-05-02T08:56:13.349Z</time></trkpt><trkpt lat="42.0834433" lon="12.1538717"><ele>266.8</ele><time>2026-05-02T08:56:15.354Z</time></trkpt><trkpt lat="42.0834783" lon="12.1537483"><ele>267.6</ele><time>2026-05-02T08:56:17.358Z</time></trkpt><trkpt lat="42.0835083" lon="12.153625"><ele>268.4</ele><time>2026-05-02T08:56:19.351Z</time></trkpt><trkpt lat="42.0835367" lon="12.15351"><ele>269.2</ele><time>2026-05-02T08:56:21.351Z</time></trkpt><trkpt lat="42.0835617" lon="12.1534017"><ele>270.0</ele><time>2026-05-02T08:56:23.352Z</time></trkpt><trkpt lat="42.083585" lon="12.1532917"><ele>271.0</ele><time>2026-05-02T08:56:25.354Z</time></trkpt><trkpt lat="42.08361" lon="12.1531883"><ele>272.0</ele><time>2026-05-02T08:56:27.355Z</time></trkpt><trkpt lat="42.0836383" lon="12.15309"><ele>273.0</ele><time>2026-05-02T08:56:29.361Z</time></trkpt><trkpt lat="42.0836617" lon="12.153005"><ele>274.0</ele><time>2026-05-02T08:56:31.351Z</time></trkpt><trkpt lat="42.0836983" lon="12.15289"><ele>275.0</ele><time>2026-05-02T08:56:34.352Z</time></trkpt><trkpt lat="42.08373" lon="12.1528167"><ele>276.0</ele><time>2026-05-02T08:56:36.351Z</time></trkpt><trkpt lat="42.0837517" lon="12.1527283"><ele>276.0</ele><time>2026-05-02T08:56:38.353Z</time></trkpt><trkpt lat="42.0837717" lon="12.152635"><ele>276.0</ele><time>2026-05-02T08:56:40.358Z</time></trkpt><trkpt lat="42.0838" lon="12.1525417"><ele>276.0</ele><time>2026-05-02T08:56:42.351Z</time></trkpt><trkpt lat="42.08383" lon="12.15245"><ele>276.0</ele><time>2026-05-02T08:56:44.352Z</time></trkpt><trkpt lat="42.0838483" lon="12.1523567"><ele>276.0</ele><time>2026-05-02T08:56:46.356Z</time></trkpt><trkpt lat="42.0838717" lon="12.1522733"><ele>276.0</ele><time>2026-05-02T08:56:48.352Z</time></trkpt><trkpt lat="42.0838967" lon="12.1521567"><ele>276.0</ele><time>2026-05-02T08:56:51.356Z</time></trkpt><trkpt lat="42.083915" lon="12.1520733"><ele>276.40000000000003</ele><time>2026-05-02T08:56:53.35Z</time></trkpt><trkpt lat="42.0839433" lon="12.151955"><ele>276.8</ele><time>2026-05-02T08:56:56.352Z</time></trkpt><trkpt lat="42.083985" lon="12.15184"><ele>277.20000000000005</ele><time>2026-05-02T08:56:59.35Z</time></trkpt><trkpt lat="42.08401" lon="12.1517233"><ele>277.6</ele><time>2026-05-02T08:57:02.355Z</time></trkpt><trkpt lat="42.0840367" lon="12.1516083"><ele>278.0</ele><time>2026-05-02T08:57:05.354Z</time></trkpt><trkpt lat="42.0840633" lon="12.151495"><ele>278.0</ele><time>2026-05-02T08:57:08.35Z</time></trkpt><trkpt lat="42.0840983" lon="12.1513817"><ele>278.0</ele><time>2026-05-02T08:57:11.353Z</time></trkpt><trkpt lat="42.084125" lon="12.1512683"><ele>278.0</ele><time>2026-05-02T08:57:14.35Z</time></trkpt><trkpt lat="42.0841533" lon="12.1511567"><ele>278.0</ele><time>2026-05-02T08:57:17.349Z</time></trkpt><trkpt lat="42.08418" lon="12.1510583"><ele>278.0</ele><time>2026-05-02T08:57:20.351Z</time></trkpt><trkpt lat="42.0841583" lon="12.150965"><ele>278.0</ele><time>2026-05-02T08:57:25.352Z</time></trkpt><trkpt lat="42.0841517" lon="12.15088"><ele>278.0</ele><time>2026-05-02T08:57:28.351Z</time></trkpt><trkpt lat="42.0841683" lon="12.1507867"><ele>278.0</ele><time>2026-05-02T08:57:31.35Z</time></trkpt><trkpt lat="42.084195" lon="12.1506867"><ele>278.0</ele><time>2026-05-02T08:57:34.349Z</time></trkpt><trkpt lat="42.0842233" lon="12.150575"><ele>278.0</ele><time>2026-05-02T08:57:37.353Z</time></trkpt><trkpt lat="42.0842533" lon="12.15046"><ele>278.0</ele><time>2026-05-02T08:57:40.36Z</time></trkpt><trkpt lat="42.084275" lon="12.15038"><ele>278.0</ele><time>2026-05-02T08:57:42.353Z</time></trkpt><trkpt lat="42.08429" lon="12.15029"><ele>278.0</ele><time>2026-05-02T08:57:44.351Z</time></trkpt><trkpt lat="42.0843117" lon="12.1501767"><ele>278.0</ele><time>2026-05-02T08:57:47.352Z</time></trkpt><trkpt lat="42.0843333" lon="12.15006"><ele>278.0</ele><time>2026-05-02T08:59:39.351Z</time></trkpt><trkpt lat="42.0843533" lon="12.1499783"><ele>278.0</ele><time>2026-05-02T08:59:42.357Z</time></trkpt><trkpt lat="42.0843883" lon="12.14988"><ele>278.0</ele><time>2026-05-02T08:59:45.355Z</time></trkpt><trkpt lat="42.084415" lon="12.1497983"><ele>278.0</ele><time>2026-05-02T08:59:47.36Z</time></trkpt><trkpt lat="42.08444" lon="12.1497117"><ele>278.0</ele><time>2026-05-02T08:59:49.355Z</time></trkpt><trkpt lat="42.0844617" lon="12.1496233"><ele>278.0</ele><time>2026-05-02T08:59:51.356Z</time></trkpt><trkpt lat="42.084485" lon="12.149525"><ele>278.0</ele><time>2026-05-02T08:59:53.353Z</time></trkpt><trkpt lat="42.0845033" lon="12.1494117"><ele>278.0</ele><time>2026-05-02T08:59:55.35Z</time></trkpt><trkpt lat="42.084525" lon="12.1492883"><ele>278.0</ele><time>2026-05-02T08:59:57.355Z</time></trkpt><trkpt lat="42.08456" lon="12.1491483"><ele>278.0</ele><time>2026-05-02T08:59:59.359Z</time></trkpt><trkpt lat="42.0845967" lon="12.14899"><ele>277.5</ele><time>2026-05-02T09:00:01.354Z</time></trkpt><trkpt lat="42.0846183" lon="12.1489067"><ele>277.0</ele><time>2026-05-02T09:00:02.353Z</time></trkpt><trkpt lat="42.0846417" lon="12.148815"><ele>276.5</ele><time>2026-05-02T09:00:03.353Z</time></trkpt><trkpt lat="42.0846633" lon="12.1487167"><ele>276.0</ele><time>2026-05-02T09:00:04.357Z</time></trkpt><trkpt lat="42.08468" lon="12.14863"><ele>275.5</ele><time>2026-05-02T09:00:05.35Z</time></trkpt><trkpt lat="42.084715" lon="12.1484883"><ele>275.0</ele><time>2026-05-02T09:00:07.351Z</time></trkpt><trkpt lat="42.0847417" lon="12.1483617"><ele>275.0</ele><time>2026-05-02T09:00:09.356Z</time></trkpt><trkpt lat="42.084765" lon="12.1482483"><ele>275.0</ele><time>2026-05-02T09:00:11.351Z</time></trkpt><trkpt lat="42.0847833" lon="12.1481233"><ele>275.0</ele><time>2026-05-02T09:00:13.353Z</time></trkpt><trkpt lat="42.0848033" lon="12.1480167"><ele>275.0</ele><time>2026-05-02T09:00:15.352Z</time></trkpt><trkpt lat="42.08482" lon="12.1478967"><ele>275.0</ele><time>2026-05-02T09:00:17.352Z</time></trkpt><trkpt lat="42.0848367" lon="12.1477683"><ele>274.2</ele><time>2026-05-02T09:00:19.352Z</time></trkpt><trkpt lat="42.08485" lon="12.147635"><ele>273.4</ele><time>2026-05-02T09:00:21.354Z</time></trkpt><trkpt lat="42.0848567" lon="12.1475167"><ele>272.6</ele><time>2026-05-02T09:00:23.353Z</time></trkpt><trkpt lat="42.08488" lon="12.1473967"><ele>271.8</ele><time>2026-05-02T09:00:25.353Z</time></trkpt><trkpt lat="42.0849067" lon="12.147255"><ele>271.0</ele><time>2026-05-02T09:00:27.352Z</time></trkpt><trkpt lat="42.084935" lon="12.1471067"><ele>271.0</ele><time>2026-05-02T09:00:29.351Z</time></trkpt><trkpt lat="42.0849717" lon="12.1469567"><ele>271.0</ele><time>2026-05-02T09:00:31.355Z</time></trkpt><trkpt lat="42.0850317" lon="12.1468167"><ele>271.0</ele><time>2026-05-02T09:00:33.355Z</time></trkpt><trkpt lat="42.0850983" lon="12.1467017"><ele>271.0</ele><time>2026-05-02T09:00:35.352Z</time></trkpt><trkpt lat="42.08515" lon="12.1465883"><ele>271.0</ele><time>2026-05-02T09:00:37.351Z</time></trkpt><trkpt lat="42.08519" lon="12.146465"><ele>270.40000000000003</ele><time>2026-05-02T09:00:39.353Z</time></trkpt><trkpt lat="42.0852317" lon="12.146345"><ele>269.8</ele><time>2026-05-02T09:00:41.35Z</time></trkpt><trkpt lat="42.08526" lon="12.14621"><ele>269.20000000000005</ele><time>2026-05-02T09:00:43.352Z</time></trkpt><trkpt lat="42.085275" lon="12.1460583"><ele>268.6</ele><time>2026-05-02T09:00:45.358Z</time></trkpt><trkpt lat="42.0852867" lon="12.1459017"><ele>268.0</ele><time>2026-05-02T09:00:47.351Z</time></trkpt><trkpt lat="42.0852817" lon="12.1457533"><ele>268.0</ele><time>2026-05-02T09:00:49.351Z</time></trkpt><trkpt lat="42.085295" lon="12.145615"><ele>268.0</ele><time>2026-05-02T09:00:51.353Z</time></trkpt><trkpt lat="42.0853083" lon="12.145485"><ele>268.0</ele><time>2026-05-02T09:00:53.352Z</time></trkpt><trkpt lat="42.08531" lon="12.145365"><ele>268.0</ele><time>2026-05-02T09:00:55.352Z</time></trkpt><trkpt lat="42.0852883" lon="12.1452583"><ele>268.0</ele><time>2026-05-02T09:00:57.354Z</time></trkpt><trkpt lat="42.0852517" lon="12.1451633"><ele>268.0</ele><time>2026-05-02T09:00:59.349Z</time></trkpt><trkpt lat="42.0852067" lon="12.1450633"><ele>268.0</ele><time>2026-05-02T09:01:01.355Z</time></trkpt><trkpt lat="42.0851567" lon="12.14496"><ele>268.0</ele><time>2026-05-02T09:01:03.352Z</time></trkpt><trkpt lat="42.0850967" lon="12.144855"><ele>268.0</ele><time>2026-05-02T09:01:05.358Z</time></trkpt><trkpt lat="42.08504" lon="12.14475"><ele>268.0</ele><time>2026-05-02T09:01:07.351Z</time></trkpt><trkpt lat="42.0849733" lon="12.14464"><ele>268.6</ele><time>2026-05-02T09:01:09.354Z</time></trkpt><trkpt lat="42.0849" lon="12.1445217"><ele>269.20000000000005</ele><time>2026-05-02T09:01:11.357Z</time></trkpt><trkpt lat="42.084835" lon="12.1444117"><ele>269.8</ele><time>2026-05-02T09:01:13.354Z</time></trkpt><trkpt lat="42.0847683" lon="12.14431"><ele>270.40000000000003</ele><time>2026-05-02T09:01:15.351Z</time></trkpt><trkpt lat="42.0846967" lon="12.14421"><ele>271.0</ele><time>2026-05-02T09:01:17.354Z</time></trkpt><trkpt lat="42.084635" lon="12.144115"><ele>271.0</ele><time>2026-05-02T09:01:19.351Z</time></trkpt><trkpt lat="42.0845733" lon="12.14402"><ele>271.0</ele><time>2026-05-02T09:01:21.353Z</time></trkpt><trkpt lat="42.0845067" lon="12.1439267"><ele>271.0</ele><time>2026-05-02T09:01:23.354Z</time></trkpt><trkpt lat="42.0844417" lon="12.143825"><ele>271.0</ele><time>2026-05-02T09:01:25.352Z</time></trkpt><trkpt lat="42.084375" lon="12.1437267"><ele>271.0</ele><time>2026-05-02T09:01:27.353Z</time></trkpt><trkpt lat="42.0843017" lon="12.143645"><ele>271.0</ele><time>2026-05-02T09:01:29.35Z</time></trkpt><trkpt lat="42.0842217" lon="12.143565"><ele>271.0</ele><time>2026-05-02T09:01:31.351Z</time></trkpt><trkpt lat="42.0841517" lon="12.143475"><ele>271.0</ele><time>2026-05-02T09:01:33.351Z</time></trkpt><trkpt lat="42.0840833" lon="12.1433967"><ele>271.0</ele><time>2026-05-02T09:01:35.352Z</time></trkpt><trkpt lat="42.08402" lon="12.14334"><ele>271.0</ele><time>2026-05-02T09:01:37.351Z</time></trkpt><trkpt lat="42.0839533" lon="12.143285"><ele>271.0</ele><time>2026-05-02T09:01:39.351Z</time></trkpt><trkpt lat="42.0838833" lon="12.1432517"><ele>272.5</ele><time>2026-05-02T09:01:41.351Z</time></trkpt><trkpt lat="42.0838233" lon="12.1432033"><ele>274.0</ele><time>2026-05-02T09:01:43.352Z</time></trkpt><trkpt lat="42.08376" lon="12.1431533"><ele>275.5</ele><time>2026-05-02T09:01:45.352Z</time></trkpt><trkpt lat="42.0836983" lon="12.1431067"><ele>277.0</ele><time>2026-05-02T09:01:47.35Z</time></trkpt><trkpt lat="42.0836133" lon="12.1430567"><ele>278.5</ele><time>2026-05-02T09:01:50.36Z</time></trkpt><trkpt lat="42.08354" lon="12.1430283"><ele>280.0</ele><time>2026-05-02T09:01:53.352Z</time></trkpt><trkpt lat="42.083415" lon="12.1429283"><ele>280.0</ele><time>2026-05-02T09:02:40.351Z</time></trkpt><trkpt lat="42.08333" lon="12.1428767"><ele>280.0</ele><time>2026-05-02T09:02:43.354Z</time></trkpt><trkpt lat="42.08326" lon="12.1428033"><ele>280.0</ele><time>2026-05-02T09:02:46.351Z</time></trkpt><trkpt lat="42.0832" lon="12.1427317"><ele>280.0</ele><time>2026-05-02T09:02:49.353Z</time></trkpt><trkpt lat="42.083125" lon="12.1426517"><ele>280.0</ele><time>2026-05-02T09:02:52.35Z</time></trkpt><trkpt lat="42.083055" lon="12.142585"><ele>280.0</ele><time>2026-05-02T09:02:55.351Z</time></trkpt><trkpt lat="42.08299" lon="12.1425"><ele>279.4</ele><time>2026-05-02T09:02:58.35Z</time></trkpt><trkpt lat="42.0829433" lon="12.1424083"><ele>278.8</ele><time>2026-05-02T09:03:00.351Z</time></trkpt><trkpt lat="42.0828733" lon="12.1422917"><ele>278.2</ele><time>2026-05-02T09:03:02.356Z</time></trkpt><trkpt lat="42.0827933" lon="12.1421633"><ele>277.6</ele><time>2026-05-02T09:03:04.351Z</time></trkpt><trkpt lat="42.0827517" lon="12.142095"><ele>277.0</ele><time>2026-05-02T09:03:05.36Z</time></trkpt><trkpt lat="42.0826867" lon="12.1419583"><ele>277.0</ele><time>2026-05-02T09:03:07.35Z</time></trkpt><trkpt lat="42.0826367" lon="12.14181"><ele>277.0</ele><time>2026-05-02T09:03:09.352Z</time></trkpt><trkpt lat="42.0826217" lon="12.1416567"><ele>277.0</ele><time>2026-05-02T09:03:11.353Z</time></trkpt><trkpt lat="42.082605" lon="12.1415183"><ele>277.0</ele><time>2026-05-02T09:03:13.35Z</time></trkpt><trkpt lat="42.0825817" lon="12.1413983"><ele>277.0</ele><time>2026-05-02T09:03:15.351Z</time></trkpt><trkpt lat="42.08256" lon="12.1412867"><ele>277.16666666666663</ele><time>2026-05-02T09:03:17.355Z</time></trkpt><trkpt lat="42.0825217" lon="12.1411883"><ele>277.3333333333333</ele><time>2026-05-02T09:03:19.355Z</time></trkpt><trkpt lat="42.0824767" lon="12.1410967"><ele>277.5</ele><time>2026-05-02T09:03:21.359Z</time></trkpt><trkpt lat="42.082435" lon="12.1409983"><ele>277.6666666666667</ele><time>2026-05-02T09:03:23.351Z</time></trkpt><trkpt lat="42.082395" lon="12.1409133"><ele>277.83333333333337</ele><time>2026-05-02T09:03:25.358Z</time></trkpt><trkpt lat="42.082355" lon="12.1408233"><ele>278.0</ele><time>2026-05-02T09:03:28.352Z</time></trkpt><trkpt lat="42.0823" lon="12.1407333"><ele>278.5</ele><time>2026-05-02T09:03:48.35Z</time></trkpt><trkpt lat="42.0822517" lon="12.1406633"><ele>279.0</ele><time>2026-05-02T09:03:50.355Z</time></trkpt><trkpt lat="42.08218" lon="12.1405867"><ele>279.5</ele><time>2026-05-02T09:03:52.36Z</time></trkpt><trkpt lat="42.0820933" lon="12.140535"><ele>280.0</ele><time>2026-05-02T09:03:54.352Z</time></trkpt><trkpt lat="42.08201" lon="12.1404983"><ele>280.5</ele><time>2026-05-02T09:03:56.351Z</time></trkpt><trkpt lat="42.0819267" lon="12.1404767"><ele>281.0</ele><time>2026-05-02T09:03:58.352Z</time></trkpt><trkpt lat="42.08184" lon="12.1404717"><ele>281.0</ele><time>2026-05-02T09:04:00.351Z</time></trkpt><trkpt lat="42.0817483" lon="12.140445"><ele>281.0</ele><time>2026-05-02T09:04:02.35Z</time></trkpt><trkpt lat="42.0816583" lon="12.1404183"><ele>281.0</ele><time>2026-05-02T09:04:04.351Z</time></trkpt><trkpt lat="42.0815633" lon="12.1403817"><ele>281.0</ele><time>2026-05-02T09:04:06.351Z</time></trkpt><trkpt lat="42.081475" lon="12.1403533"><ele>281.0</ele><time>2026-05-02T09:04:08.351Z</time></trkpt><trkpt lat="42.0813817" lon="12.1403417"><ele>281.5</ele><time>2026-05-02T09:04:10.353Z</time></trkpt><trkpt lat="42.0812933" lon="12.14033"><ele>282.0</ele><time>2026-05-02T09:04:12.351Z</time></trkpt><trkpt lat="42.0812083" lon="12.1403183"><ele>282.5</ele><time>2026-05-02T09:04:14.352Z</time></trkpt><trkpt lat="42.0811217" lon="12.14031"><ele>283.0</ele><time>2026-05-02T09:04:16.35Z</time></trkpt><trkpt lat="42.0810367" lon="12.140295"><ele>283.5</ele><time>2026-05-02T09:04:18.352Z</time></trkpt><trkpt lat="42.0809533" lon="12.14029"><ele>284.0</ele><time>2026-05-02T09:04:20.351Z</time></trkpt><trkpt lat="42.08087" lon="12.1402817"><ele>284.0</ele><time>2026-05-02T09:04:22.351Z</time></trkpt><trkpt lat="42.0807867" lon="12.140265"><ele>284.0</ele><time>2026-05-02T09:04:24.354Z</time></trkpt><trkpt lat="42.0807033" lon="12.1402467"><ele>284.0</ele><time>2026-05-02T09:04:26.358Z</time></trkpt><trkpt lat="42.0806217" lon="12.1402283"><ele>284.0</ele><time>2026-05-02T09:04:28.352Z</time></trkpt><trkpt lat="42.0805433" lon="12.1402067"><ele>284.0</ele><time>2026-05-02T09:04:30.352Z</time></trkpt><trkpt lat="42.0804733" lon="12.1401683"><ele>284.0</ele><time>2026-05-02T09:04:32.355Z</time></trkpt><trkpt lat="42.0804117" lon="12.140115"><ele>283.83333333333337</ele><time>2026-05-02T09:04:34.351Z</time></trkpt><trkpt lat="42.0803483" lon="12.1400617"><ele>283.6666666666667</ele><time>2026-05-02T09:04:36.351Z</time></trkpt><trkpt lat="42.080285" lon="12.1400233"><ele>283.5</ele><time>2026-05-02T09:04:38.356Z</time></trkpt><trkpt lat="42.0802217" lon="12.1399883"><ele>283.3333333333333</ele><time>2026-05-02T09:04:40.355Z</time></trkpt><trkpt lat="42.080145" lon="12.1399317"><ele>283.16666666666663</ele><time>2026-05-02T09:04:43.353Z</time></trkpt><trkpt lat="42.0800733" lon="12.1398883"><ele>283.0</ele><time>2026-05-02T09:04:46.348Z</time></trkpt><trkpt lat="42.0799867" lon="12.1398367"><ele>283.42857142857144</ele><time>2026-05-02T09:04:49.353Z</time></trkpt><trkpt lat="42.0799333" lon="12.139785"><ele>283.8571428571429</ele><time>2026-05-02T09:04:51.353Z</time></trkpt><trkpt lat="42.0798783" lon="12.1397267"><ele>284.2857142857143</ele><time>2026-05-02T09:04:53.35Z</time></trkpt><trkpt lat="42.0798267" lon="12.1396633"><ele>284.7142857142857</ele><time>2026-05-02T09:04:55.352Z</time></trkpt><trkpt lat="42.0797633" lon="12.1396133"><ele>285.1428571428571</ele><time>2026-05-02T09:04:57.359Z</time></trkpt><trkpt lat="42.0796917" lon="12.1395633"><ele>285.57142857142856</ele><time>2026-05-02T09:04:59.351Z</time></trkpt><trkpt lat="42.0796217" lon="12.13951"><ele>286.0</ele><time>2026-05-02T09:05:01.35Z</time></trkpt><trkpt lat="42.079555" lon="12.1394483"><ele>286.0</ele><time>2026-05-02T09:05:03.352Z</time></trkpt><trkpt lat="42.0794867" lon="12.139385"><ele>286.0</ele><time>2026-05-02T09:05:05.349Z</time></trkpt><trkpt lat="42.07942" lon="12.139325"><ele>286.0</ele><time>2026-05-02T09:05:07.354Z</time></trkpt><trkpt lat="42.0793483" lon="12.1392583"><ele>286.0</ele><time>2026-05-02T09:05:09.354Z</time></trkpt><trkpt lat="42.079275" lon="12.1391967"><ele>286.0</ele><time>2026-05-02T09:05:11.351Z</time></trkpt><trkpt lat="42.0792133" lon="12.139145"><ele>286.0</ele><time>2026-05-02T09:05:13.35Z</time></trkpt><trkpt lat="42.0791467" lon="12.1391017"><ele>285.5</ele><time>2026-05-02T09:05:15.351Z</time></trkpt><trkpt lat="42.0790783" lon="12.1390433"><ele>285.0</ele><time>2026-05-02T09:05:17.351Z</time></trkpt><trkpt lat="42.0790033" lon="12.1389817"><ele>284.5</ele><time>2026-05-02T09:05:19.353Z</time></trkpt><trkpt lat="42.0789283" lon="12.138915"><ele>284.0</ele><time>2026-05-02T09:05:21.353Z</time></trkpt><trkpt lat="42.0788567" lon="12.138845"><ele>283.5</ele><time>2026-05-02T09:05:23.352Z</time></trkpt><trkpt lat="42.0787817" lon="12.1387867"><ele>283.0</ele><time>2026-05-02T09:05:25.355Z</time></trkpt><trkpt lat="42.0787067" lon="12.138735"><ele>283.0</ele><time>2026-05-02T09:05:27.351Z</time></trkpt><trkpt lat="42.0786267" lon="12.1386817"><ele>283.0</ele><time>2026-05-02T09:05:29.35Z</time></trkpt><trkpt lat="42.0785433" lon="12.1386183"><ele>283.0</ele><time>2026-05-02T09:05:31.349Z</time></trkpt><trkpt lat="42.0784583" lon="12.1385567"><ele>283.0</ele><time>2026-05-02T09:05:33.35Z</time></trkpt><trkpt lat="42.078375" lon="12.1385017"><ele>283.0</ele><time>2026-05-02T09:05:35.352Z</time></trkpt><trkpt lat="42.07829" lon="12.1384417"><ele>282.6</ele><time>2026-05-02T09:05:37.351Z</time></trkpt><trkpt lat="42.0782067" lon="12.1383783"><ele>282.20000000000005</ele><time>2026-05-02T09:05:39.352Z</time></trkpt><trkpt lat="42.0781117" lon="12.13831"><ele>281.8</ele><time>2026-05-02T09:05:41.367Z</time></trkpt><trkpt lat="42.0780233" lon="12.1382367"><ele>281.40000000000003</ele><time>2026-05-02T09:05:43.351Z</time></trkpt><trkpt lat="42.0779367" lon="12.1381667"><ele>281.0</ele><time>2026-05-02T09:05:45.35Z</time></trkpt><trkpt lat="42.0778533" lon="12.1380983"><ele>281.0</ele><time>2026-05-02T09:05:47.35Z</time></trkpt><trkpt lat="42.0777717" lon="12.1380333"><ele>281.0</ele><time>2026-05-02T09:05:49.351Z</time></trkpt><trkpt lat="42.077695" lon="12.13797"><ele>281.0</ele><time>2026-05-02T09:05:51.35Z</time></trkpt><trkpt lat="42.0776117" lon="12.1379133"><ele>281.0</ele><time>2026-05-02T09:05:53.351Z</time></trkpt><trkpt lat="42.0775233" lon="12.1378483"><ele>281.0</ele><time>2026-05-02T09:05:55.351Z</time></trkpt><trkpt lat="42.07744" lon="12.1377783"><ele>280.5</ele><time>2026-05-02T09:05:57.351Z</time></trkpt><trkpt lat="42.07736" lon="12.1377083"><ele>280.0</ele><time>2026-05-02T09:05:59.352Z</time></trkpt><trkpt lat="42.077285" lon="12.1376333"><ele>279.5</ele><time>2026-05-02T09:06:01.353Z</time></trkpt><trkpt lat="42.0772067" lon="12.1375733"><ele>279.0</ele><time>2026-05-02T09:06:03.351Z</time></trkpt><trkpt lat="42.07715" lon="12.137525"><ele>278.5</ele><time>2026-05-02T09:06:05.351Z</time></trkpt><trkpt lat="42.077095" lon="12.137475"><ele>278.0</ele><time>2026-05-02T09:06:08.352Z</time></trkpt><trkpt lat="42.0770483" lon="12.1373967"><ele>278.6666666666667</ele><time>2026-05-02T09:06:11.351Z</time></trkpt><trkpt lat="42.077005" lon="12.1373333"><ele>279.33333333333337</ele><time>2026-05-02T09:06:13.357Z</time></trkpt><trkpt lat="42.0769467" lon="12.13726"><ele>280.0</ele><time>2026-05-02T09:06:15.35Z</time></trkpt><trkpt lat="42.0768933" lon="12.1371867"><ele>280.6666666666667</ele><time>2026-05-02T09:06:17.353Z</time></trkpt><trkpt lat="42.07684" lon="12.1371183"><ele>281.3333333333333</ele><time>2026-05-02T09:06:19.351Z</time></trkpt><trkpt lat="42.0767817" lon="12.1370417"><ele>282.0</ele><time>2026-05-02T09:06:21.354Z</time></trkpt><trkpt lat="42.07672" lon="12.1369583"><ele>282.0</ele><time>2026-05-02T09:06:23.352Z</time></trkpt><trkpt lat="42.0766667" lon="12.1368667"><ele>282.0</ele><time>2026-05-02T09:06:25.351Z</time></trkpt><trkpt lat="42.0766183" lon="12.1367617"><ele>282.0</ele><time>2026-05-02T09:06:27.352Z</time></trkpt><trkpt lat="42.07658" lon="12.13665"><ele>282.0</ele><time>2026-05-02T09:06:29.357Z</time></trkpt><trkpt lat="42.0765417" lon="12.1365383"><ele>282.0</ele><time>2026-05-02T09:06:31.351Z</time></trkpt><trkpt lat="42.076505" lon="12.1364367"><ele>282.0</ele><time>2026-05-02T09:06:33.351Z</time></trkpt><trkpt lat="42.0764683" lon="12.1363483"><ele>282.3333333333333</ele><time>2026-05-02T09:06:35.354Z</time></trkpt><trkpt lat="42.0764317" lon="12.1362667"><ele>282.6666666666667</ele><time>2026-05-02T09:06:37.355Z</time></trkpt><trkpt lat="42.07639" lon="12.1361817"><ele>283.0</ele><time>2026-05-02T09:06:39.353Z</time></trkpt><trkpt lat="42.0763517" lon="12.1360917"><ele>283.33333333333337</ele><time>2026-05-02T09:06:41.356Z</time></trkpt><trkpt lat="42.0762933" lon="12.1360133"><ele>283.6666666666667</ele><time>2026-05-02T09:06:43.351Z</time></trkpt><trkpt lat="42.0762217" lon="12.1359533"><ele>284.0</ele><time>2026-05-02T09:06:45.352Z</time></trkpt><trkpt lat="42.0761467" lon="12.1358917"><ele>284.0</ele><time>2026-05-02T09:06:47.349Z</time></trkpt><trkpt lat="42.0760583" lon="12.1358333"><ele>284.0</ele><time>2026-05-02T09:06:49.349Z</time></trkpt><trkpt lat="42.0759667" lon="12.1357683"><ele>284.0</ele><time>2026-05-02T09:06:51.354Z</time></trkpt><trkpt lat="42.0758617" lon="12.1357083"><ele>284.0</ele><time>2026-05-02T09:06:53.352Z</time></trkpt><trkpt lat="42.0757583" lon="12.1356467"><ele>284.0</ele><time>2026-05-02T09:06:55.351Z</time></trkpt><trkpt lat="42.0756567" lon="12.1355817"><ele>282.8</ele><time>2026-05-02T09:06:57.358Z</time></trkpt><trkpt lat="42.0755683" lon="12.1355"><ele>281.59999999999997</ele><time>2026-05-02T09:06:59.354Z</time></trkpt><trkpt lat="42.0754967" lon="12.1354233"><ele>280.4</ele><time>2026-05-02T09:07:01.352Z</time></trkpt><trkpt lat="42.075435" lon="12.135355"><ele>279.2</ele><time>2026-05-02T09:07:03.353Z</time></trkpt><trkpt lat="42.075355" lon="12.1352883"><ele>278.0</ele><time>2026-05-02T09:07:06.352Z</time></trkpt><trkpt lat="42.07527" lon="12.1352333"><ele>278.0</ele><time>2026-05-02T09:07:09.355Z</time></trkpt><trkpt lat="42.0752117" lon="12.1351933"><ele>278.0</ele><time>2026-05-02T09:07:11.352Z</time></trkpt><trkpt lat="42.0751283" lon="12.135125"><ele>278.0</ele><time>2026-05-02T09:07:14.353Z</time></trkpt><trkpt lat="42.07506" lon="12.13507"><ele>278.0</ele><time>2026-05-02T09:07:16.354Z</time></trkpt><trkpt lat="42.07499" lon="12.13501"><ele>278.0</ele><time>2026-05-02T09:07:18.349Z</time></trkpt><trkpt lat="42.0749117" lon="12.1349517"><ele>278.0</ele><time>2026-05-02T09:07:20.35Z</time></trkpt><trkpt lat="42.074805" lon="12.1349133"><ele>277.0</ele><time>2026-05-02T09:07:22.352Z</time></trkpt><trkpt lat="42.0746883" lon="12.1348533"><ele>276.0</ele><time>2026-05-02T09:07:24.352Z</time></trkpt><trkpt lat="42.0746333" lon="12.134805"><ele>275.0</ele><time>2026-05-02T09:07:25.354Z</time></trkpt><trkpt lat="42.07458" lon="12.1347533"><ele>274.0</ele><time>2026-05-02T09:07:26.35Z</time></trkpt><trkpt lat="42.0745217" lon="12.134705"><ele>273.0</ele><time>2026-05-02T09:07:27.351Z</time></trkpt><trkpt lat="42.0744633" lon="12.1346567"><ele>272.0</ele><time>2026-05-02T09:07:28.351Z</time></trkpt><trkpt lat="42.0744083" lon="12.1346067"><ele>271.99999999999994</ele><time>2026-05-02T09:07:29.352Z</time></trkpt><trkpt lat="42.0743483" lon="12.1345567"><ele>272.0</ele><time>2026-05-02T09:07:30.351Z</time></trkpt><trkpt lat="42.0742883" lon="12.1345117"><ele>272.0</ele><time>2026-05-02T09:07:31.358Z</time></trkpt><trkpt lat="42.07423" lon="12.1344683"><ele>272.0</ele><time>2026-05-02T09:07:32.35Z</time></trkpt><trkpt lat="42.0741683" lon="12.1344233"><ele>272.0</ele><time>2026-05-02T09:07:33.352Z</time></trkpt><trkpt lat="42.0741067" lon="12.1343783"><ele>271.99999999999994</ele><time>2026-05-02T09:07:34.351Z</time></trkpt><trkpt lat="42.0740483" lon="12.1343333"><ele>272.0</ele><time>2026-05-02T09:07:35.35Z</time></trkpt><trkpt lat="42.0739917" lon="12.13429"><ele>271.71428571428567</ele><time>2026-05-02T09:07:36.349Z</time></trkpt><trkpt lat="42.073935" lon="12.134245"><ele>271.42857142857144</ele><time>2026-05-02T09:07:37.35Z</time></trkpt><trkpt lat="42.0738783" lon="12.1342033"><ele>271.1428571428571</ele><time>2026-05-02T09:07:38.357Z</time></trkpt><trkpt lat="42.07382" lon="12.1341617"><ele>270.85714285714283</ele><time>2026-05-02T09:07:39.352Z</time></trkpt><trkpt lat="42.0737633" lon="12.1341217"><ele>270.57142857142856</ele><time>2026-05-02T09:07:40.349Z</time></trkpt><trkpt lat="42.0737067" lon="12.1340783"><ele>270.2857142857143</ele><time>2026-05-02T09:07:41.35Z</time></trkpt><trkpt lat="42.0736533" lon="12.1340283"><ele>270.0</ele><time>2026-05-02T09:07:42.351Z</time></trkpt><trkpt lat="42.0735967" lon="12.13398"><ele>270.0</ele><time>2026-05-02T09:07:43.35Z</time></trkpt><trkpt lat="42.07354" lon="12.1339333"><ele>270.0</ele><time>2026-05-02T09:07:44.351Z</time></trkpt><trkpt lat="42.0734833" lon="12.1338883"><ele>270.0</ele><time>2026-05-02T09:07:45.352Z</time></trkpt><trkpt lat="42.0734267" lon="12.1338417"><ele>270.0</ele><time>2026-05-02T09:07:46.35Z</time></trkpt><trkpt lat="42.0733717" lon="12.1337967"><ele>270.0</ele><time>2026-05-02T09:07:47.355Z</time></trkpt><trkpt lat="42.0733167" lon="12.1337533"><ele>270.0</ele><time>2026-05-02T09:07:48.35Z</time></trkpt><trkpt lat="42.073215" lon="12.13366"><ele>270.0</ele><time>2026-05-02T09:07:50.352Z</time></trkpt><trkpt lat="42.0731083" lon="12.13358"><ele>270.0</ele><time>2026-05-02T09:07:52.351Z</time></trkpt><trkpt lat="42.0729967" lon="12.1335133"><ele>270.0</ele><time>2026-05-02T09:07:54.35Z</time></trkpt><trkpt lat="42.0728883" lon="12.13347"><ele>270.0</ele><time>2026-05-02T09:07:56.352Z</time></trkpt><trkpt lat="42.0727967" lon="12.13344"><ele>270.0</ele><time>2026-05-02T09:07:58.358Z</time></trkpt><trkpt lat="42.0727317" lon="12.1334233"><ele>270.0</ele><time>2026-05-02T09:08:01.352Z</time></trkpt><trkpt lat="42.0726567" lon="12.1333833"><ele>270.0</ele><time>2026-05-02T09:08:05.351Z</time></trkpt><trkpt lat="42.0725817" lon="12.1333433"><ele>270.0</ele><time>2026-05-02T09:08:09.353Z</time></trkpt><trkpt lat="42.07251" lon="12.1333133"><ele>270.0</ele><time>2026-05-02T09:08:13.351Z</time></trkpt><trkpt lat="42.07244" lon="12.133295"><ele>270.0</ele><time>2026-05-02T09:08:16.352Z</time></trkpt><trkpt lat="42.0723617" lon="12.1332667"><ele>270.0</ele><time>2026-05-02T09:08:19.351Z</time></trkpt><trkpt lat="42.07228" lon="12.1332283"><ele>270.0</ele><time>2026-05-02T09:08:22.352Z</time></trkpt><trkpt lat="42.0722117" lon="12.1332"><ele>270.0</ele><time>2026-05-02T09:08:24.35Z</time></trkpt><trkpt lat="42.0721283" lon="12.1331733"><ele>270.0</ele><time>2026-05-02T09:08:26.354Z</time></trkpt><trkpt lat="42.072045" lon="12.1331467"><ele>270.0</ele><time>2026-05-02T09:08:28.352Z</time></trkpt><trkpt lat="42.071955" lon="12.1331167"><ele>270.0</ele><time>2026-05-02T09:08:30.355Z</time></trkpt><trkpt lat="42.0718583" lon="12.1330867"><ele>269.75</ele><time>2026-05-02T09:08:32.352Z</time></trkpt><trkpt lat="42.0717517" lon="12.133055"><ele>269.5</ele><time>2026-05-02T09:08:34.351Z</time></trkpt><trkpt lat="42.0716367" lon="12.133015"><ele>269.25</ele><time>2026-05-02T09:08:36.351Z</time></trkpt><trkpt lat="42.07152" lon="12.1329667"><ele>269.0</ele><time>2026-05-02T09:08:38.352Z</time></trkpt><trkpt lat="42.0714" lon="12.1329217"><ele>268.7142857142857</ele><time>2026-05-02T09:08:40.369Z</time></trkpt><trkpt lat="42.0713383" lon="12.1329017"><ele>268.42857142857144</ele><time>2026-05-02T09:08:41.351Z</time></trkpt><trkpt lat="42.0712767" lon="12.132875"><ele>268.14285714285717</ele><time>2026-05-02T09:08:42.351Z</time></trkpt><trkpt lat="42.0712133" lon="12.1328483"><ele>267.8571428571429</ele><time>2026-05-02T09:08:43.35Z</time></trkpt><trkpt lat="42.07115" lon="12.132815"><ele>267.57142857142856</ele><time>2026-05-02T09:08:44.354Z</time></trkpt><trkpt lat="42.0710883" lon="12.1327783"><ele>267.28571428571433</ele><time>2026-05-02T09:08:45.353Z</time></trkpt><trkpt lat="42.0710267" lon="12.1327433"><ele>267.0</ele><time>2026-05-02T09:08:46.35Z</time></trkpt><trkpt lat="42.070965" lon="12.1327133"><ele>267.00000000000006</ele><time>2026-05-02T09:08:47.35Z</time></trkpt><trkpt lat="42.0709017" lon="12.1326817"><ele>267.0</ele><time>2026-05-02T09:08:48.354Z</time></trkpt><trkpt lat="42.0708417" lon="12.132645"><ele>267.0</ele><time>2026-05-02T09:08:49.351Z</time></trkpt><trkpt lat="42.0707817" lon="12.1326083"><ele>267.0</ele><time>2026-05-02T09:08:50.349Z</time></trkpt><trkpt lat="42.0707217" lon="12.1325733"><ele>267.0</ele><time>2026-05-02T09:08:51.351Z</time></trkpt><trkpt lat="42.07066" lon="12.132535"><ele>267.00000000000006</ele><time>2026-05-02T09:08:52.354Z</time></trkpt><trkpt lat="42.0705983" lon="12.132495"><ele>267.0</ele><time>2026-05-02T09:08:53.356Z</time></trkpt><trkpt lat="42.0705333" lon="12.1324567"><ele>266.5</ele><time>2026-05-02T09:08:54.351Z</time></trkpt><trkpt lat="42.0704667" lon="12.132415"><ele>266.0</ele><time>2026-05-02T09:08:55.351Z</time></trkpt><trkpt lat="42.0704017" lon="12.1323667"><ele>265.5</ele><time>2026-05-02T09:08:56.349Z</time></trkpt><trkpt lat="42.0703383" lon="12.1323167"><ele>265.0</ele><time>2026-05-02T09:08:57.35Z</time></trkpt><trkpt lat="42.0702717" lon="12.1322667"><ele>264.5</ele><time>2026-05-02T09:08:58.349Z</time></trkpt><trkpt lat="42.0702" lon="12.13221"><ele>264.0</ele><time>2026-05-02T09:08:59.349Z</time></trkpt><trkpt lat="42.0701283" lon="12.1321517"><ele>263.8</ele><time>2026-05-02T09:09:00.357Z</time></trkpt><trkpt lat="42.0700517" lon="12.1320917"><ele>263.59999999999997</ele><time>2026-05-02T09:09:01.352Z</time></trkpt><trkpt lat="42.069975" lon="12.1320283"><ele>263.4</ele><time>2026-05-02T09:09:02.352Z</time></trkpt><trkpt lat="42.069895" lon="12.1319667"><ele>263.2</ele><time>2026-05-02T09:09:03.351Z</time></trkpt><trkpt lat="42.0698133" lon="12.1319"><ele>263.0</ele><time>2026-05-02T09:09:04.351Z</time></trkpt><trkpt lat="42.0697317" lon="12.1318317"><ele>262.2</ele><time>2026-05-02T09:09:05.353Z</time></trkpt><trkpt lat="42.06965" lon="12.1317583"><ele>261.4</ele><time>2026-05-02T09:09:06.355Z</time></trkpt><trkpt lat="42.069565" lon="12.131685"><ele>260.59999999999997</ele><time>2026-05-02T09:09:07.352Z</time></trkpt><trkpt lat="42.0694817" lon="12.1316167"><ele>259.8</ele><time>2026-05-02T09:09:08.35Z</time></trkpt><trkpt lat="42.0694" lon="12.1315483"><ele>259.0</ele><time>2026-05-02T09:09:09.355Z</time></trkpt><trkpt lat="42.0693183" lon="12.1314783"><ele>258.8</ele><time>2026-05-02T09:09:10.353Z</time></trkpt><trkpt lat="42.06924" lon="12.13141"><ele>258.59999999999997</ele><time>2026-05-02T09:09:11.357Z</time></trkpt><trkpt lat="42.0691583" lon="12.131345"><ele>258.4</ele><time>2026-05-02T09:09:12.349Z</time></trkpt><trkpt lat="42.06908" lon="12.13128"><ele>258.2</ele><time>2026-05-02T09:09:13.35Z</time></trkpt><trkpt lat="42.0690033" lon="12.1312117"><ele>258.0</ele><time>2026-05-02T09:09:14.35Z</time></trkpt><trkpt lat="42.0689283" lon="12.1311467"><ele>257.8333333333333</ele><time>2026-05-02T09:09:15.351Z</time></trkpt><trkpt lat="42.0688567" lon="12.1310817"><ele>257.6666666666667</ele><time>2026-05-02T09:09:16.354Z</time></trkpt><trkpt lat="42.0687833" lon="12.1310183"><ele>257.5</ele><time>2026-05-02T09:09:17.363Z</time></trkpt><trkpt lat="42.0687117" lon="12.1309567"><ele>257.33333333333337</ele><time>2026-05-02T09:09:18.349Z</time></trkpt><trkpt lat="42.0686383" lon="12.1308967"><ele>257.1666666666667</ele><time>2026-05-02T09:09:19.352Z</time></trkpt><trkpt lat="42.068565" lon="12.130845"><ele>257.0</ele><time>2026-05-02T09:09:20.351Z</time></trkpt><trkpt lat="42.0684917" lon="12.1307983"><ele>257.0</ele><time>2026-05-02T09:09:21.349Z</time></trkpt><trkpt lat="42.0684167" lon="12.1307533"><ele>257.0</ele><time>2026-05-02T09:09:22.352Z</time></trkpt><trkpt lat="42.0683383" lon="12.130715"><ele>257.0</ele><time>2026-05-02T09:09:23.35Z</time></trkpt><trkpt lat="42.0682583" lon="12.1306883"><ele>257.0</ele><time>2026-05-02T09:09:24.35Z</time></trkpt><trkpt lat="42.06818" lon="12.1306667"><ele>257.0</ele><time>2026-05-02T09:09:25.356Z</time></trkpt><trkpt lat="42.0681017" lon="12.130655"><ele>257.0</ele><time>2026-05-02T09:09:26.35Z</time></trkpt><trkpt lat="42.0680233" lon="12.1306533"><ele>256.85714285714283</ele><time>2026-05-02T09:09:27.357Z</time></trkpt><trkpt lat="42.06795" lon="12.1306617"><ele>256.7142857142857</ele><time>2026-05-02T09:09:28.35Z</time></trkpt><trkpt lat="42.0678783" lon="12.1306833"><ele>256.57142857142856</ele><time>2026-05-02T09:09:29.351Z</time></trkpt><trkpt lat="42.0678067" lon="12.1307117"><ele>256.42857142857144</ele><time>2026-05-02T09:09:30.353Z</time></trkpt><trkpt lat="42.0677383" lon="12.1307367"><ele>256.2857142857143</ele><time>2026-05-02T09:09:31.351Z</time></trkpt><trkpt lat="42.0676683" lon="12.1307583"><ele>256.1428571428571</ele><time>2026-05-02T09:09:32.35Z</time></trkpt><trkpt lat="42.067595" lon="12.130785"><ele>256.0</ele><time>2026-05-02T09:09:33.351Z</time></trkpt><trkpt lat="42.0675217" lon="12.1308167"><ele>255.99999999999997</ele><time>2026-05-02T09:09:34.351Z</time></trkpt><trkpt lat="42.0674467" lon="12.1308483"><ele>256.0</ele><time>2026-05-02T09:09:35.351Z</time></trkpt><trkpt lat="42.06737" lon="12.1308767"><ele>256.0</ele><time>2026-05-02T09:09:36.349Z</time></trkpt><trkpt lat="42.0672933" lon="12.1309"><ele>256.0</ele><time>2026-05-02T09:09:37.351Z</time></trkpt><trkpt lat="42.0672183" lon="12.130925"><ele>255.99999999999997</ele><time>2026-05-02T09:09:38.351Z</time></trkpt><trkpt lat="42.067145" lon="12.130955"><ele>256.0</ele><time>2026-05-02T09:09:39.352Z</time></trkpt><trkpt lat="42.0670717" lon="12.1309833"><ele>255.66666666666666</ele><time>2026-05-02T09:09:40.349Z</time></trkpt><trkpt lat="42.0669967" lon="12.1310117"><ele>255.33333333333331</ele><time>2026-05-02T09:09:41.351Z</time></trkpt><trkpt lat="42.0669217" lon="12.1310383"><ele>255.0</ele><time>2026-05-02T09:09:42.354Z</time></trkpt><trkpt lat="42.0668467" lon="12.1310667"><ele>254.66666666666669</ele><time>2026-05-02T09:09:43.35Z</time></trkpt><trkpt lat="42.06677" lon="12.1311"><ele>254.33333333333334</ele><time>2026-05-02T09:09:44.352Z</time></trkpt><trkpt lat="42.0666933" lon="12.13113"><ele>254.0</ele><time>2026-05-02T09:09:45.351Z</time></trkpt><trkpt lat="42.0666217" lon="12.13116"><ele>253.42857142857144</ele><time>2026-05-02T09:09:46.352Z</time></trkpt><trkpt lat="42.0665483" lon="12.1311983"><ele>252.85714285714283</ele><time>2026-05-02T09:09:47.352Z</time></trkpt><trkpt lat="42.0664783" lon="12.1312283"><ele>252.28571428571428</ele><time>2026-05-02T09:09:48.353Z</time></trkpt><trkpt lat="42.06641" lon="12.13127"><ele>251.71428571428572</ele><time>2026-05-02T09:09:49.352Z</time></trkpt><trkpt lat="42.0663433" lon="12.13131"><ele>251.14285714285717</ele><time>2026-05-02T09:09:50.352Z</time></trkpt><trkpt lat="42.06628" lon="12.1313433"><ele>250.57142857142856</ele><time>2026-05-02T09:09:51.351Z</time></trkpt><trkpt lat="42.0662183" lon="12.131375"><ele>250.0</ele><time>2026-05-02T09:09:52.353Z</time></trkpt><trkpt lat="42.0661567" lon="12.1314117"><ele>249.99999999999997</ele><time>2026-05-02T09:09:53.359Z</time></trkpt><trkpt lat="42.0660967" lon="12.1314517"><ele>250.0</ele><time>2026-05-02T09:09:54.35Z</time></trkpt><trkpt lat="42.0660367" lon="12.1314867"><ele>250.0</ele><time>2026-05-02T09:09:55.353Z</time></trkpt><trkpt lat="42.0659783" lon="12.1315217"><ele>250.0</ele><time>2026-05-02T09:09:56.354Z</time></trkpt><trkpt lat="42.0658517" lon="12.131585"><ele>249.99999999999997</ele><time>2026-05-02T09:09:58.353Z</time></trkpt><trkpt lat="42.0657883" lon="12.1316267"><ele>250.0</ele><time>2026-05-02T09:09:59.351Z</time></trkpt><trkpt lat="42.0657283" lon="12.1316683"><ele>250.57142857142856</ele><time>2026-05-02T09:10:00.352Z</time></trkpt><trkpt lat="42.0656683" lon="12.1317033"><ele>251.14285714285717</ele><time>2026-05-02T09:10:01.35Z</time></trkpt><trkpt lat="42.0656067" lon="12.1317383"><ele>251.71428571428572</ele><time>2026-05-02T09:10:02.356Z</time></trkpt><trkpt lat="42.0655417" lon="12.1317733"><ele>252.28571428571428</ele><time>2026-05-02T09:10:03.36Z</time></trkpt><trkpt lat="42.06548" lon="12.13181"><ele>252.85714285714283</ele><time>2026-05-02T09:10:04.355Z</time></trkpt><trkpt lat="42.0654183" lon="12.1318417"><ele>253.42857142857144</ele><time>2026-05-02T09:10:05.35Z</time></trkpt><trkpt lat="42.065355" lon="12.1318817"><ele>254.0</ele><time>2026-05-02T09:10:06.351Z</time></trkpt><trkpt lat="42.0652917" lon="12.1319217"><ele>254.0</ele><time>2026-05-02T09:10:07.351Z</time></trkpt><trkpt lat="42.0652267" lon="12.13197"><ele>254.0</ele><time>2026-05-02T09:10:08.352Z</time></trkpt><trkpt lat="42.0651633" lon="12.1320117"><ele>254.0</ele><time>2026-05-02T09:10:09.362Z</time></trkpt><trkpt lat="42.0650983" lon="12.1320567"><ele>254.0</ele><time>2026-05-02T09:10:10.351Z</time></trkpt><trkpt lat="42.065035" lon="12.132105"><ele>254.0</ele><time>2026-05-02T09:10:11.351Z</time></trkpt><trkpt lat="42.0649767" lon="12.1321533"><ele>254.0</ele><time>2026-05-02T09:10:12.351Z</time></trkpt><trkpt lat="42.0649183" lon="12.1322033"><ele>254.0</ele><time>2026-05-02T09:10:13.354Z</time></trkpt><trkpt lat="42.06486" lon="12.132255"><ele>253.85714285714286</ele><time>2026-05-02T09:10:14.358Z</time></trkpt><trkpt lat="42.0648033" lon="12.1323033"><ele>253.71428571428572</ele><time>2026-05-02T09:10:15.353Z</time></trkpt><trkpt lat="42.0647483" lon="12.1323533"><ele>253.57142857142858</ele><time>2026-05-02T09:10:16.35Z</time></trkpt><trkpt lat="42.064695" lon="12.132405"><ele>253.42857142857144</ele><time>2026-05-02T09:10:17.354Z</time></trkpt><trkpt lat="42.06464" lon="12.1324533"><ele>253.28571428571428</ele><time>2026-05-02T09:10:18.352Z</time></trkpt><trkpt lat="42.0645833" lon="12.1325017"><ele>253.14285714285717</ele><time>2026-05-02T09:10:19.351Z</time></trkpt><trkpt lat="42.0645283" lon="12.1325533"><ele>253.00000000000003</ele><time>2026-05-02T09:10:20.35Z</time></trkpt><trkpt lat="42.064475" lon="12.132605"><ele>253.00000000000003</ele><time>2026-05-02T09:10:21.35Z</time></trkpt><trkpt lat="42.0644217" lon="12.1326583"><ele>253.0</ele><time>2026-05-02T09:10:22.351Z</time></trkpt><trkpt lat="42.0643683" lon="12.1327117"><ele>253.00000000000003</ele><time>2026-05-02T09:10:23.356Z</time></trkpt><trkpt lat="42.064315" lon="12.13277"><ele>253.00000000000003</ele><time>2026-05-02T09:10:24.351Z</time></trkpt><trkpt lat="42.0642633" lon="12.132825"><ele>253.0</ele><time>2026-05-02T09:10:25.348Z</time></trkpt><trkpt lat="42.064205" lon="12.1328683"><ele>253.00000000000003</ele><time>2026-05-02T09:10:26.353Z</time></trkpt><trkpt lat="42.06415" lon="12.13292"><ele>253.00000000000003</ele><time>2026-05-02T09:10:27.351Z</time></trkpt><trkpt lat="42.0640967" lon="12.13298"><ele>252.60000000000002</ele><time>2026-05-02T09:10:28.356Z</time></trkpt><trkpt lat="42.064045" lon="12.1330367"><ele>252.20000000000002</ele><time>2026-05-02T09:10:29.35Z</time></trkpt><trkpt lat="42.0639933" lon="12.133095"><ele>251.8</ele><time>2026-05-02T09:10:30.349Z</time></trkpt><trkpt lat="42.0639433" lon="12.1331517"><ele>251.4</ele><time>2026-05-02T09:10:31.352Z</time></trkpt><trkpt lat="42.0638467" lon="12.13326"><ele>251.0</ele><time>2026-05-02T09:10:33.354Z</time></trkpt><trkpt lat="42.0637467" lon="12.1333667"><ele>251.00000000000003</ele><time>2026-05-02T09:10:35.351Z</time></trkpt><trkpt lat="42.06369" lon="12.1334183"><ele>251.0</ele><time>2026-05-02T09:10:36.351Z</time></trkpt><trkpt lat="42.063625" lon="12.1334733"><ele>251.0</ele><time>2026-05-02T09:10:37.358Z</time></trkpt><trkpt lat="42.06356" lon="12.1335283"><ele>251.0</ele><time>2026-05-02T09:10:38.35Z</time></trkpt><trkpt lat="42.0634917" lon="12.133585"><ele>251.00000000000003</ele><time>2026-05-02T09:10:39.354Z</time></trkpt><trkpt lat="42.0634217" lon="12.1336383"><ele>251.0</ele><time>2026-05-02T09:10:40.35Z</time></trkpt><trkpt lat="42.0633517" lon="12.1336917"><ele>249.83333333333334</ele><time>2026-05-02T09:10:41.349Z</time></trkpt><trkpt lat="42.0632783" lon="12.1337483"><ele>248.66666666666669</ele><time>2026-05-02T09:10:42.349Z</time></trkpt><trkpt lat="42.0632033" lon="12.133805"><ele>247.5</ele><time>2026-05-02T09:10:43.351Z</time></trkpt><trkpt lat="42.06313" lon="12.1338667"><ele>246.33333333333331</ele><time>2026-05-02T09:10:44.353Z</time></trkpt><trkpt lat="42.063055" lon="12.1339283"><ele>245.16666666666666</ele><time>2026-05-02T09:10:45.352Z</time></trkpt><trkpt lat="42.0629817" lon="12.1339883"><ele>244.0</ele><time>2026-05-02T09:10:46.351Z</time></trkpt><trkpt lat="42.0629117" lon="12.1340533"><ele>244.33333333333331</ele><time>2026-05-02T09:10:47.357Z</time></trkpt><trkpt lat="42.0628383" lon="12.1341133"><ele>244.66666666666666</ele><time>2026-05-02T09:10:48.35Z</time></trkpt><trkpt lat="42.0627683" lon="12.13417"><ele>245.0</ele><time>2026-05-02T09:10:49.355Z</time></trkpt><trkpt lat="42.0627017" lon="12.1342317"><ele>245.33333333333331</ele><time>2026-05-02T09:10:50.353Z</time></trkpt><trkpt lat="42.062635" lon="12.1342883"><ele>245.66666666666666</ele><time>2026-05-02T09:10:51.351Z</time></trkpt><trkpt lat="42.06257" lon="12.1343383"><ele>246.0</ele><time>2026-05-02T09:10:52.354Z</time></trkpt><trkpt lat="42.06251" lon="12.1343967"><ele>246.0</ele><time>2026-05-02T09:10:53.35Z</time></trkpt><trkpt lat="42.0624567" lon="12.13446"><ele>246.00000000000003</ele><time>2026-05-02T09:10:54.358Z</time></trkpt><trkpt lat="42.062405" lon="12.1345133"><ele>246.00000000000003</ele><time>2026-05-02T09:10:55.352Z</time></trkpt><trkpt lat="42.0623033" lon="12.1346067"><ele>246.0</ele><time>2026-05-02T09:10:57.352Z</time></trkpt><trkpt lat="42.0622" lon="12.134685"><ele>246.0</ele><time>2026-05-02T09:10:59.356Z</time></trkpt><trkpt lat="42.0620983" lon="12.1347733"><ele>246.0</ele><time>2026-05-02T09:11:01.35Z</time></trkpt><trkpt lat="42.0619917" lon="12.134865"><ele>246.0</ele><time>2026-05-02T09:11:03.353Z</time></trkpt><trkpt lat="42.06193" lon="12.1349017"><ele>246.0</ele><time>2026-05-02T09:11:04.35Z</time></trkpt><trkpt lat="42.061865" lon="12.134935"><ele>246.0</ele><time>2026-05-02T09:11:05.35Z</time></trkpt><trkpt lat="42.0617983" lon="12.1349617"><ele>246.0</ele><time>2026-05-02T09:11:06.351Z</time></trkpt><trkpt lat="42.06173" lon="12.134975"><ele>246.0</ele><time>2026-05-02T09:11:07.351Z</time></trkpt><trkpt lat="42.0616583" lon="12.13498"><ele>245.71428571428575</ele><time>2026-05-02T09:11:08.352Z</time></trkpt><trkpt lat="42.0615883" lon="12.1349733"><ele>245.42857142857144</ele><time>2026-05-02T09:11:09.353Z</time></trkpt><trkpt lat="42.0615167" lon="12.1349667"><ele>245.14285714285714</ele><time>2026-05-02T09:11:10.359Z</time></trkpt><trkpt lat="42.0614467" lon="12.1349617"><ele>244.85714285714286</ele><time>2026-05-02T09:11:11.35Z</time></trkpt><trkpt lat="42.06138" lon="12.1349567"><ele>244.57142857142856</ele><time>2026-05-02T09:11:12.349Z</time></trkpt><trkpt lat="42.0613133" lon="12.134935"><ele>244.28571428571425</ele><time>2026-05-02T09:11:15.352Z</time></trkpt><trkpt lat="42.061245" lon="12.1349417"><ele>243.99999999999997</ele><time>2026-05-02T09:11:18.352Z</time></trkpt><trkpt lat="42.061165" lon="12.1348983"><ele>243.49999999999997</ele><time>2026-05-02T09:11:20.351Z</time></trkpt><trkpt lat="42.06106" lon="12.1348267"><ele>243.0</ele><time>2026-05-02T09:11:22.351Z</time></trkpt><trkpt lat="42.0609983" lon="12.1347833"><ele>242.5</ele><time>2026-05-02T09:11:23.353Z</time></trkpt><trkpt lat="42.0609367" lon="12.1347317"><ele>242.0</ele><time>2026-05-02T09:11:24.35Z</time></trkpt><trkpt lat="42.0608717" lon="12.1346733"><ele>241.49999999999997</ele><time>2026-05-02T09:11:25.353Z</time></trkpt><trkpt lat="42.060805" lon="12.134615"><ele>241.0</ele><time>2026-05-02T09:11:26.349Z</time></trkpt><trkpt lat="42.0607367" lon="12.1345667"><ele>240.83333333333331</ele><time>2026-05-02T09:11:27.358Z</time></trkpt><trkpt lat="42.060665" lon="12.1345183"><ele>240.66666666666666</ele><time>2026-05-02T09:11:28.35Z</time></trkpt><trkpt lat="42.060595" lon="12.1344683"><ele>240.5</ele><time>2026-05-02T09:11:29.352Z</time></trkpt><trkpt lat="42.0605217" lon="12.1344233"><ele>240.33333333333331</ele><time>2026-05-02T09:11:30.35Z</time></trkpt><trkpt lat="42.0604483" lon="12.1343733"><ele>240.16666666666666</ele><time>2026-05-02T09:11:31.351Z</time></trkpt><trkpt lat="42.060375" lon="12.1343183"><ele>240.0</ele><time>2026-05-02T09:11:32.354Z</time></trkpt><trkpt lat="42.0603" lon="12.1342667"><ele>240.0</ele><time>2026-05-02T09:11:33.354Z</time></trkpt><trkpt lat="42.060225" lon="12.1342167"><ele>240.0</ele><time>2026-05-02T09:11:34.35Z</time></trkpt><trkpt lat="42.0601517" lon="12.1341717"><ele>240.0</ele><time>2026-05-02T09:11:35.351Z</time></trkpt><trkpt lat="42.0600783" lon="12.1341317"><ele>240.0</ele><time>2026-05-02T09:11:36.351Z</time></trkpt><trkpt lat="42.0600083" lon="12.1340833"><ele>240.0</ele><time>2026-05-02T09:11:37.356Z</time></trkpt><trkpt lat="42.05994" lon="12.1340317"><ele>240.0</ele><time>2026-05-02T09:11:38.349Z</time></trkpt><trkpt lat="42.059875" lon="12.1339767"><ele>240.0</ele><time>2026-05-02T09:11:39.352Z</time></trkpt><trkpt lat="42.0598083" lon="12.1339233"><ele>240.0</ele><time>2026-05-02T09:11:40.352Z</time></trkpt><trkpt lat="42.05974" lon="12.1338683"><ele>240.0</ele><time>2026-05-02T09:11:41.351Z</time></trkpt><trkpt lat="42.0596733" lon="12.1338117"><ele>240.0</ele><time>2026-05-02T09:11:42.358Z</time></trkpt><trkpt lat="42.05961" lon="12.1337517"><ele>240.0</ele><time>2026-05-02T09:11:43.35Z</time></trkpt><trkpt lat="42.05955" lon="12.13369"><ele>240.0</ele><time>2026-05-02T09:11:44.352Z</time></trkpt><trkpt lat="42.05949" lon="12.1336233"><ele>240.0</ele><time>2026-05-02T09:11:45.352Z</time></trkpt><trkpt lat="42.059435" lon="12.133555"><ele>240.0</ele><time>2026-05-02T09:11:46.353Z</time></trkpt><trkpt lat="42.05938" lon="12.1334867"><ele>240.0</ele><time>2026-05-02T09:11:47.351Z</time></trkpt><trkpt lat="42.05933" lon="12.1334167"><ele>240.0</ele><time>2026-05-02T09:11:48.358Z</time></trkpt><trkpt lat="42.0592833" lon="12.13334"><ele>240.0</ele><time>2026-05-02T09:11:49.356Z</time></trkpt><trkpt lat="42.0592383" lon="12.1332633"><ele>240.0</ele><time>2026-05-02T09:11:50.356Z</time></trkpt><trkpt lat="42.059195" lon="12.1331833"><ele>240.0</ele><time>2026-05-02T09:11:51.355Z</time></trkpt><trkpt lat="42.0591533" lon="12.1331067"><ele>240.42857142857144</ele><time>2026-05-02T09:11:52.352Z</time></trkpt><trkpt lat="42.05911" lon="12.13303"><ele>240.85714285714283</ele><time>2026-05-02T09:11:53.351Z</time></trkpt><trkpt lat="42.0590683" lon="12.1329517"><ele>241.28571428571428</ele><time>2026-05-02T09:11:54.353Z</time></trkpt><trkpt lat="42.0590233" lon="12.1328767"><ele>241.71428571428572</ele><time>2026-05-02T09:11:55.351Z</time></trkpt><trkpt lat="42.05898" lon="12.1328017"><ele>242.14285714285717</ele><time>2026-05-02T09:11:56.352Z</time></trkpt><trkpt lat="42.058935" lon="12.1327317"><ele>242.57142857142856</ele><time>2026-05-02T09:11:57.354Z</time></trkpt><trkpt lat="42.0588917" lon="12.1326617"><ele>243.0</ele><time>2026-05-02T09:11:58.353Z</time></trkpt><trkpt lat="42.058845" lon="12.1325867"><ele>243.0</ele><time>2026-05-02T09:11:59.355Z</time></trkpt><trkpt lat="42.0588017" lon="12.1325083"><ele>243.0</ele><time>2026-05-02T09:12:00.351Z</time></trkpt><trkpt lat="42.0587583" lon="12.1324283"><ele>243.0</ele><time>2026-05-02T09:12:01.351Z</time></trkpt><trkpt lat="42.0587167" lon="12.132345"><ele>243.0</ele><time>2026-05-02T09:12:02.35Z</time></trkpt><trkpt lat="42.0586683" lon="12.1322617"><ele>243.0</ele><time>2026-05-02T09:12:03.354Z</time></trkpt><trkpt lat="42.0586183" lon="12.1321783"><ele>243.0</ele><time>2026-05-02T09:12:04.35Z</time></trkpt><trkpt lat="42.05857" lon="12.1320933"><ele>242.5</ele><time>2026-05-02T09:12:05.351Z</time></trkpt><trkpt lat="42.05852" lon="12.1320033"><ele>242.0</ele><time>2026-05-02T09:12:06.357Z</time></trkpt><trkpt lat="42.058465" lon="12.1319133"><ele>241.5</ele><time>2026-05-02T09:12:07.351Z</time></trkpt><trkpt lat="42.0584183" lon="12.1318133"><ele>241.0</ele><time>2026-05-02T09:12:08.357Z</time></trkpt><trkpt lat="42.05837" lon="12.1317133"><ele>240.5</ele><time>2026-05-02T09:12:09.354Z</time></trkpt><trkpt lat="42.05832" lon="12.1316233"><ele>240.0</ele><time>2026-05-02T09:12:10.349Z</time></trkpt><trkpt lat="42.0582667" lon="12.1315317"><ele>239.4</ele><time>2026-05-02T09:12:11.356Z</time></trkpt><trkpt lat="42.0582133" lon="12.1314317"><ele>238.8</ele><time>2026-05-02T09:12:12.353Z</time></trkpt><trkpt lat="42.0581583" lon="12.1313283"><ele>238.2</ele><time>2026-05-02T09:12:13.356Z</time></trkpt><trkpt lat="42.0581033" lon="12.1312217"><ele>237.6</ele><time>2026-05-02T09:12:14.353Z</time></trkpt><trkpt lat="42.0580517" lon="12.131125"><ele>237.0</ele><time>2026-05-02T09:12:15.354Z</time></trkpt><trkpt lat="42.05801" lon="12.13102"><ele>237.0</ele><time>2026-05-02T09:12:16.354Z</time></trkpt><trkpt lat="42.0579583" lon="12.1308333"><ele>237.0</ele><time>2026-05-02T09:12:18.353Z</time></trkpt><trkpt lat="42.0579417" lon="12.1307067"><ele>237.0</ele><time>2026-05-02T09:12:19.351Z</time></trkpt><trkpt lat="42.0579267" lon="12.13059"><ele>237.0</ele><time>2026-05-02T09:12:20.352Z</time></trkpt><trkpt lat="42.0579233" lon="12.1304783"><ele>237.0</ele><time>2026-05-02T09:12:21.353Z</time></trkpt><trkpt lat="42.0579183" lon="12.1303783"><ele>237.0</ele><time>2026-05-02T09:12:22.359Z</time></trkpt><trkpt lat="42.0579683" lon="12.13028"><ele>237.0</ele><time>2026-05-02T09:12:24.355Z</time></trkpt><trkpt lat="42.057965" lon="12.1301833"><ele>237.0</ele><time>2026-05-02T09:12:25.353Z</time></trkpt><trkpt lat="42.0579617" lon="12.1300783"><ele>237.0</ele><time>2026-05-02T09:12:26.352Z</time></trkpt><trkpt lat="42.0579583" lon="12.1299817"><ele>237.0</ele><time>2026-05-02T09:12:27.353Z</time></trkpt><trkpt lat="42.057955" lon="12.1298767"><ele>237.0</ele><time>2026-05-02T09:12:28.35Z</time></trkpt><trkpt lat="42.05795" lon="12.1297783"><ele>237.39999999999998</ele><time>2026-05-02T09:12:29.352Z</time></trkpt><trkpt lat="42.0579433" lon="12.1296867"><ele>237.79999999999998</ele><time>2026-05-02T09:12:30.352Z</time></trkpt><trkpt lat="42.0579417" lon="12.1295967"><ele>238.2</ele><time>2026-05-02T09:12:31.356Z</time></trkpt><trkpt lat="42.0579317" lon="12.1294333"><ele>238.6</ele><time>2026-05-02T09:12:33.354Z</time></trkpt><trkpt lat="42.057915" lon="12.12928"><ele>239.0</ele><time>2026-05-02T09:12:35.364Z</time></trkpt><trkpt lat="42.0579067" lon="12.12914"><ele>239.00000000000003</ele><time>2026-05-02T09:12:37.353Z</time></trkpt><trkpt lat="42.0579" lon="12.1290083"><ele>239.0</ele><time>2026-05-02T09:12:39.354Z</time></trkpt><trkpt lat="42.0578633" lon="12.1289383"><ele>239.0</ele><time>2026-05-02T09:12:41.352Z</time></trkpt><trkpt lat="42.05786" lon="12.1290283"><ele>239.0</ele><time>2026-05-02T09:12:44.353Z</time></trkpt><trkpt lat="42.05787" lon="12.1291383"><ele>239.00000000000003</ele><time>2026-05-02T09:12:46.353Z</time></trkpt><trkpt lat="42.0578767" lon="12.1292717"><ele>239.0</ele><time>2026-05-02T09:12:48.358Z</time></trkpt><trkpt lat="42.0578883" lon="12.12942"><ele>239.00000000000003</ele><time>2026-05-02T09:12:50.354Z</time></trkpt><trkpt lat="42.0579033" lon="12.1295867"><ele>239.0</ele><time>2026-05-02T09:12:52.352Z</time></trkpt><trkpt lat="42.0579083" lon="12.1296817"><ele>239.0</ele><time>2026-05-02T09:12:53.355Z</time></trkpt><trkpt lat="42.057905" lon="12.1297817"><ele>239.0</ele><time>2026-05-02T09:12:54.352Z</time></trkpt><trkpt lat="42.057905" lon="12.1298883"><ele>239.00000000000003</ele><time>2026-05-02T09:12:55.353Z</time></trkpt><trkpt lat="42.0579033" lon="12.1300033"><ele>239.0</ele><time>2026-05-02T09:12:56.351Z</time></trkpt><trkpt lat="42.0579" lon="12.1301233"><ele>238.66666666666669</ele><time>2026-05-02T09:12:57.358Z</time></trkpt><trkpt lat="42.0579" lon="12.1302367"><ele>238.33333333333334</ele><time>2026-05-02T09:12:58.352Z</time></trkpt><trkpt lat="42.05789" lon="12.13034"><ele>238.0</ele><time>2026-05-02T09:12:59.353Z</time></trkpt><trkpt lat="42.05787" lon="12.1304567"><ele>237.66666666666669</ele><time>2026-05-02T09:13:01.354Z</time></trkpt><trkpt lat="42.0578817" lon="12.1305433"><ele>237.33333333333334</ele><time>2026-05-02T09:13:04.353Z</time></trkpt><trkpt lat="42.0579083" lon="12.1304217"><ele>237.0</ele><time>2026-05-02T09:13:07.353Z</time></trkpt><trkpt lat="42.0579117" lon="12.130315"><ele>237.0</ele><time>2026-05-02T09:13:09.358Z</time></trkpt><trkpt lat="42.0579183" lon="12.1301917"><ele>237.0</ele><time>2026-05-02T09:13:11.351Z</time></trkpt><trkpt lat="42.0579267" lon="12.13006"><ele>237.0</ele><time>2026-05-02T09:13:13.352Z</time></trkpt><trkpt lat="42.0579267" lon="12.1299217"><ele>237.0</ele><time>2026-05-02T09:13:15.353Z</time></trkpt><trkpt lat="42.057925" lon="12.1297817"><ele>237.0</ele><time>2026-05-02T09:13:17.352Z</time></trkpt><trkpt lat="42.05792" lon="12.1296267"><ele>237.39999999999998</ele><time>2026-05-02T09:13:19.351Z</time></trkpt><trkpt lat="42.05792" lon="12.12947"><ele>237.79999999999998</ele><time>2026-05-02T09:13:21.352Z</time></trkpt><trkpt lat="42.0579167" lon="12.1293217"><ele>238.2</ele><time>2026-05-02T09:13:23.353Z</time></trkpt><trkpt lat="42.05791" lon="12.1291833"><ele>238.6</ele><time>2026-05-02T09:13:25.35Z</time></trkpt><trkpt lat="42.0579033" lon="12.1290483"><ele>239.0</ele><time>2026-05-02T09:13:27.362Z</time></trkpt><trkpt lat="42.05789" lon="12.1289117"><ele>239.0</ele><time>2026-05-02T09:13:29.349Z</time></trkpt><trkpt lat="42.057875" lon="12.1287783"><ele>238.99999999999997</ele><time>2026-05-02T09:13:31.355Z</time></trkpt><trkpt lat="42.0578533" lon="12.1286433"><ele>238.99999999999997</ele><time>2026-05-02T09:13:33.349Z</time></trkpt><trkpt lat="42.0578183" lon="12.1285117"><ele>239.0</ele><time>2026-05-02T09:13:35.357Z</time></trkpt><trkpt lat="42.0577567" lon="12.1283917"><ele>239.0</ele><time>2026-05-02T09:13:37.35Z</time></trkpt><trkpt lat="42.0576833" lon="12.128285"><ele>238.6</ele><time>2026-05-02T09:13:39.352Z</time></trkpt><trkpt lat="42.057595" lon="12.1281983"><ele>238.2</ele><time>2026-05-02T09:13:41.351Z</time></trkpt><trkpt lat="42.057495" lon="12.1281233"><ele>237.79999999999998</ele><time>2026-05-02T09:13:43.351Z</time></trkpt><trkpt lat="42.05739" lon="12.1280667"><ele>237.39999999999998</ele><time>2026-05-02T09:13:45.351Z</time></trkpt><trkpt lat="42.0572883" lon="12.128005"><ele>237.0</ele><time>2026-05-02T09:13:47.349Z</time></trkpt><trkpt lat="42.0571767" lon="12.1279433"><ele>236.66666666666666</ele><time>2026-05-02T09:13:49.354Z</time></trkpt><trkpt lat="42.0570617" lon="12.1278733"><ele>236.33333333333331</ele><time>2026-05-02T09:13:51.352Z</time></trkpt><trkpt lat="42.0570017" lon="12.1278317"><ele>236.0</ele><time>2026-05-02T09:13:52.353Z</time></trkpt><trkpt lat="42.0569383" lon="12.127795"><ele>235.66666666666666</ele><time>2026-05-02T09:13:53.35Z</time></trkpt><trkpt lat="42.0568717" lon="12.12776"><ele>235.33333333333331</ele><time>2026-05-02T09:13:54.351Z</time></trkpt><trkpt lat="42.0568033" lon="12.1277217"><ele>235.0</ele><time>2026-05-02T09:13:55.349Z</time></trkpt><trkpt lat="42.056735" lon="12.127685"><ele>234.99999999999997</ele><time>2026-05-02T09:13:56.349Z</time></trkpt><trkpt lat="42.0566633" lon="12.1276467"><ele>235.0</ele><time>2026-05-02T09:13:57.357Z</time></trkpt><trkpt lat="42.0565917" lon="12.1276067"><ele>235.0</ele><time>2026-05-02T09:13:58.35Z</time></trkpt><trkpt lat="42.0565233" lon="12.127565"><ele>235.0</ele><time>2026-05-02T09:13:59.351Z</time></trkpt><trkpt lat="42.05645" lon="12.1275233"><ele>234.99999999999997</ele><time>2026-05-02T09:14:00.35Z</time></trkpt><trkpt lat="42.056375" lon="12.1274833"><ele>235.0</ele><time>2026-05-02T09:14:01.354Z</time></trkpt><trkpt lat="42.0562967" lon="12.1274433"><ele>234.66666666666666</ele><time>2026-05-02T09:14:02.352Z</time></trkpt><trkpt lat="42.0562217" lon="12.1274033"><ele>234.33333333333331</ele><time>2026-05-02T09:14:03.359Z</time></trkpt><trkpt lat="42.0561483" lon="12.1273617"><ele>234.0</ele><time>2026-05-02T09:14:04.351Z</time></trkpt><trkpt lat="42.0560733" lon="12.1273217"><ele>233.66666666666669</ele><time>2026-05-02T09:14:05.35Z</time></trkpt><trkpt lat="42.0559983" lon="12.1272833"><ele>233.33333333333334</ele><time>2026-05-02T09:14:06.351Z</time></trkpt><trkpt lat="42.055925" lon="12.127245"><ele>233.0</ele><time>2026-05-02T09:14:07.352Z</time></trkpt><trkpt lat="42.0558467" lon="12.1272083"><ele>233.00000000000003</ele><time>2026-05-02T09:14:08.355Z</time></trkpt><trkpt lat="42.0557717" lon="12.1271683"><ele>233.0</ele><time>2026-05-02T09:14:09.351Z</time></trkpt><trkpt lat="42.0556983" lon="12.12713"><ele>233.0</ele><time>2026-05-02T09:14:10.355Z</time></trkpt><trkpt lat="42.0556233" lon="12.1270933"><ele>233.0</ele><time>2026-05-02T09:14:11.349Z</time></trkpt><trkpt lat="42.0555517" lon="12.1270583"><ele>233.00000000000003</ele><time>2026-05-02T09:14:12.35Z</time></trkpt><trkpt lat="42.0554817" lon="12.1270267"><ele>233.0</ele><time>2026-05-02T09:14:13.352Z</time></trkpt><trkpt lat="42.05541" lon="12.1269917"><ele>233.00000000000003</ele><time>2026-05-02T09:14:14.352Z</time></trkpt><trkpt lat="42.0553383" lon="12.1269567"><ele>233.0</ele><time>2026-05-02T09:14:15.355Z</time></trkpt><trkpt lat="42.055265" lon="12.12692"><ele>233.0</ele><time>2026-05-02T09:14:16.359Z</time></trkpt><trkpt lat="42.0551933" lon="12.12688"><ele>233.0</ele><time>2026-05-02T09:14:17.348Z</time></trkpt><trkpt lat="42.05512" lon="12.1268367"><ele>233.00000000000003</ele><time>2026-05-02T09:14:18.353Z</time></trkpt><trkpt lat="42.0550433" lon="12.1268"><ele>233.0</ele><time>2026-05-02T09:14:19.351Z</time></trkpt><trkpt lat="42.0549667" lon="12.1267633"><ele>232.50000000000003</ele><time>2026-05-02T09:14:20.352Z</time></trkpt><trkpt lat="42.0548917" lon="12.1267267"><ele>232.0</ele><time>2026-05-02T09:14:21.352Z</time></trkpt><trkpt lat="42.0548167" lon="12.1266933"><ele>231.5</ele><time>2026-05-02T09:14:22.35Z</time></trkpt><trkpt lat="42.0547417" lon="12.1266567"><ele>231.0</ele><time>2026-05-02T09:14:23.357Z</time></trkpt><trkpt lat="42.0546683" lon="12.1266133"><ele>230.50000000000003</ele><time>2026-05-02T09:14:24.35Z</time></trkpt><trkpt lat="42.0545883" lon="12.12657"><ele>230.0</ele><time>2026-05-02T09:14:25.354Z</time></trkpt><trkpt lat="42.05451" lon="12.1265267"><ele>230.00000000000003</ele><time>2026-05-02T09:14:26.351Z</time></trkpt><trkpt lat="42.0544333" lon="12.12648"><ele>230.0</ele><time>2026-05-02T09:14:27.351Z</time></trkpt><trkpt lat="42.0543517" lon="12.1264367"><ele>230.0</ele><time>2026-05-02T09:14:28.35Z</time></trkpt><trkpt lat="42.05427" lon="12.1263967"><ele>230.0</ele><time>2026-05-02T09:14:29.353Z</time></trkpt><trkpt lat="42.0541883" lon="12.126355"><ele>230.00000000000003</ele><time>2026-05-02T09:14:30.352Z</time></trkpt><trkpt lat="42.0541083" lon="12.1263117"><ele>230.0</ele><time>2026-05-02T09:14:31.354Z</time></trkpt><trkpt lat="42.0540283" lon="12.126265"><ele>229.4</ele><time>2026-05-02T09:14:32.35Z</time></trkpt><trkpt lat="42.0539433" lon="12.1262233"><ele>228.8</ele><time>2026-05-02T09:14:33.364Z</time></trkpt><trkpt lat="42.0538583" lon="12.1261767"><ele>228.2</ele><time>2026-05-02T09:14:34.352Z</time></trkpt><trkpt lat="42.0537733" lon="12.1261267"><ele>227.6</ele><time>2026-05-02T09:14:35.352Z</time></trkpt><trkpt lat="42.05369" lon="12.126075"><ele>227.0</ele><time>2026-05-02T09:14:36.35Z</time></trkpt><trkpt lat="42.0536083" lon="12.1260183"><ele>227.00000000000003</ele><time>2026-05-02T09:14:37.35Z</time></trkpt><trkpt lat="42.0535217" lon="12.1259683"><ele>227.0</ele><time>2026-05-02T09:14:38.355Z</time></trkpt><trkpt lat="42.0534333" lon="12.1259217"><ele>227.0</ele><time>2026-05-02T09:14:39.352Z</time></trkpt><trkpt lat="42.053345" lon="12.1258833"><ele>227.0</ele><time>2026-05-02T09:14:40.351Z</time></trkpt><trkpt lat="42.0532633" lon="12.1258483"><ele>227.00000000000003</ele><time>2026-05-02T09:14:41.352Z</time></trkpt><trkpt lat="42.053185" lon="12.1258217"><ele>227.0</ele><time>2026-05-02T09:14:42.351Z</time></trkpt><trkpt lat="42.0531167" lon="12.125805"><ele>227.16666666666669</ele><time>2026-05-02T09:14:43.354Z</time></trkpt><trkpt lat="42.0530083" lon="12.1258167"><ele>227.33333333333334</ele><time>2026-05-02T09:14:45.351Z</time></trkpt><trkpt lat="42.052925" lon="12.125885"><ele>227.5</ele><time>2026-05-02T09:14:47.352Z</time></trkpt><trkpt lat="42.052915" lon="12.1259883"><ele>227.66666666666669</ele><time>2026-05-02T09:14:49.355Z</time></trkpt><trkpt lat="42.052975" lon="12.1260633"><ele>227.83333333333334</ele><time>2026-05-02T09:14:52.354Z</time></trkpt><trkpt lat="42.0530333" lon="12.126015"><ele>228.0</ele><time>2026-05-02T09:14:54.352Z</time></trkpt><trkpt lat="42.0531117" lon="12.1259867"><ele>228.0</ele><time>2026-05-02T09:21:33.353Z</time></trkpt><trkpt lat="42.0531333" lon="12.125905"><ele>228.0</ele><time>2026-05-02T09:21:36.35Z</time></trkpt><trkpt lat="42.05322" lon="12.1258833"><ele>228.0</ele><time>2026-05-02T09:21:39.353Z</time></trkpt><trkpt lat="42.0533" lon="12.1259267"><ele>228.0</ele><time>2026-05-02T09:21:42.353Z</time></trkpt><trkpt lat="42.0533867" lon="12.1259717"><ele>228.0</ele><time>2026-05-02T09:21:45.359Z</time></trkpt><trkpt lat="42.0534617" lon="12.1260267"><ele>228.0</ele><time>2026-05-02T09:21:48.349Z</time></trkpt><trkpt lat="42.053525" lon="12.1260567"><ele>227.83333333333334</ele><time>2026-05-02T09:21:50.352Z</time></trkpt><trkpt lat="42.0536167" lon="12.1260867"><ele>227.66666666666669</ele><time>2026-05-02T09:21:53.352Z</time></trkpt><trkpt lat="42.0537017" lon="12.1261233"><ele>227.5</ele><time>2026-05-02T09:21:56.353Z</time></trkpt><trkpt lat="42.0537817" lon="12.1261783"><ele>227.33333333333334</ele><time>2026-05-02T09:21:59.351Z</time></trkpt><trkpt lat="42.0538633" lon="12.1262217"><ele>227.16666666666669</ele><time>2026-05-02T09:22:02.35Z</time></trkpt><trkpt lat="42.0539233" lon="12.126255"><ele>227.0</ele><time>2026-05-02T09:22:04.353Z</time></trkpt><trkpt lat="42.0539867" lon="12.1262867"><ele>227.0</ele><time>2026-05-02T09:22:06.356Z</time></trkpt><trkpt lat="42.0540483" lon="12.1263183"><ele>227.00000000000003</ele><time>2026-05-02T09:22:08.351Z</time></trkpt><trkpt lat="42.0541067" lon="12.1263517"><ele>227.0</ele><time>2026-05-02T09:22:10.351Z</time></trkpt><trkpt lat="42.0541667" lon="12.1263833"><ele>227.0</ele><time>2026-05-02T09:22:12.353Z</time></trkpt><trkpt lat="42.0542283" lon="12.1264167"><ele>227.00000000000003</ele><time>2026-05-02T09:22:14.352Z</time></trkpt><trkpt lat="42.054285" lon="12.1264567"><ele>227.0</ele><time>2026-05-02T09:22:16.352Z</time></trkpt><trkpt lat="42.05437" lon="12.126505"><ele>227.0</ele><time>2026-05-02T09:22:19.355Z</time></trkpt><trkpt lat="42.0544317" lon="12.1265367"><ele>227.14285714285717</ele><time>2026-05-02T09:22:21.352Z</time></trkpt><trkpt lat="42.054495" lon="12.1265683"><ele>227.2857142857143</ele><time>2026-05-02T09:22:23.352Z</time></trkpt><trkpt lat="42.054555" lon="12.1266"><ele>227.42857142857144</ele><time>2026-05-02T09:22:25.356Z</time></trkpt><trkpt lat="42.0546183" lon="12.1266317"><ele>227.57142857142856</ele><time>2026-05-02T09:22:27.353Z</time></trkpt><trkpt lat="42.054685" lon="12.126665"><ele>227.7142857142857</ele><time>2026-05-02T09:22:29.349Z</time></trkpt><trkpt lat="42.054755" lon="12.126705"><ele>227.85714285714283</ele><time>2026-05-02T09:22:31.356Z</time></trkpt><trkpt lat="42.0548217" lon="12.1267417"><ele>228.0</ele><time>2026-05-02T09:22:33.355Z</time></trkpt><trkpt lat="42.05489" lon="12.1267817"><ele>228.7142857142857</ele><time>2026-05-02T09:22:35.35Z</time></trkpt><trkpt lat="42.054955" lon="12.1268167"><ele>229.4285714285714</ele><time>2026-05-02T09:22:37.352Z</time></trkpt><trkpt lat="42.055045" lon="12.12687"><ele>230.14285714285714</ele><time>2026-05-02T09:22:40.349Z</time></trkpt><trkpt lat="42.0551067" lon="12.1269017"><ele>230.85714285714283</ele><time>2026-05-02T09:22:42.351Z</time></trkpt><trkpt lat="42.0551717" lon="12.1269383"><ele>231.57142857142856</ele><time>2026-05-02T09:22:44.35Z</time></trkpt><trkpt lat="42.0552383" lon="12.12697"><ele>232.28571428571428</ele><time>2026-05-02T09:22:46.351Z</time></trkpt><trkpt lat="42.055305" lon="12.1270067"><ele>233.0</ele><time>2026-05-02T09:22:48.357Z</time></trkpt><trkpt lat="42.0553683" lon="12.1270433"><ele>233.00000000000003</ele><time>2026-05-02T09:22:50.363Z</time></trkpt><trkpt lat="42.0554317" lon="12.1270783"><ele>233.0</ele><time>2026-05-02T09:22:52.355Z</time></trkpt><trkpt lat="42.0554983" lon="12.1271167"><ele>233.0</ele><time>2026-05-02T09:22:54.352Z</time></trkpt><trkpt lat="42.055565" lon="12.1271533"><ele>233.0</ele><time>2026-05-02T09:22:56.351Z</time></trkpt><trkpt lat="42.0556383" lon="12.12719"><ele>233.00000000000003</ele><time>2026-05-02T09:22:58.36Z</time></trkpt><trkpt lat="42.055715" lon="12.12723"><ele>233.0</ele><time>2026-05-02T09:23:00.35Z</time></trkpt><trkpt lat="42.0557983" lon="12.1272733"><ele>233.00000000000003</ele><time>2026-05-02T09:23:02.349Z</time></trkpt><trkpt lat="42.05588" lon="12.1273183"><ele>233.0</ele><time>2026-05-02T09:23:04.351Z</time></trkpt><trkpt lat="42.0559667" lon="12.12736"><ele>233.0</ele><time>2026-05-02T09:23:06.358Z</time></trkpt><trkpt lat="42.0560483" lon="12.1274067"><ele>233.0</ele><time>2026-05-02T09:23:08.35Z</time></trkpt><trkpt lat="42.0561317" lon="12.12745"><ele>233.00000000000003</ele><time>2026-05-02T09:23:10.35Z</time></trkpt><trkpt lat="42.0562117" lon="12.1274933"><ele>233.0</ele><time>2026-05-02T09:23:12.35Z</time></trkpt><trkpt lat="42.0562933" lon="12.1275367"><ele>232.83333333333334</ele><time>2026-05-02T09:23:14.349Z</time></trkpt><trkpt lat="42.056375" lon="12.1275833"><ele>232.66666666666669</ele><time>2026-05-02T09:23:16.351Z</time></trkpt><trkpt lat="42.0564533" lon="12.1276333"><ele>232.5</ele><time>2026-05-02T09:23:18.353Z</time></trkpt><trkpt lat="42.056535" lon="12.1276767"><ele>232.33333333333331</ele><time>2026-05-02T09:23:20.354Z</time></trkpt><trkpt lat="42.056615" lon="12.1277133"><ele>232.16666666666666</ele><time>2026-05-02T09:23:22.359Z</time></trkpt><trkpt lat="42.0566933" lon="12.127755"><ele>232.0</ele><time>2026-05-02T09:23:24.353Z</time></trkpt><trkpt lat="42.056775" lon="12.1277883"><ele>232.49999999999997</ele><time>2026-05-02T09:23:26.354Z</time></trkpt><trkpt lat="42.0568483" lon="12.1278167"><ele>233.0</ele><time>2026-05-02T09:23:28.35Z</time></trkpt><trkpt lat="42.056925" lon="12.127855"><ele>233.5</ele><time>2026-05-02T09:23:30.352Z</time></trkpt><trkpt lat="42.0569917" lon="12.1278983"><ele>234.0</ele><time>2026-05-02T09:23:32.352Z</time></trkpt><trkpt lat="42.0570583" lon="12.1279383"><ele>234.49999999999997</ele><time>2026-05-02T09:23:34.35Z</time></trkpt><trkpt lat="42.0571267" lon="12.12798"><ele>235.0</ele><time>2026-05-02T09:23:36.351Z</time></trkpt><trkpt lat="42.0571967" lon="12.1280233"><ele>235.0</ele><time>2026-05-02T09:23:38.35Z</time></trkpt><trkpt lat="42.0572683" lon="12.1280617"><ele>235.0</ele><time>2026-05-02T09:23:40.354Z</time></trkpt><trkpt lat="42.0573417" lon="12.12811"><ele>235.0</ele><time>2026-05-02T09:23:42.354Z</time></trkpt><trkpt lat="42.05742" lon="12.128165"><ele>235.0</ele><time>2026-05-02T09:23:44.351Z</time></trkpt><trkpt lat="42.0575067" lon="12.1282317"><ele>235.0</ele><time>2026-05-02T09:23:46.35Z</time></trkpt><trkpt lat="42.05759" lon="12.1283183"><ele>235.8</ele><time>2026-05-02T09:23:48.35Z</time></trkpt><trkpt lat="42.0576683" lon="12.1284183"><ele>236.6</ele><time>2026-05-02T09:23:50.353Z</time></trkpt><trkpt lat="42.05773" lon="12.128535"><ele>237.39999999999998</ele><time>2026-05-02T09:23:52.352Z</time></trkpt><trkpt lat="42.0577783" lon="12.1286617"><ele>238.2</ele><time>2026-05-02T09:23:54.355Z</time></trkpt><trkpt lat="42.0578167" lon="12.1287867"><ele>239.0</ele><time>2026-05-02T09:23:56.352Z</time></trkpt><trkpt lat="42.0578367" lon="12.1289217"><ele>239.0</ele><time>2026-05-02T09:23:58.35Z</time></trkpt><trkpt lat="42.05786" lon="12.1290633"><ele>239.0</ele><time>2026-05-02T09:24:00.352Z</time></trkpt><trkpt lat="42.0578717" lon="12.1292167"><ele>239.0</ele><time>2026-05-02T09:24:02.355Z</time></trkpt><trkpt lat="42.0578817" lon="12.1293817"><ele>239.0</ele><time>2026-05-02T09:24:04.353Z</time></trkpt><trkpt lat="42.0578917" lon="12.1295467"><ele>239.00000000000003</ele><time>2026-05-02T09:24:06.352Z</time></trkpt><trkpt lat="42.0578933" lon="12.1296317"><ele>239.0</ele><time>2026-05-02T09:24:07.357Z</time></trkpt><trkpt lat="42.0578917" lon="12.129795"><ele>239.0</ele><time>2026-05-02T09:24:09.352Z</time></trkpt><trkpt lat="42.0578933" lon="12.129955"><ele>239.0</ele><time>2026-05-02T09:24:11.351Z</time></trkpt><trkpt lat="42.05789" lon="12.13004"><ele>239.00000000000003</ele><time>2026-05-02T09:24:12.352Z</time></trkpt><trkpt lat="42.0578917" lon="12.130125"><ele>239.0</ele><time>2026-05-02T09:24:13.354Z</time></trkpt><trkpt lat="42.0578933" lon="12.1302117"><ele>238.6</ele><time>2026-05-02T09:24:14.35Z</time></trkpt><trkpt lat="42.0578917" lon="12.1302983"><ele>238.2</ele><time>2026-05-02T09:24:15.351Z</time></trkpt><trkpt lat="42.0578917" lon="12.1303833"><ele>237.79999999999998</ele><time>2026-05-02T09:24:16.355Z</time></trkpt><trkpt lat="42.0578833" lon="12.1305433"><ele>237.39999999999998</ele><time>2026-05-02T09:24:18.353Z</time></trkpt><trkpt lat="42.0579033" lon="12.130695"><ele>237.0</ele><time>2026-05-02T09:24:20.365Z</time></trkpt><trkpt lat="42.057935" lon="12.1308217"><ele>237.0</ele><time>2026-05-02T09:24:22.353Z</time></trkpt><trkpt lat="42.0579833" lon="12.13095"><ele>237.0</ele><time>2026-05-02T09:24:24.356Z</time></trkpt><trkpt lat="42.0580283" lon="12.1310683"><ele>237.0</ele><time>2026-05-02T09:24:26.353Z</time></trkpt><trkpt lat="42.0580833" lon="12.13119"><ele>237.0</ele><time>2026-05-02T09:24:28.354Z</time></trkpt><trkpt lat="42.0581417" lon="12.1313267"><ele>237.0</ele><time>2026-05-02T09:24:30.352Z</time></trkpt><trkpt lat="42.0582017" lon="12.131455"><ele>237.39999999999998</ele><time>2026-05-02T09:24:32.359Z</time></trkpt><trkpt lat="42.058265" lon="12.13158"><ele>237.79999999999998</ele><time>2026-05-02T09:24:34.351Z</time></trkpt><trkpt lat="42.058325" lon="12.1316917"><ele>238.2</ele><time>2026-05-02T09:24:36.35Z</time></trkpt><trkpt lat="42.058385" lon="12.1318017"><ele>238.6</ele><time>2026-05-02T09:24:38.35Z</time></trkpt><trkpt lat="42.0584333" lon="12.1318983"><ele>239.0</ele><time>2026-05-02T09:24:40.354Z</time></trkpt><trkpt lat="42.0584867" lon="12.1319917"><ele>239.16666666666669</ele><time>2026-05-02T09:24:42.35Z</time></trkpt><trkpt lat="42.0585417" lon="12.1320817"><ele>239.33333333333334</ele><time>2026-05-02T09:24:44.351Z</time></trkpt><trkpt lat="42.0585817" lon="12.1321783"><ele>239.5</ele><time>2026-05-02T09:24:46.352Z</time></trkpt><trkpt lat="42.05862" lon="12.1322683"><ele>239.66666666666669</ele><time>2026-05-02T09:24:48.351Z</time></trkpt><trkpt lat="42.058665" lon="12.1323567"><ele>239.83333333333334</ele><time>2026-05-02T09:24:50.355Z</time></trkpt><trkpt lat="42.0587167" lon="12.1324467"><ele>240.0</ele><time>2026-05-02T09:24:52.354Z</time></trkpt><trkpt lat="42.0587817" lon="12.13254"><ele>240.6</ele><time>2026-05-02T09:24:54.353Z</time></trkpt><trkpt lat="42.0588383" lon="12.1326467"><ele>241.2</ele><time>2026-05-02T09:24:56.349Z</time></trkpt><trkpt lat="42.058905" lon="12.1327483"><ele>241.8</ele><time>2026-05-02T09:24:58.352Z</time></trkpt><trkpt lat="42.0589717" lon="12.1328717"><ele>242.4</ele><time>2026-05-02T09:25:00.358Z</time></trkpt><trkpt lat="42.0590367" lon="12.13299"><ele>243.0</ele><time>2026-05-02T09:25:02.354Z</time></trkpt><trkpt lat="42.0591017" lon="12.1331"><ele>242.8</ele><time>2026-05-02T09:25:04.352Z</time></trkpt><trkpt lat="42.0591667" lon="12.1332083"><ele>242.60000000000002</ele><time>2026-05-02T09:25:06.354Z</time></trkpt><trkpt lat="42.0592283" lon="12.1333133"><ele>242.39999999999998</ele><time>2026-05-02T09:25:08.353Z</time></trkpt><trkpt lat="42.0592983" lon="12.1334267"><ele>242.2</ele><time>2026-05-02T09:25:10.351Z</time></trkpt><trkpt lat="42.05937" lon="12.1335417"><ele>242.0</ele><time>2026-05-02T09:25:12.357Z</time></trkpt><trkpt lat="42.0594417" lon="12.133645"><ele>241.6</ele><time>2026-05-02T09:25:14.353Z</time></trkpt><trkpt lat="42.0595183" lon="12.1337417"><ele>241.2</ele><time>2026-05-02T09:25:16.351Z</time></trkpt><trkpt lat="42.0595967" lon="12.1338333"><ele>240.8</ele><time>2026-05-02T09:25:18.352Z</time></trkpt><trkpt lat="42.0596817" lon="12.1339117"><ele>240.4</ele><time>2026-05-02T09:25:20.358Z</time></trkpt><trkpt lat="42.0597683" lon="12.13398"><ele>240.0</ele><time>2026-05-02T09:25:22.353Z</time></trkpt><trkpt lat="42.0598567" lon="12.1340417"><ele>240.0</ele><time>2026-05-02T09:25:24.351Z</time></trkpt><trkpt lat="42.059945" lon="12.1340917"><ele>240.0</ele><time>2026-05-02T09:25:26.353Z</time></trkpt><trkpt lat="42.06003" lon="12.1341433"><ele>240.0</ele><time>2026-05-02T09:25:28.351Z</time></trkpt><trkpt lat="42.0601117" lon="12.1341967"><ele>240.0</ele><time>2026-05-02T09:25:30.357Z</time></trkpt><trkpt lat="42.0601967" lon="12.1342483"><ele>240.0</ele><time>2026-05-02T09:25:32.356Z</time></trkpt><trkpt lat="42.060285" lon="12.1342967"><ele>240.0</ele><time>2026-05-02T09:25:34.351Z</time></trkpt><trkpt lat="42.0603733" lon="12.13435"><ele>240.0</ele><time>2026-05-02T09:25:36.353Z</time></trkpt><trkpt lat="42.06046" lon="12.1344017"><ele>240.0</ele><time>2026-05-02T09:25:38.35Z</time></trkpt><trkpt lat="42.060545" lon="12.134455"><ele>240.0</ele><time>2026-05-02T09:25:40.353Z</time></trkpt><trkpt lat="42.0606217" lon="12.1345117"><ele>240.0</ele><time>2026-05-02T09:25:42.351Z</time></trkpt><trkpt lat="42.0607017" lon="12.1345717"><ele>240.0</ele><time>2026-05-02T09:25:44.349Z</time></trkpt><trkpt lat="42.0607817" lon="12.1346267"><ele>240.0</ele><time>2026-05-02T09:25:46.351Z</time></trkpt><trkpt lat="42.06086" lon="12.1346767"><ele>240.0</ele><time>2026-05-02T09:25:48.356Z</time></trkpt><trkpt lat="42.0609383" lon="12.1347333"><ele>240.0</ele><time>2026-05-02T09:25:50.357Z</time></trkpt><trkpt lat="42.06102" lon="12.1347883"><ele>240.0</ele><time>2026-05-02T09:25:52.351Z</time></trkpt><trkpt lat="42.0611" lon="12.1348467"><ele>240.0</ele><time>2026-05-02T09:25:54.351Z</time></trkpt><trkpt lat="42.06118" lon="12.1348983"><ele>240.66666666666666</ele><time>2026-05-02T09:25:56.355Z</time></trkpt><trkpt lat="42.0612567" lon="12.13495"><ele>241.33333333333331</ele><time>2026-05-02T09:25:58.353Z</time></trkpt><trkpt lat="42.0613233" lon="12.1349917"><ele>242.0</ele><time>2026-05-02T09:26:00.354Z</time></trkpt><trkpt lat="42.0614033" lon="12.1350067"><ele>242.66666666666666</ele><time>2026-05-02T09:26:03.352Z</time></trkpt><trkpt lat="42.0614783" lon="12.1349717"><ele>243.33333333333331</ele><time>2026-05-02T09:26:06.351Z</time></trkpt><trkpt lat="42.0615483" lon="12.1349767"><ele>244.0</ele><time>2026-05-02T09:26:08.35Z</time></trkpt><trkpt lat="42.0616183" lon="12.13498"><ele>243.99999999999997</ele><time>2026-05-02T09:26:10.351Z</time></trkpt><trkpt lat="42.0616933" lon="12.1349717"><ele>244.0</ele><time>2026-05-02T09:26:12.351Z</time></trkpt><trkpt lat="42.0617783" lon="12.134955"><ele>244.0</ele><time>2026-05-02T09:26:14.355Z</time></trkpt><trkpt lat="42.0618617" lon="12.1349217"><ele>244.0</ele><time>2026-05-02T09:26:16.353Z</time></trkpt><trkpt lat="42.0619467" lon="12.1348783"><ele>243.99999999999997</ele><time>2026-05-02T09:26:18.352Z</time></trkpt><trkpt lat="42.06203" lon="12.1348383"><ele>244.0</ele><time>2026-05-02T09:26:20.351Z</time></trkpt><trkpt lat="42.06211" lon="12.134785"><ele>243.99999999999997</ele><time>2026-05-02T09:26:22.35Z</time></trkpt><trkpt lat="42.0621817" lon="12.1347233"><ele>244.0</ele><time>2026-05-02T09:26:24.357Z</time></trkpt><trkpt lat="42.0622483" lon="12.1346617"><ele>244.0</ele><time>2026-05-02T09:26:26.349Z</time></trkpt><trkpt lat="42.0623167" lon="12.1345967"><ele>244.0</ele><time>2026-05-02T09:26:28.35Z</time></trkpt><trkpt lat="42.0623867" lon="12.134535"><ele>243.99999999999997</ele><time>2026-05-02T09:26:30.352Z</time></trkpt><trkpt lat="42.0624517" lon="12.1344767"><ele>244.0</ele><time>2026-05-02T09:26:32.353Z</time></trkpt><trkpt lat="42.0625133" lon="12.134415"><ele>244.33333333333331</ele><time>2026-05-02T09:26:34.354Z</time></trkpt><trkpt lat="42.0625783" lon="12.134355"><ele>244.66666666666666</ele><time>2026-05-02T09:26:36.351Z</time></trkpt><trkpt lat="42.0626433" lon="12.1343"><ele>245.0</ele><time>2026-05-02T09:26:38.352Z</time></trkpt><trkpt lat="42.0627117" lon="12.1342467"><ele>245.33333333333331</ele><time>2026-05-02T09:26:40.351Z</time></trkpt><trkpt lat="42.0627767" lon="12.1341883"><ele>245.66666666666666</ele><time>2026-05-02T09:26:42.351Z</time></trkpt><trkpt lat="42.0628483" lon="12.1341317"><ele>246.0</ele><time>2026-05-02T09:26:44.352Z</time></trkpt><trkpt lat="42.0629167" lon="12.13408"><ele>245.66666666666666</ele><time>2026-05-02T09:26:46.35Z</time></trkpt><trkpt lat="42.0629817" lon="12.1340283"><ele>245.33333333333331</ele><time>2026-05-02T09:26:48.352Z</time></trkpt><trkpt lat="42.0630467" lon="12.1339717"><ele>245.0</ele><time>2026-05-02T09:26:50.361Z</time></trkpt><trkpt lat="42.063115" lon="12.133915"><ele>244.66666666666666</ele><time>2026-05-02T09:26:52.352Z</time></trkpt><trkpt lat="42.0631833" lon="12.1338617"><ele>244.33333333333331</ele><time>2026-05-02T09:26:54.352Z</time></trkpt><trkpt lat="42.0632467" lon="12.133805"><ele>244.0</ele><time>2026-05-02T09:26:56.353Z</time></trkpt><trkpt lat="42.0633083" lon="12.1337567"><ele>245.16666666666666</ele><time>2026-05-02T09:26:58.35Z</time></trkpt><trkpt lat="42.063375" lon="12.1337083"><ele>246.33333333333331</ele><time>2026-05-02T09:27:00.353Z</time></trkpt><trkpt lat="42.0634417" lon="12.1336533"><ele>247.5</ele><time>2026-05-02T09:27:02.352Z</time></trkpt><trkpt lat="42.063505" lon="12.1335983"><ele>248.66666666666669</ele><time>2026-05-02T09:27:04.354Z</time></trkpt><trkpt lat="42.0635617" lon="12.1335517"><ele>249.83333333333334</ele><time>2026-05-02T09:27:06.357Z</time></trkpt><trkpt lat="42.0636183" lon="12.1335033"><ele>251.0</ele><time>2026-05-02T09:27:08.352Z</time></trkpt><trkpt lat="42.0636933" lon="12.1334233"><ele>250.99999999999997</ele><time>2026-05-02T09:27:11.359Z</time></trkpt><trkpt lat="42.063745" lon="12.1333717"><ele>251.0</ele><time>2026-05-02T09:27:13.352Z</time></trkpt><trkpt lat="42.0637967" lon="12.1333217"><ele>250.99999999999997</ele><time>2026-05-02T09:27:15.351Z</time></trkpt><trkpt lat="42.0638483" lon="12.1332683"><ele>250.99999999999997</ele><time>2026-05-02T09:27:17.35Z</time></trkpt><trkpt lat="42.0639017" lon="12.13321"><ele>251.0</ele><time>2026-05-02T09:27:19.353Z</time></trkpt><trkpt lat="42.0639583" lon="12.1331467"><ele>250.99999999999997</ele><time>2026-05-02T09:27:21.351Z</time></trkpt><trkpt lat="42.064015" lon="12.1330817"><ele>250.99999999999997</ele><time>2026-05-02T09:27:23.352Z</time></trkpt><trkpt lat="42.064075" lon="12.1330133"><ele>251.33333333333334</ele><time>2026-05-02T09:27:25.354Z</time></trkpt><trkpt lat="42.0641383" lon="12.13294"><ele>251.66666666666669</ele><time>2026-05-02T09:27:27.35Z</time></trkpt><trkpt lat="42.0642083" lon="12.1328733"><ele>252.0</ele><time>2026-05-02T09:27:29.363Z</time></trkpt><trkpt lat="42.0642733" lon="12.13281"><ele>252.33333333333331</ele><time>2026-05-02T09:27:31.35Z</time></trkpt><trkpt lat="42.064345" lon="12.132735"><ele>252.66666666666666</ele><time>2026-05-02T09:27:33.352Z</time></trkpt><trkpt lat="42.064415" lon="12.1326667"><ele>253.0</ele><time>2026-05-02T09:27:35.352Z</time></trkpt><trkpt lat="42.0644883" lon="12.132595"><ele>253.0</ele><time>2026-05-02T09:27:37.351Z</time></trkpt><trkpt lat="42.064565" lon="12.1325167"><ele>253.0</ele><time>2026-05-02T09:27:39.352Z</time></trkpt><trkpt lat="42.064635" lon="12.1324467"><ele>253.0</ele><time>2026-05-02T09:27:41.352Z</time></trkpt><trkpt lat="42.0647083" lon="12.1323717"><ele>253.0</ele><time>2026-05-02T09:27:43.351Z</time></trkpt><trkpt lat="42.0647967" lon="12.1322983"><ele>253.0</ele><time>2026-05-02T09:27:45.351Z</time></trkpt><trkpt lat="42.064885" lon="12.1322317"><ele>253.2</ele><time>2026-05-02T09:27:47.353Z</time></trkpt><trkpt lat="42.0649733" lon="12.1321667"><ele>253.4</ele><time>2026-05-02T09:27:49.36Z</time></trkpt><trkpt lat="42.0650583" lon="12.1321"><ele>253.59999999999997</ele><time>2026-05-02T09:27:51.351Z</time></trkpt><trkpt lat="42.0651467" lon="12.1320317"><ele>253.79999999999998</ele><time>2026-05-02T09:27:53.351Z</time></trkpt><trkpt lat="42.0652383" lon="12.1319733"><ele>254.0</ele><time>2026-05-02T09:27:55.358Z</time></trkpt><trkpt lat="42.065325" lon="12.13192"><ele>254.0</ele><time>2026-05-02T09:27:57.353Z</time></trkpt><trkpt lat="42.0654117" lon="12.1318717"><ele>253.99999999999997</ele><time>2026-05-02T09:27:59.35Z</time></trkpt><trkpt lat="42.0655" lon="12.13182"><ele>253.99999999999997</ele><time>2026-05-02T09:28:01.351Z</time></trkpt><trkpt lat="42.0655833" lon="12.1317767"><ele>254.0</ele><time>2026-05-02T09:28:03.354Z</time></trkpt><trkpt lat="42.06567" lon="12.1317317"><ele>254.0</ele><time>2026-05-02T09:28:05.353Z</time></trkpt><trkpt lat="42.0657583" lon="12.1316767"><ele>254.00000000000003</ele><time>2026-05-02T09:28:07.352Z</time></trkpt><trkpt lat="42.06585" lon="12.1316183"><ele>254.0</ele><time>2026-05-02T09:28:09.358Z</time></trkpt><trkpt lat="42.06594" lon="12.13158"><ele>254.0</ele><time>2026-05-02T09:28:11.349Z</time></trkpt><trkpt lat="42.0660083" lon="12.1315533"><ele>254.0</ele><time>2026-05-02T09:28:13.353Z</time></trkpt><trkpt lat="42.0660867" lon="12.1314717"><ele>254.00000000000003</ele><time>2026-05-02T09:28:22.353Z</time></trkpt><trkpt lat="42.0661633" lon="12.1314383"><ele>254.0</ele><time>2026-05-02T09:28:25.355Z</time></trkpt><trkpt lat="42.066225" lon="12.13141"><ele>254.00000000000003</ele><time>2026-05-02T09:28:27.356Z</time></trkpt><trkpt lat="42.066295" lon="12.1313733"><ele>254.0</ele><time>2026-05-02T09:28:29.352Z</time></trkpt><trkpt lat="42.0663667" lon="12.131325"><ele>254.0</ele><time>2026-05-02T09:28:31.349Z</time></trkpt><trkpt lat="42.0664467" lon="12.13128"><ele>254.0</ele><time>2026-05-02T09:28:33.355Z</time></trkpt><trkpt lat="42.0665283" lon="12.1312383"><ele>254.00000000000003</ele><time>2026-05-02T09:28:35.351Z</time></trkpt><trkpt lat="42.06661" lon="12.131205"><ele>254.0</ele><time>2026-05-02T09:28:37.351Z</time></trkpt><trkpt lat="42.0666883" lon="12.1311783"><ele>254.00000000000003</ele><time>2026-05-02T09:28:39.365Z</time></trkpt><trkpt lat="42.06677" lon="12.131155"><ele>254.0</ele><time>2026-05-02T09:28:41.35Z</time></trkpt><trkpt lat="42.06685" lon="12.131125"><ele>254.0</ele><time>2026-05-02T09:28:43.352Z</time></trkpt><trkpt lat="42.0669283" lon="12.131095"><ele>254.0</ele><time>2026-05-02T09:28:45.354Z</time></trkpt><trkpt lat="42.067005" lon="12.1310617"><ele>254.00000000000003</ele><time>2026-05-02T09:28:47.354Z</time></trkpt><trkpt lat="42.06708" lon="12.1310233"><ele>254.0</ele><time>2026-05-02T09:28:49.35Z</time></trkpt><trkpt lat="42.0671567" lon="12.1309933"><ele>254.00000000000003</ele><time>2026-05-02T09:28:51.354Z</time></trkpt><trkpt lat="42.0672333" lon="12.1309617"><ele>254.0</ele><time>2026-05-02T09:28:53.353Z</time></trkpt><trkpt lat="42.0673133" lon="12.1309417"><ele>254.0</ele><time>2026-05-02T09:28:55.352Z</time></trkpt><trkpt lat="42.06739" lon="12.13091"><ele>254.0</ele><time>2026-05-02T09:28:57.355Z</time></trkpt><trkpt lat="42.0674683" lon="12.1308783"><ele>254.00000000000003</ele><time>2026-05-02T09:28:59.36Z</time></trkpt><trkpt lat="42.0675467" lon="12.1308383"><ele>254.0</ele><time>2026-05-02T09:29:01.353Z</time></trkpt><trkpt lat="42.0676267" lon="12.1308183"><ele>254.00000000000003</ele><time>2026-05-02T09:29:03.353Z</time></trkpt><trkpt lat="42.067705" lon="12.1307917"><ele>254.0</ele><time>2026-05-02T09:29:05.349Z</time></trkpt><trkpt lat="42.0677817" lon="12.1307567"><ele>254.0</ele><time>2026-05-02T09:29:07.356Z</time></trkpt><trkpt lat="42.067855" lon="12.1307233"><ele>254.0</ele><time>2026-05-02T09:29:09.351Z</time></trkpt><trkpt lat="42.0679283" lon="12.130695"><ele>254.00000000000003</ele><time>2026-05-02T09:29:11.353Z</time></trkpt><trkpt lat="42.0680033" lon="12.1306733"><ele>254.0</ele><time>2026-05-02T09:29:13.35Z</time></trkpt><trkpt lat="42.06808" lon="12.130665"><ele>254.00000000000003</ele><time>2026-05-02T09:29:15.353Z</time></trkpt><trkpt lat="42.0681633" lon="12.1306783"><ele>254.0</ele><time>2026-05-02T09:29:17.353Z</time></trkpt><trkpt lat="42.068245" lon="12.130705"><ele>254.0</ele><time>2026-05-02T09:29:19.351Z</time></trkpt><trkpt lat="42.0683267" lon="12.1307383"><ele>254.0</ele><time>2026-05-02T09:29:21.355Z</time></trkpt><trkpt lat="42.0684033" lon="12.130775"><ele>254.00000000000003</ele><time>2026-05-02T09:29:23.353Z</time></trkpt><trkpt lat="42.068475" lon="12.1308217"><ele>254.0</ele><time>2026-05-02T09:29:25.352Z</time></trkpt><trkpt lat="42.0685433" lon="12.1308633"><ele>254.50000000000003</ele><time>2026-05-02T09:29:27.357Z</time></trkpt><trkpt lat="42.0686133" lon="12.1309183"><ele>255.0</ele><time>2026-05-02T09:29:29.349Z</time></trkpt><trkpt lat="42.068685" lon="12.1309683"><ele>255.5</ele><time>2026-05-02T09:29:31.359Z</time></trkpt><trkpt lat="42.06875" lon="12.13103"><ele>256.0</ele><time>2026-05-02T09:29:33.351Z</time></trkpt><trkpt lat="42.0688183" lon="12.1310883"><ele>256.5</ele><time>2026-05-02T09:29:35.351Z</time></trkpt><trkpt lat="42.06889" lon="12.1311467"><ele>257.0</ele><time>2026-05-02T09:29:37.352Z</time></trkpt><trkpt lat="42.06896" lon="12.1312083"><ele>257.0</ele><time>2026-05-02T09:29:39.363Z</time></trkpt><trkpt lat="42.0690283" lon="12.1312717"><ele>257.0</ele><time>2026-05-02T09:29:41.351Z</time></trkpt><trkpt lat="42.0691017" lon="12.1313333"><ele>257.0</ele><time>2026-05-02T09:29:43.351Z</time></trkpt><trkpt lat="42.0691767" lon="12.1313933"><ele>257.0</ele><time>2026-05-02T09:29:45.36Z</time></trkpt><trkpt lat="42.0692533" lon="12.1314567"><ele>257.0</ele><time>2026-05-02T09:29:47.352Z</time></trkpt><trkpt lat="42.0693333" lon="12.131515"><ele>257.0</ele><time>2026-05-02T09:29:49.355Z</time></trkpt><trkpt lat="42.0694083" lon="12.1315767"><ele>257.33333333333337</ele><time>2026-05-02T09:29:51.354Z</time></trkpt><trkpt lat="42.0694817" lon="12.131635"><ele>257.6666666666667</ele><time>2026-05-02T09:29:53.35Z</time></trkpt><trkpt lat="42.0695517" lon="12.13169"><ele>258.0</ele><time>2026-05-02T09:29:55.355Z</time></trkpt><trkpt lat="42.06962" lon="12.1317417"><ele>258.3333333333333</ele><time>2026-05-02T09:29:57.352Z</time></trkpt><trkpt lat="42.0696817" lon="12.1317967"><ele>258.66666666666663</ele><time>2026-05-02T09:29:59.353Z</time></trkpt><trkpt lat="42.069745" lon="12.131845"><ele>259.0</ele><time>2026-05-02T09:30:01.361Z</time></trkpt><trkpt lat="42.0698117" lon="12.131895"><ele>259.0</ele><time>2026-05-02T09:30:03.353Z</time></trkpt><trkpt lat="42.0698783" lon="12.1319417"><ele>259.0</ele><time>2026-05-02T09:30:05.353Z</time></trkpt><trkpt lat="42.0699383" lon="12.13199"><ele>259.0</ele><time>2026-05-02T09:30:07.353Z</time></trkpt><trkpt lat="42.0699983" lon="12.1320367"><ele>259.0</ele><time>2026-05-02T09:30:09.356Z</time></trkpt><trkpt lat="42.0700533" lon="12.132085"><ele>259.0</ele><time>2026-05-02T09:30:11.353Z</time></trkpt><trkpt lat="42.070125" lon="12.1321517"><ele>259.0</ele><time>2026-05-02T09:30:14.351Z</time></trkpt><trkpt lat="42.0702017" lon="12.1322267"><ele>259.57142857142856</ele><time>2026-05-02T09:30:17.349Z</time></trkpt><trkpt lat="42.0702567" lon="12.1322733"><ele>260.1428571428571</ele><time>2026-05-02T09:30:19.35Z</time></trkpt><trkpt lat="42.0703117" lon="12.1323217"><ele>260.7142857142857</ele><time>2026-05-02T09:30:21.354Z</time></trkpt><trkpt lat="42.0703783" lon="12.1323633"><ele>261.2857142857143</ele><time>2026-05-02T09:30:23.349Z</time></trkpt><trkpt lat="42.07044" lon="12.1323983"><ele>261.85714285714283</ele><time>2026-05-02T09:30:25.351Z</time></trkpt><trkpt lat="42.070505" lon="12.1324383"><ele>262.42857142857144</ele><time>2026-05-02T09:30:27.351Z</time></trkpt><trkpt lat="42.070575" lon="12.1324783"><ele>263.0</ele><time>2026-05-02T09:30:29.35Z</time></trkpt><trkpt lat="42.0706383" lon="12.1325183"><ele>263.1666666666667</ele><time>2026-05-02T09:30:31.35Z</time></trkpt><trkpt lat="42.070705" lon="12.1325583"><ele>263.33333333333337</ele><time>2026-05-02T09:30:33.354Z</time></trkpt><trkpt lat="42.0707733" lon="12.1326033"><ele>263.5</ele><time>2026-05-02T09:30:35.351Z</time></trkpt><trkpt lat="42.0708483" lon="12.132655"><ele>263.6666666666667</ele><time>2026-05-02T09:30:37.351Z</time></trkpt><trkpt lat="42.070925" lon="12.1327017"><ele>263.8333333333333</ele><time>2026-05-02T09:30:39.353Z</time></trkpt><trkpt lat="42.0709983" lon="12.1327417"><ele>264.0</ele><time>2026-05-02T09:30:41.355Z</time></trkpt><trkpt lat="42.0710633" lon="12.1327783"><ele>264.42857142857144</ele><time>2026-05-02T09:30:43.35Z</time></trkpt><trkpt lat="42.0711233" lon="12.1328167"><ele>264.8571428571429</ele><time>2026-05-02T09:30:45.352Z</time></trkpt><trkpt lat="42.0711883" lon="12.1328533"><ele>265.28571428571433</ele><time>2026-05-02T09:30:47.357Z</time></trkpt><trkpt lat="42.071255" lon="12.1328817"><ele>265.7142857142857</ele><time>2026-05-02T09:30:49.348Z</time></trkpt><trkpt lat="42.07132" lon="12.1329067"><ele>266.14285714285717</ele><time>2026-05-02T09:30:51.352Z</time></trkpt><trkpt lat="42.071385" lon="12.1329333"><ele>266.5714285714286</ele><time>2026-05-02T09:30:53.351Z</time></trkpt><trkpt lat="42.071445" lon="12.13296"><ele>267.0</ele><time>2026-05-02T09:30:55.351Z</time></trkpt><trkpt lat="42.0715317" lon="12.1329967"><ele>267.00000000000006</ele><time>2026-05-02T09:30:58.353Z</time></trkpt><trkpt lat="42.071595" lon="12.1330117"><ele>267.0</ele><time>2026-05-02T09:31:00.355Z</time></trkpt><trkpt lat="42.0716583" lon="12.1330317"><ele>267.0</ele><time>2026-05-02T09:31:02.352Z</time></trkpt><trkpt lat="42.0717217" lon="12.133045"><ele>267.0</ele><time>2026-05-02T09:31:04.351Z</time></trkpt><trkpt lat="42.0717833" lon="12.1330667"><ele>267.0</ele><time>2026-05-02T09:31:06.358Z</time></trkpt><trkpt lat="42.0718467" lon="12.1330883"><ele>267.00000000000006</ele><time>2026-05-02T09:31:08.355Z</time></trkpt><trkpt lat="42.07191" lon="12.1331067"><ele>267.0</ele><time>2026-05-02T09:31:10.355Z</time></trkpt><trkpt lat="42.0719717" lon="12.1331283"><ele>267.3333333333333</ele><time>2026-05-02T09:31:12.352Z</time></trkpt><trkpt lat="42.07206" lon="12.1331633"><ele>267.6666666666667</ele><time>2026-05-02T09:31:15.352Z</time></trkpt><trkpt lat="42.0721433" lon="12.1331883"><ele>268.0</ele><time>2026-05-02T09:31:18.351Z</time></trkpt><trkpt lat="42.07222" lon="12.1332117"><ele>268.33333333333337</ele><time>2026-05-02T09:31:21.35Z</time></trkpt><trkpt lat="42.0722917" lon="12.1332267"><ele>268.6666666666667</ele><time>2026-05-02T09:31:24.35Z</time></trkpt><trkpt lat="42.0723617" lon="12.1332617"><ele>269.0</ele><time>2026-05-02T09:31:27.352Z</time></trkpt><trkpt lat="42.0724483" lon="12.133285"><ele>269.1666666666667</ele><time>2026-05-02T09:31:30.351Z</time></trkpt><trkpt lat="42.0725167" lon="12.1333083"><ele>269.33333333333337</ele><time>2026-05-02T09:31:32.351Z</time></trkpt><trkpt lat="42.0725817" lon="12.1333483"><ele>269.5</ele><time>2026-05-02T09:31:34.352Z</time></trkpt><trkpt lat="42.072655" lon="12.13338"><ele>269.6666666666667</ele><time>2026-05-02T09:31:36.353Z</time></trkpt><trkpt lat="42.0727367" lon="12.1334117"><ele>269.8333333333333</ele><time>2026-05-02T09:31:38.36Z</time></trkpt><trkpt lat="42.07282" lon="12.1334483"><ele>270.0</ele><time>2026-05-02T09:31:40.352Z</time></trkpt><trkpt lat="42.07291" lon="12.1334867"><ele>270.0</ele><time>2026-05-02T09:31:42.35Z</time></trkpt><trkpt lat="42.0729983" lon="12.1335383"><ele>270.0</ele><time>2026-05-02T09:31:44.351Z</time></trkpt><trkpt lat="42.0730883" lon="12.1335817"><ele>270.0</ele><time>2026-05-02T09:31:46.352Z</time></trkpt><trkpt lat="42.07317" lon="12.133635"><ele>270.0</ele><time>2026-05-02T09:31:48.351Z</time></trkpt><trkpt lat="42.0732517" lon="12.1337033"><ele>270.0</ele><time>2026-05-02T09:31:50.352Z</time></trkpt><trkpt lat="42.07333" lon="12.1337617"><ele>270.0</ele><time>2026-05-02T09:31:52.35Z</time></trkpt><trkpt lat="42.0733983" lon="12.13382"><ele>270.0</ele><time>2026-05-02T09:31:54.356Z</time></trkpt><trkpt lat="42.0734633" lon="12.133875"><ele>270.0</ele><time>2026-05-02T09:31:56.353Z</time></trkpt><trkpt lat="42.0735233" lon="12.1339283"><ele>270.0</ele><time>2026-05-02T09:31:58.349Z</time></trkpt><trkpt lat="42.0735783" lon="12.133975"><ele>270.0</ele><time>2026-05-02T09:32:00.351Z</time></trkpt><trkpt lat="42.0736367" lon="12.13402"><ele>270.0</ele><time>2026-05-02T09:32:02.359Z</time></trkpt><trkpt lat="42.0736967" lon="12.1340617"><ele>270.0</ele><time>2026-05-02T09:32:04.353Z</time></trkpt><trkpt lat="42.0737767" lon="12.1341267"><ele>270.0</ele><time>2026-05-02T09:32:07.357Z</time></trkpt><trkpt lat="42.0738367" lon="12.1341717"><ele>270.0</ele><time>2026-05-02T09:32:09.355Z</time></trkpt><trkpt lat="42.07389" lon="12.1342183"><ele>270.0</ele><time>2026-05-02T09:32:11.355Z</time></trkpt><trkpt lat="42.07397" lon="12.134285"><ele>270.0</ele><time>2026-05-02T09:32:14.35Z</time></trkpt><trkpt lat="42.074025" lon="12.13433"><ele>270.0</ele><time>2026-05-02T09:32:16.352Z</time></trkpt><trkpt lat="42.07408" lon="12.1343767"><ele>270.0</ele><time>2026-05-02T09:32:18.357Z</time></trkpt><trkpt lat="42.0741383" lon="12.1344183"><ele>270.0</ele><time>2026-05-02T09:32:20.355Z</time></trkpt><trkpt lat="42.0741933" lon="12.1344633"><ele>270.2857142857143</ele><time>2026-05-02T09:32:22.351Z</time></trkpt><trkpt lat="42.0742517" lon="12.1345083"><ele>270.57142857142856</ele><time>2026-05-02T09:32:24.352Z</time></trkpt><trkpt lat="42.0743133" lon="12.1345533"><ele>270.85714285714283</ele><time>2026-05-02T09:32:26.351Z</time></trkpt><trkpt lat="42.0743867" lon="12.13463"><ele>271.1428571428571</ele><time>2026-05-02T09:32:29.35Z</time></trkpt><trkpt lat="42.0744417" lon="12.1346733"><ele>271.42857142857144</ele><time>2026-05-02T09:32:31.352Z</time></trkpt><trkpt lat="42.0744983" lon="12.1347167"><ele>271.71428571428567</ele><time>2026-05-02T09:32:33.354Z</time></trkpt><trkpt lat="42.0745533" lon="12.1347583"><ele>272.0</ele><time>2026-05-02T09:32:35.351Z</time></trkpt><trkpt lat="42.07461" lon="12.1348033"><ele>271.99999999999994</ele><time>2026-05-02T09:32:37.352Z</time></trkpt><trkpt lat="42.074665" lon="12.1348483"><ele>272.0</ele><time>2026-05-02T09:32:39.352Z</time></trkpt><trkpt lat="42.074725" lon="12.13488"><ele>272.0</ele><time>2026-05-02T09:32:41.35Z</time></trkpt><trkpt lat="42.0747883" lon="12.1349067"><ele>272.0</ele><time>2026-05-02T09:32:43.355Z</time></trkpt><trkpt lat="42.0748683" lon="12.134965"><ele>272.0</ele><time>2026-05-02T09:32:46.35Z</time></trkpt><trkpt lat="42.0749283" lon="12.135"><ele>271.99999999999994</ele><time>2026-05-02T09:32:48.353Z</time></trkpt><trkpt lat="42.0749783" lon="12.1350533"><ele>272.0</ele><time>2026-05-02T09:32:50.349Z</time></trkpt><trkpt lat="42.0750333" lon="12.13511"><ele>272.85714285714283</ele><time>2026-05-02T09:32:52.354Z</time></trkpt><trkpt lat="42.0750967" lon="12.1351517"><ele>273.7142857142857</ele><time>2026-05-02T09:32:54.355Z</time></trkpt><trkpt lat="42.0751517" lon="12.1351933"><ele>274.57142857142856</ele><time>2026-05-02T09:32:56.354Z</time></trkpt><trkpt lat="42.07524" lon="12.135245"><ele>275.42857142857144</ele><time>2026-05-02T09:32:59.351Z</time></trkpt><trkpt lat="42.0753033" lon="12.1352833"><ele>276.2857142857143</ele><time>2026-05-02T09:33:01.351Z</time></trkpt><trkpt lat="42.075365" lon="12.1353317"><ele>277.1428571428571</ele><time>2026-05-02T09:33:03.354Z</time></trkpt><trkpt lat="42.075415" lon="12.1353833"><ele>278.0</ele><time>2026-05-02T09:33:05.353Z</time></trkpt><trkpt lat="42.0754583" lon="12.1354517"><ele>278.0</ele><time>2026-05-02T09:33:07.355Z</time></trkpt><trkpt lat="42.0755083" lon="12.13551"><ele>278.0</ele><time>2026-05-02T09:33:09.354Z</time></trkpt><trkpt lat="42.075565" lon="12.1355617"><ele>278.0</ele><time>2026-05-02T09:33:11.352Z</time></trkpt><trkpt lat="42.0756217" lon="12.13561"><ele>278.0</ele><time>2026-05-02T09:33:13.352Z</time></trkpt><trkpt lat="42.0756833" lon="12.1356533"><ele>278.0</ele><time>2026-05-02T09:33:15.351Z</time></trkpt><trkpt lat="42.07575" lon="12.13569"><ele>278.0</ele><time>2026-05-02T09:33:17.352Z</time></trkpt><trkpt lat="42.0758167" lon="12.1357283"><ele>278.0</ele><time>2026-05-02T09:33:19.362Z</time></trkpt><trkpt lat="42.0758867" lon="12.135765"><ele>278.85714285714283</ele><time>2026-05-02T09:33:21.352Z</time></trkpt><trkpt lat="42.0759467" lon="12.1358083"><ele>279.7142857142857</ele><time>2026-05-02T09:33:23.351Z</time></trkpt><trkpt lat="42.0760117" lon="12.1358533"><ele>280.57142857142856</ele><time>2026-05-02T09:33:25.352Z</time></trkpt><trkpt lat="42.07607" lon="12.1358983"><ele>281.42857142857144</ele><time>2026-05-02T09:33:27.354Z</time></trkpt><trkpt lat="42.0761283" lon="12.1359333"><ele>282.2857142857143</ele><time>2026-05-02T09:33:29.351Z</time></trkpt><trkpt lat="42.07619" lon="12.135975"><ele>283.1428571428571</ele><time>2026-05-02T09:33:31.353Z</time></trkpt><trkpt lat="42.076245" lon="12.1360267"><ele>284.0</ele><time>2026-05-02T09:33:33.36Z</time></trkpt><trkpt lat="42.0763083" lon="12.1361217"><ele>284.0</ele><time>2026-05-02T09:33:36.353Z</time></trkpt><trkpt lat="42.0763583" lon="12.1361967"><ele>284.0</ele><time>2026-05-02T09:33:38.359Z</time></trkpt><trkpt lat="42.0764" lon="12.1362683"><ele>284.0</ele><time>2026-05-02T09:33:40.352Z</time></trkpt><trkpt lat="42.07643" lon="12.1363467"><ele>284.0</ele><time>2026-05-02T09:33:42.349Z</time></trkpt><trkpt lat="42.076465" lon="12.1364267"><ele>284.0</ele><time>2026-05-02T09:33:44.357Z</time></trkpt><trkpt lat="42.076505" lon="12.13654"><ele>284.0</ele><time>2026-05-02T09:33:47.353Z</time></trkpt><trkpt lat="42.0765333" lon="12.1366217"><ele>284.0</ele><time>2026-05-02T09:33:49.358Z</time></trkpt><trkpt lat="42.07657" lon="12.1367283"><ele>283.6666666666667</ele><time>2026-05-02T09:33:52.352Z</time></trkpt><trkpt lat="42.076625" lon="12.1368267"><ele>283.33333333333337</ele><time>2026-05-02T09:33:55.357Z</time></trkpt><trkpt lat="42.0766783" lon="12.136925"><ele>283.0</ele><time>2026-05-02T09:33:58.351Z</time></trkpt><trkpt lat="42.07673" lon="12.13699"><ele>282.6666666666667</ele><time>2026-05-02T09:34:00.353Z</time></trkpt><trkpt lat="42.0767983" lon="12.1370783"><ele>282.3333333333333</ele><time>2026-05-02T09:34:03.352Z</time></trkpt><trkpt lat="42.07686" lon="12.1371783"><ele>282.0</ele><time>2026-05-02T09:34:06.352Z</time></trkpt><trkpt lat="42.0769083" lon="12.1372417"><ele>282.0</ele><time>2026-05-02T09:34:08.351Z</time></trkpt><trkpt lat="42.0769567" lon="12.1373017"><ele>282.0</ele><time>2026-05-02T09:34:10.351Z</time></trkpt><trkpt lat="42.0770117" lon="12.13736"><ele>282.0</ele><time>2026-05-02T09:34:12.351Z</time></trkpt><trkpt lat="42.07706" lon="12.137425"><ele>282.0</ele><time>2026-05-02T09:34:14.354Z</time></trkpt><trkpt lat="42.0771183" lon="12.137495"><ele>282.0</ele><time>2026-05-02T09:34:16.352Z</time></trkpt><trkpt lat="42.0771767" lon="12.137565"><ele>282.0</ele><time>2026-05-02T09:34:18.351Z</time></trkpt><trkpt lat="42.0772383" lon="12.137625"><ele>282.0</ele><time>2026-05-02T09:34:20.351Z</time></trkpt><trkpt lat="42.0772917" lon="12.1376717"><ele>281.8333333333333</ele><time>2026-05-02T09:34:22.351Z</time></trkpt><trkpt lat="42.077375" lon="12.13773"><ele>281.6666666666667</ele><time>2026-05-02T09:34:25.349Z</time></trkpt><trkpt lat="42.0774367" lon="12.1377833"><ele>281.5</ele><time>2026-05-02T09:34:27.35Z</time></trkpt><trkpt lat="42.0775083" lon="12.137845"><ele>281.33333333333337</ele><time>2026-05-02T09:34:29.349Z</time></trkpt><trkpt lat="42.0775783" lon="12.1379"><ele>281.1666666666667</ele><time>2026-05-02T09:34:31.358Z</time></trkpt><trkpt lat="42.0776483" lon="12.1379517"><ele>281.0</ele><time>2026-05-02T09:34:33.353Z</time></trkpt><trkpt lat="42.0777117" lon="12.1380017"><ele>281.0</ele><time>2026-05-02T09:34:35.35Z</time></trkpt><trkpt lat="42.07778" lon="12.138045"><ele>281.0</ele><time>2026-05-02T09:34:37.352Z</time></trkpt><trkpt lat="42.07785" lon="12.138095"><ele>281.0</ele><time>2026-05-02T09:34:39.352Z</time></trkpt><trkpt lat="42.07792" lon="12.1381467"><ele>281.0</ele><time>2026-05-02T09:34:41.351Z</time></trkpt><trkpt lat="42.0779917" lon="12.138205"><ele>281.0</ele><time>2026-05-02T09:34:43.355Z</time></trkpt><trkpt lat="42.0780633" lon="12.1382583"><ele>281.0</ele><time>2026-05-02T09:34:45.352Z</time></trkpt><trkpt lat="42.0781317" lon="12.1383133"><ele>281.00000000000006</ele><time>2026-05-02T09:34:47.352Z</time></trkpt><trkpt lat="42.078195" lon="12.1383667"><ele>281.0</ele><time>2026-05-02T09:34:49.359Z</time></trkpt><trkpt lat="42.0782583" lon="12.13842"><ele>281.0</ele><time>2026-05-02T09:34:51.353Z</time></trkpt><trkpt lat="42.0783183" lon="12.1384667"><ele>281.0</ele><time>2026-05-02T09:34:53.352Z</time></trkpt><trkpt lat="42.07838" lon="12.1385183"><ele>281.0</ele><time>2026-05-02T09:34:55.349Z</time></trkpt><trkpt lat="42.0784383" lon="12.1385717"><ele>281.00000000000006</ele><time>2026-05-02T09:34:57.351Z</time></trkpt><trkpt lat="42.0784967" lon="12.1386217"><ele>281.0</ele><time>2026-05-02T09:34:59.351Z</time></trkpt><trkpt lat="42.0785533" lon="12.1386617"><ele>281.28571428571433</ele><time>2026-05-02T09:35:01.353Z</time></trkpt><trkpt lat="42.0786283" lon="12.1387283"><ele>281.57142857142856</ele><time>2026-05-02T09:35:04.351Z</time></trkpt><trkpt lat="42.0786867" lon="12.1387683"><ele>281.8571428571429</ele><time>2026-05-02T09:35:06.35Z</time></trkpt><trkpt lat="42.078745" lon="12.1388067"><ele>282.14285714285717</ele><time>2026-05-02T09:35:08.353Z</time></trkpt><trkpt lat="42.0788083" lon="12.1388317"><ele>282.42857142857144</ele><time>2026-05-02T09:35:10.349Z</time></trkpt><trkpt lat="42.0788633" lon="12.1388767"><ele>282.7142857142857</ele><time>2026-05-02T09:35:12.356Z</time></trkpt><trkpt lat="42.0789217" lon="12.13894"><ele>283.0</ele><time>2026-05-02T09:35:14.354Z</time></trkpt><trkpt lat="42.0789833" lon="12.139"><ele>283.3333333333333</ele><time>2026-05-02T09:35:16.351Z</time></trkpt><trkpt lat="42.0790367" lon="12.1390567"><ele>283.66666666666663</ele><time>2026-05-02T09:35:18.358Z</time></trkpt><trkpt lat="42.079105" lon="12.1391017"><ele>284.0</ele><time>2026-05-02T09:35:20.358Z</time></trkpt><trkpt lat="42.0791667" lon="12.1391367"><ele>284.3333333333333</ele><time>2026-05-02T09:35:22.356Z</time></trkpt><trkpt lat="42.07925" lon="12.139205"><ele>284.6666666666667</ele><time>2026-05-02T09:35:25.354Z</time></trkpt><trkpt lat="42.0793217" lon="12.13927"><ele>285.0</ele><time>2026-05-02T09:35:27.352Z</time></trkpt><trkpt lat="42.079395" lon="12.1393417"><ele>285.2</ele><time>2026-05-02T09:35:29.353Z</time></trkpt><trkpt lat="42.07947" lon="12.1394233"><ele>285.4</ele><time>2026-05-02T09:35:31.354Z</time></trkpt><trkpt lat="42.079545" lon="12.1395167"><ele>285.6</ele><time>2026-05-02T09:35:33.356Z</time></trkpt><trkpt lat="42.0796367" lon="12.139565"><ele>285.8</ele><time>2026-05-02T09:35:35.351Z</time></trkpt><trkpt lat="42.0797233" lon="12.1396183"><ele>286.0</ele><time>2026-05-02T09:35:37.351Z</time></trkpt><trkpt lat="42.0797933" lon="12.1396867"><ele>286.0</ele><time>2026-05-02T09:35:39.351Z</time></trkpt><trkpt lat="42.079855" lon="12.13975"><ele>286.0</ele><time>2026-05-02T09:35:41.358Z</time></trkpt><trkpt lat="42.0799133" lon="12.1398017"><ele>286.0</ele><time>2026-05-02T09:35:43.35Z</time></trkpt><trkpt lat="42.0799683" lon="12.139845"><ele>286.0</ele><time>2026-05-02T09:35:45.351Z</time></trkpt><trkpt lat="42.0800467" lon="12.139875"><ele>286.0</ele><time>2026-05-02T09:35:47.353Z</time></trkpt><trkpt lat="42.080125" lon="12.139915"><ele>286.0</ele><time>2026-05-02T09:35:49.352Z</time></trkpt><trkpt lat="42.0802" lon="12.1399833"><ele>285.40000000000003</ele><time>2026-05-02T09:35:51.355Z</time></trkpt><trkpt lat="42.0802783" lon="12.1400417"><ele>284.8</ele><time>2026-05-02T09:35:53.358Z</time></trkpt><trkpt lat="42.08038" lon="12.1401183"><ele>284.20000000000005</ele><time>2026-05-02T09:35:55.351Z</time></trkpt><trkpt lat="42.0804817" lon="12.1401967"><ele>283.6</ele><time>2026-05-02T09:35:57.351Z</time></trkpt><trkpt lat="42.08059" lon="12.1402533"><ele>283.0</ele><time>2026-05-02T09:35:59.351Z</time></trkpt><trkpt lat="42.0806583" lon="12.1402667"><ele>283.0</ele><time>2026-05-02T09:36:00.356Z</time></trkpt><trkpt lat="42.08073" lon="12.140275"><ele>283.0</ele><time>2026-05-02T09:36:01.353Z</time></trkpt><trkpt lat="42.0808" lon="12.1402817"><ele>283.0</ele><time>2026-05-02T09:36:02.351Z</time></trkpt><trkpt lat="42.080865" lon="12.140285"><ele>283.0</ele><time>2026-05-02T09:36:03.352Z</time></trkpt><trkpt lat="42.08093" lon="12.1402917"><ele>283.0</ele><time>2026-05-02T09:36:04.352Z</time></trkpt><trkpt lat="42.081045" lon="12.1403217"><ele>283.0</ele><time>2026-05-02T09:36:06.354Z</time></trkpt><trkpt lat="42.0811567" lon="12.140355"><ele>283.2</ele><time>2026-05-02T09:36:08.352Z</time></trkpt><trkpt lat="42.081225" lon="12.1403417"><ele>283.4</ele><time>2026-05-02T09:36:09.35Z</time></trkpt><trkpt lat="42.08134" lon="12.1403367"><ele>283.59999999999997</ele><time>2026-05-02T09:36:11.352Z</time></trkpt><trkpt lat="42.0814617" lon="12.14035"><ele>283.8</ele><time>2026-05-02T09:36:13.351Z</time></trkpt><trkpt lat="42.0815817" lon="12.1403767"><ele>284.0</ele><time>2026-05-02T09:36:15.357Z</time></trkpt><trkpt lat="42.0817" lon="12.1404183"><ele>283.25</ele><time>2026-05-02T09:36:17.352Z</time></trkpt><trkpt lat="42.0818117" lon="12.140445"><ele>282.5</ele><time>2026-05-02T09:36:19.351Z</time></trkpt><trkpt lat="42.0819183" lon="12.1404733"><ele>281.75</ele><time>2026-05-02T09:36:21.35Z</time></trkpt><trkpt lat="42.08203" lon="12.1405033"><ele>281.0</ele><time>2026-05-02T09:36:23.352Z</time></trkpt><trkpt lat="42.0821367" lon="12.1405733"><ele>281.0</ele><time>2026-05-02T09:36:25.349Z</time></trkpt><trkpt lat="42.08223" lon="12.14067"><ele>281.0</ele><time>2026-05-02T09:36:27.352Z</time></trkpt><trkpt lat="42.0823017" lon="12.1407833"><ele>281.0</ele><time>2026-05-02T09:36:29.351Z</time></trkpt><trkpt lat="42.082365" lon="12.140895"><ele>281.0</ele><time>2026-05-02T09:36:31.358Z</time></trkpt><trkpt lat="42.0824217" lon="12.141015"><ele>281.0</ele><time>2026-05-02T09:36:33.352Z</time></trkpt><trkpt lat="42.0824683" lon="12.141125"><ele>280.5</ele><time>2026-05-02T09:36:35.353Z</time></trkpt><trkpt lat="42.0825033" lon="12.1412133"><ele>280.0</ele><time>2026-05-02T09:36:39.352Z</time></trkpt><trkpt lat="42.0825333" lon="12.1413383"><ele>279.5</ele><time>2026-05-02T09:36:49.35Z</time></trkpt><trkpt lat="42.08255" lon="12.1414433"><ele>279.0</ele><time>2026-05-02T09:36:51.352Z</time></trkpt><trkpt lat="42.082565" lon="12.1415583"><ele>278.5</ele><time>2026-05-02T09:36:53.353Z</time></trkpt><trkpt lat="42.0825833" lon="12.141695"><ele>278.0</ele><time>2026-05-02T09:36:55.349Z</time></trkpt><trkpt lat="42.0826017" lon="12.1418267"><ele>277.8</ele><time>2026-05-02T09:36:57.366Z</time></trkpt><trkpt lat="42.0826417" lon="12.14195"><ele>277.6</ele><time>2026-05-02T09:36:59.352Z</time></trkpt><trkpt lat="42.0827083" lon="12.142065"><ele>277.4</ele><time>2026-05-02T09:37:01.35Z</time></trkpt><trkpt lat="42.0827683" lon="12.1421883"><ele>277.2</ele><time>2026-05-02T09:37:03.355Z</time></trkpt><trkpt lat="42.0828217" lon="12.1422883"><ele>277.0</ele><time>2026-05-02T09:37:05.352Z</time></trkpt><trkpt lat="42.082875" lon="12.1423783"><ele>276.5</ele><time>2026-05-02T09:37:07.352Z</time></trkpt><trkpt lat="42.0829267" lon="12.1424483"><ele>276.0</ele><time>2026-05-02T09:37:09.352Z</time></trkpt><trkpt lat="42.0829917" lon="12.1425067"><ele>275.5</ele><time>2026-05-02T09:37:12.361Z</time></trkpt><trkpt lat="42.0830383" lon="12.1425833"><ele>275.0</ele><time>2026-05-02T09:37:14.353Z</time></trkpt><trkpt lat="42.0831017" lon="12.142655"><ele>274.5</ele><time>2026-05-02T09:37:16.354Z</time></trkpt><trkpt lat="42.0831767" lon="12.1427433"><ele>274.0</ele><time>2026-05-02T09:37:18.362Z</time></trkpt><trkpt lat="42.0832567" lon="12.1428083"><ele>275.2</ele><time>2026-05-02T09:37:20.352Z</time></trkpt><trkpt lat="42.0833433" lon="12.142875"><ele>276.4</ele><time>2026-05-02T09:37:22.352Z</time></trkpt><trkpt lat="42.083415" lon="12.142955"><ele>277.6</ele><time>2026-05-02T09:37:24.357Z</time></trkpt><trkpt lat="42.083515" lon="12.1430367"><ele>278.8</ele><time>2026-05-02T09:37:26.354Z</time></trkpt><trkpt lat="42.0835767" lon="12.1430883"><ele>280.0</ele><time>2026-05-02T09:37:27.352Z</time></trkpt><trkpt lat="42.0836433" lon="12.1431433"><ele>280.0</ele><time>2026-05-02T09:37:28.353Z</time></trkpt><trkpt lat="42.0837017" lon="12.1431933"><ele>280.0</ele><time>2026-05-02T09:37:29.363Z</time></trkpt><trkpt lat="42.0837633" lon="12.1432383"><ele>280.0</ele><time>2026-05-02T09:37:30.351Z</time></trkpt><trkpt lat="42.0838233" lon="12.1432833"><ele>280.0</ele><time>2026-05-02T09:37:31.352Z</time></trkpt><trkpt lat="42.0838783" lon="12.1433367"><ele>280.0</ele><time>2026-05-02T09:37:32.355Z</time></trkpt><trkpt lat="42.083935" lon="12.1433867"><ele>280.0</ele><time>2026-05-02T09:37:33.353Z</time></trkpt><trkpt lat="42.0839967" lon="12.1434417"><ele>280.0</ele><time>2026-05-02T09:37:34.351Z</time></trkpt><trkpt lat="42.0840567" lon="12.1434967"><ele>278.7142857142857</ele><time>2026-05-02T09:37:35.353Z</time></trkpt><trkpt lat="42.0841167" lon="12.1435533"><ele>277.42857142857144</ele><time>2026-05-02T09:37:36.352Z</time></trkpt><trkpt lat="42.0841683" lon="12.14361"><ele>276.1428571428571</ele><time>2026-05-02T09:37:37.355Z</time></trkpt><trkpt lat="42.0842183" lon="12.1436717"><ele>274.8571428571429</ele><time>2026-05-02T09:37:38.353Z</time></trkpt><trkpt lat="42.084265" lon="12.1437383"><ele>273.57142857142856</ele><time>2026-05-02T09:37:39.354Z</time></trkpt><trkpt lat="42.0843183" lon="12.143805"><ele>272.2857142857143</ele><time>2026-05-02T09:37:40.352Z</time></trkpt><trkpt lat="42.08437" lon="12.1438733"><ele>271.0</ele><time>2026-05-02T09:37:41.356Z</time></trkpt><trkpt lat="42.084425" lon="12.14394"><ele>271.0</ele><time>2026-05-02T09:37:42.349Z</time></trkpt><trkpt lat="42.08448" lon="12.1440067"><ele>271.0</ele><time>2026-05-02T09:37:43.351Z</time></trkpt><trkpt lat="42.084535" lon="12.1440783"><ele>271.0</ele><time>2026-05-02T09:37:44.352Z</time></trkpt><trkpt lat="42.0845933" lon="12.144145"><ele>271.0</ele><time>2026-05-02T09:37:45.353Z</time></trkpt><trkpt lat="42.0846483" lon="12.1442167"><ele>271.0</ele><time>2026-05-02T09:37:46.353Z</time></trkpt><trkpt lat="42.08469" lon="12.1442967"><ele>271.0</ele><time>2026-05-02T09:37:47.355Z</time></trkpt><trkpt lat="42.08473" lon="12.14437"><ele>271.0</ele><time>2026-05-02T09:37:48.353Z</time></trkpt><trkpt lat="42.0847717" lon="12.1444417"><ele>271.0</ele><time>2026-05-02T09:37:49.354Z</time></trkpt><trkpt lat="42.084815" lon="12.1445083"><ele>271.0</ele><time>2026-05-02T09:37:50.359Z</time></trkpt><trkpt lat="42.0848633" lon="12.1445717"><ele>271.0</ele><time>2026-05-02T09:37:51.352Z</time></trkpt><trkpt lat="42.0849317" lon="12.1446667"><ele>271.0</ele><time>2026-05-02T09:37:53.351Z</time></trkpt><trkpt lat="42.0849767" lon="12.1447517"><ele>271.0</ele><time>2026-05-02T09:37:55.353Z</time></trkpt><trkpt lat="42.0850117" lon="12.1448333"><ele>271.0</ele><time>2026-05-02T09:37:57.354Z</time></trkpt><trkpt lat="42.0850617" lon="12.1449017"><ele>270.5</ele><time>2026-05-02T09:37:59.353Z</time></trkpt><trkpt lat="42.0851117" lon="12.1449833"><ele>270.0</ele><time>2026-05-02T09:38:01.352Z</time></trkpt><trkpt lat="42.085155" lon="12.1450683"><ele>269.5</ele><time>2026-05-02T09:38:03.353Z</time></trkpt><trkpt lat="42.085195" lon="12.14515"><ele>269.0</ele><time>2026-05-02T09:38:05.352Z</time></trkpt><trkpt lat="42.0852317" lon="12.1452667"><ele>268.5</ele><time>2026-05-02T09:38:08.36Z</time></trkpt><trkpt lat="42.085245" lon="12.1453617"><ele>268.0</ele><time>2026-05-02T09:38:10.352Z</time></trkpt><trkpt lat="42.0852567" lon="12.14547"><ele>268.0</ele><time>2026-05-02T09:38:12.353Z</time></trkpt><trkpt lat="42.0852617" lon="12.1455883"><ele>268.0</ele><time>2026-05-02T09:38:14.351Z</time></trkpt><trkpt lat="42.08527" lon="12.1456933"><ele>268.0</ele><time>2026-05-02T09:38:16.35Z</time></trkpt><trkpt lat="42.0852767" lon="12.1458033"><ele>268.0</ele><time>2026-05-02T09:38:18.35Z</time></trkpt><trkpt lat="42.0852783" lon="12.14592"><ele>268.0</ele><time>2026-05-02T09:38:20.353Z</time></trkpt><trkpt lat="42.085275" lon="12.1460317"><ele>268.0</ele><time>2026-05-02T09:38:22.358Z</time></trkpt><trkpt lat="42.08527" lon="12.14614"><ele>268.0</ele><time>2026-05-02T09:38:24.35Z</time></trkpt><trkpt lat="42.085245" lon="12.146245"><ele>268.0</ele><time>2026-05-02T09:38:26.353Z</time></trkpt><trkpt lat="42.0852133" lon="12.14634"><ele>268.0</ele><time>2026-05-02T09:38:28.353Z</time></trkpt><trkpt lat="42.0851767" lon="12.1464483"><ele>268.0</ele><time>2026-05-02T09:38:30.354Z</time></trkpt><trkpt lat="42.085145" lon="12.1465567"><ele>268.0</ele><time>2026-05-02T09:38:32.353Z</time></trkpt><trkpt lat="42.0851" lon="12.1466583"><ele>268.0</ele><time>2026-05-02T09:38:34.351Z</time></trkpt><trkpt lat="42.0850517" lon="12.1467533"><ele>268.16666666666663</ele><time>2026-05-02T09:38:36.353Z</time></trkpt><trkpt lat="42.08501" lon="12.1468433"><ele>268.3333333333333</ele><time>2026-05-02T09:38:38.357Z</time></trkpt><trkpt lat="42.08498" lon="12.1469417"><ele>268.5</ele><time>2026-05-02T09:38:40.35Z</time></trkpt><trkpt lat="42.084955" lon="12.14704"><ele>268.6666666666667</ele><time>2026-05-02T09:38:42.353Z</time></trkpt><trkpt lat="42.0849367" lon="12.147125"><ele>268.83333333333337</ele><time>2026-05-02T09:38:44.353Z</time></trkpt><trkpt lat="42.0849267" lon="12.147215"><ele>269.0</ele><time>2026-05-02T09:38:46.355Z</time></trkpt><trkpt lat="42.0849083" lon="12.1473383"><ele>269.33333333333337</ele><time>2026-05-02T09:38:49.351Z</time></trkpt><trkpt lat="42.08489" lon="12.1474217"><ele>269.6666666666667</ele><time>2026-05-02T09:38:51.35Z</time></trkpt><trkpt lat="42.0848733" lon="12.14751"><ele>270.0</ele><time>2026-05-02T09:38:53.352Z</time></trkpt><trkpt lat="42.0848617" lon="12.1476017"><ele>270.3333333333333</ele><time>2026-05-02T09:38:55.35Z</time></trkpt><trkpt lat="42.0848633" lon="12.1477283"><ele>270.66666666666663</ele><time>2026-05-02T09:38:58.35Z</time></trkpt><trkpt lat="42.0848583" lon="12.1478133"><ele>271.0</ele><time>2026-05-02T09:39:00.353Z</time></trkpt><trkpt lat="42.0848467" lon="12.14794"><ele>271.0</ele><time>2026-05-02T09:39:03.352Z</time></trkpt><trkpt lat="42.084825" lon="12.148065"><ele>271.0</ele><time>2026-05-02T09:39:06.355Z</time></trkpt><trkpt lat="42.0847983" lon="12.1481433"><ele>271.0</ele><time>2026-05-02T09:39:08.35Z</time></trkpt><trkpt lat="42.0847717" lon="12.1482583"><ele>271.0</ele><time>2026-05-02T09:39:11.357Z</time></trkpt><trkpt lat="42.0847467" lon="12.148375"><ele>271.0</ele><time>2026-05-02T09:39:14.35Z</time></trkpt><trkpt lat="42.0847233" lon="12.1484583"><ele>271.0</ele><time>2026-05-02T09:39:16.35Z</time></trkpt><trkpt lat="42.0847033" lon="12.1485483"><ele>271.57142857142856</ele><time>2026-05-02T09:39:18.351Z</time></trkpt><trkpt lat="42.0846867" lon="12.1486383"><ele>272.14285714285717</ele><time>2026-05-02T09:39:20.355Z</time></trkpt><trkpt lat="42.0846683" lon="12.14872"><ele>272.7142857142857</ele><time>2026-05-02T09:39:22.351Z</time></trkpt><trkpt lat="42.08465" lon="12.1488033"><ele>273.2857142857143</ele><time>2026-05-02T09:39:24.353Z</time></trkpt><trkpt lat="42.0846267" lon="12.1488833"><ele>273.85714285714283</ele><time>2026-05-02T09:39:26.353Z</time></trkpt><trkpt lat="42.0846067" lon="12.1489667"><ele>274.42857142857144</ele><time>2026-05-02T09:39:28.355Z</time></trkpt><trkpt lat="42.084585" lon="12.1490517"><ele>275.0</ele><time>2026-05-02T09:39:30.351Z</time></trkpt><trkpt lat="42.0845617" lon="12.1491333"><ele>275.5</ele><time>2026-05-02T09:39:32.355Z</time></trkpt><trkpt lat="42.084545" lon="12.1492217"><ele>276.0</ele><time>2026-05-02T09:39:34.351Z</time></trkpt><trkpt lat="42.084515" lon="12.1493317"><ele>276.5</ele><time>2026-05-02T09:39:37.351Z</time></trkpt><trkpt lat="42.08449" lon="12.1494433"><ele>277.0</ele><time>2026-05-02T09:39:40.35Z</time></trkpt><trkpt lat="42.0844683" lon="12.1495517"><ele>277.5</ele><time>2026-05-02T09:39:43.352Z</time></trkpt><trkpt lat="42.08444" lon="12.1496467"><ele>278.0</ele><time>2026-05-02T09:39:46.351Z</time></trkpt><trkpt lat="42.0844167" lon="12.1497367"><ele>278.0</ele><time>2026-05-02T09:39:49.354Z</time></trkpt><trkpt lat="42.0843917" lon="12.149835"><ele>278.0</ele><time>2026-05-02T09:39:52.351Z</time></trkpt><trkpt lat="42.084355" lon="12.1499367"><ele>278.0</ele><time>2026-05-02T09:39:55.352Z</time></trkpt><trkpt lat="42.084335" lon="12.15004"><ele>278.0</ele><time>2026-05-02T09:39:58.352Z</time></trkpt><trkpt lat="42.0843033" lon="12.15013"><ele>278.0</ele><time>2026-05-02T09:40:01.352Z</time></trkpt><trkpt lat="42.0842783" lon="12.1502717"><ele>278.0</ele><time>2026-05-02T09:41:35.352Z</time></trkpt><trkpt lat="42.0842567" lon="12.1503833"><ele>278.0</ele><time>2026-05-02T09:41:38.356Z</time></trkpt><trkpt lat="42.084225" lon="12.1505"><ele>278.0</ele><time>2026-05-02T09:41:41.351Z</time></trkpt><trkpt lat="42.0841917" lon="12.1506183"><ele>278.0</ele><time>2026-05-02T09:41:44.352Z</time></trkpt><trkpt lat="42.0841617" lon="12.1507317"><ele>278.0</ele><time>2026-05-02T09:41:47.349Z</time></trkpt><trkpt lat="42.084135" lon="12.15082"><ele>278.0</ele><time>2026-05-02T09:41:50.352Z</time></trkpt><trkpt lat="42.0841317" lon="12.1509283"><ele>278.0</ele><time>2026-05-02T09:42:05.352Z</time></trkpt><trkpt lat="42.0841467" lon="12.15102"><ele>278.0</ele><time>2026-05-02T09:42:09.353Z</time></trkpt><trkpt lat="42.0841333" lon="12.1511117"><ele>278.0</ele><time>2026-05-02T09:42:11.35Z</time></trkpt><trkpt lat="42.0841083" lon="12.15121"><ele>278.0</ele><time>2026-05-02T09:42:13.353Z</time></trkpt><trkpt lat="42.0840883" lon="12.1513183"><ele>278.0</ele><time>2026-05-02T09:42:15.354Z</time></trkpt><trkpt lat="42.08406" lon="12.1514433"><ele>278.0</ele><time>2026-05-02T09:42:17.351Z</time></trkpt><trkpt lat="42.0840217" lon="12.15158"><ele>278.0</ele><time>2026-05-02T09:42:19.353Z</time></trkpt><trkpt lat="42.0839767" lon="12.1517383"><ele>278.0</ele><time>2026-05-02T09:42:21.352Z</time></trkpt><trkpt lat="42.08395" lon="12.15182"><ele>278.0</ele><time>2026-05-02T09:42:22.351Z</time></trkpt><trkpt lat="42.083925" lon="12.151905"><ele>278.0</ele><time>2026-05-02T09:42:23.351Z</time></trkpt><trkpt lat="42.0839033" lon="12.15199"><ele>278.0</ele><time>2026-05-02T09:42:24.349Z</time></trkpt><trkpt lat="42.083885" lon="12.152085"><ele>278.0</ele><time>2026-05-02T09:42:25.353Z</time></trkpt><trkpt lat="42.0838667" lon="12.1521783"><ele>278.0</ele><time>2026-05-02T09:42:26.35Z</time></trkpt><trkpt lat="42.08385" lon="12.15228"><ele>278.0</ele><time>2026-05-02T09:42:27.356Z</time></trkpt><trkpt lat="42.0838283" lon="12.1523867"><ele>277.6666666666667</ele><time>2026-05-02T09:42:28.35Z</time></trkpt><trkpt lat="42.0838033" lon="12.1524933"><ele>277.33333333333337</ele><time>2026-05-02T09:42:29.356Z</time></trkpt><trkpt lat="42.0837783" lon="12.1526"><ele>277.0</ele><time>2026-05-02T09:42:30.351Z</time></trkpt><trkpt lat="42.083755" lon="12.1527183"><ele>276.6666666666667</ele><time>2026-05-02T09:42:31.35Z</time></trkpt><trkpt lat="42.08373" lon="12.152835"><ele>276.3333333333333</ele><time>2026-05-02T09:42:32.351Z</time></trkpt><trkpt lat="42.0836983" lon="12.1529567"><ele>276.0</ele><time>2026-05-02T09:42:33.352Z</time></trkpt><trkpt lat="42.0836633" lon="12.1530817"><ele>274.8</ele><time>2026-05-02T09:42:34.351Z</time></trkpt><trkpt lat="42.0836283" lon="12.153215"><ele>273.6</ele><time>2026-05-02T09:42:35.356Z</time></trkpt><trkpt lat="42.0835967" lon="12.1533517"><ele>272.4</ele><time>2026-05-02T09:42:36.351Z</time></trkpt><trkpt lat="42.0835617" lon="12.1534867"><ele>271.2</ele><time>2026-05-02T09:42:37.351Z</time></trkpt><trkpt lat="42.08353" lon="12.15362"><ele>270.0</ele><time>2026-05-02T09:42:38.349Z</time></trkpt><trkpt lat="42.083495" lon="12.153755"><ele>270.0</ele><time>2026-05-02T09:42:39.353Z</time></trkpt><trkpt lat="42.083465" lon="12.153885"><ele>270.0</ele><time>2026-05-02T09:42:40.358Z</time></trkpt><trkpt lat="42.0834367" lon="12.1540133"><ele>270.0</ele><time>2026-05-02T09:42:41.351Z</time></trkpt><trkpt lat="42.0834083" lon="12.15414"><ele>270.0</ele><time>2026-05-02T09:42:42.352Z</time></trkpt><trkpt lat="42.08338" lon="12.1542583"><ele>270.0</ele><time>2026-05-02T09:42:43.349Z</time></trkpt><trkpt lat="42.0833533" lon="12.1543717"><ele>269.6666666666667</ele><time>2026-05-02T09:42:44.35Z</time></trkpt><trkpt lat="42.083325" lon="12.1544833"><ele>269.3333333333333</ele><time>2026-05-02T09:42:45.351Z</time></trkpt><trkpt lat="42.0832967" lon="12.1545917"><ele>269.0</ele><time>2026-05-02T09:42:46.353Z</time></trkpt><trkpt lat="42.08327" lon="12.1547033"><ele>268.66666666666663</ele><time>2026-05-02T09:42:47.351Z</time></trkpt><trkpt lat="42.0832417" lon="12.1548133"><ele>268.3333333333333</ele><time>2026-05-02T09:42:48.358Z</time></trkpt><trkpt lat="42.083215" lon="12.15492"><ele>268.0</ele><time>2026-05-02T09:42:49.35Z</time></trkpt><trkpt lat="42.0831867" lon="12.15502"><ele>267.16666666666663</ele><time>2026-05-02T09:42:50.35Z</time></trkpt><trkpt lat="42.0831567" lon="12.15512"><ele>266.3333333333333</ele><time>2026-05-02T09:42:51.35Z</time></trkpt><trkpt lat="42.0831317" lon="12.15522"><ele>265.5</ele><time>2026-05-02T09:42:52.352Z</time></trkpt><trkpt lat="42.08311" lon="12.15532"><ele>264.6666666666667</ele><time>2026-05-02T09:42:53.349Z</time></trkpt><trkpt lat="42.083085" lon="12.1554183"><ele>263.83333333333337</ele><time>2026-05-02T09:42:54.352Z</time></trkpt><trkpt lat="42.08306" lon="12.155515"><ele>263.0</ele><time>2026-05-02T09:42:55.357Z</time></trkpt><trkpt lat="42.0830333" lon="12.1556117"><ele>263.0</ele><time>2026-05-02T09:42:56.35Z</time></trkpt><trkpt lat="42.08301" lon="12.1557033"><ele>263.0</ele><time>2026-05-02T09:42:57.357Z</time></trkpt><trkpt lat="42.0829883" lon="12.15579"><ele>263.0</ele><time>2026-05-02T09:42:58.35Z</time></trkpt><trkpt lat="42.0829717" lon="12.1558733"><ele>263.0</ele><time>2026-05-02T09:42:59.349Z</time></trkpt><trkpt lat="42.0829433" lon="12.156035"><ele>263.0</ele><time>2026-05-02T09:43:01.351Z</time></trkpt><trkpt lat="42.0829117" lon="12.1561917"><ele>263.0</ele><time>2026-05-02T09:43:03.352Z</time></trkpt><trkpt lat="42.0828967" lon="12.1562767"><ele>263.0</ele><time>2026-05-02T09:43:04.349Z</time></trkpt><trkpt lat="42.08288" lon="12.1563617"><ele>263.0</ele><time>2026-05-02T09:43:05.349Z</time></trkpt><trkpt lat="42.08286" lon="12.1564467"><ele>263.0</ele><time>2026-05-02T09:43:06.352Z</time></trkpt><trkpt lat="42.08284" lon="12.156535"><ele>263.0</ele><time>2026-05-02T09:43:07.353Z</time></trkpt><trkpt lat="42.0828117" lon="12.156625"><ele>263.0</ele><time>2026-05-02T09:43:08.351Z</time></trkpt><trkpt lat="42.08278" lon="12.1567167"><ele>263.0</ele><time>2026-05-02T09:43:09.358Z</time></trkpt><trkpt lat="42.0827567" lon="12.156815"><ele>263.0</ele><time>2026-05-02T09:43:10.349Z</time></trkpt><trkpt lat="42.08273" lon="12.1569183"><ele>263.0</ele><time>2026-05-02T09:43:11.353Z</time></trkpt><trkpt lat="42.0827033" lon="12.1570233"><ele>263.0</ele><time>2026-05-02T09:43:12.349Z</time></trkpt><trkpt lat="42.0826767" lon="12.1571317"><ele>263.0</ele><time>2026-05-02T09:43:13.35Z</time></trkpt><trkpt lat="42.0826517" lon="12.1572367"><ele>263.0</ele><time>2026-05-02T09:43:14.352Z</time></trkpt><trkpt lat="42.0826267" lon="12.15734"><ele>263.0</ele><time>2026-05-02T09:43:15.351Z</time></trkpt><trkpt lat="42.0825983" lon="12.1574467"><ele>263.0</ele><time>2026-05-02T09:43:16.354Z</time></trkpt><trkpt lat="42.08257" lon="12.157555"><ele>263.0</ele><time>2026-05-02T09:43:17.352Z</time></trkpt><trkpt lat="42.0825433" lon="12.1576567"><ele>263.0</ele><time>2026-05-02T09:43:18.351Z</time></trkpt><trkpt lat="42.0825183" lon="12.1577483"><ele>263.0</ele><time>2026-05-02T09:43:19.356Z</time></trkpt><trkpt lat="42.0824917" lon="12.1578417"><ele>263.0</ele><time>2026-05-02T09:43:20.352Z</time></trkpt><trkpt lat="42.0824667" lon="12.1579333"><ele>263.0</ele><time>2026-05-02T09:43:21.353Z</time></trkpt><trkpt lat="42.0824367" lon="12.1580217"><ele>263.0</ele><time>2026-05-02T09:43:22.352Z</time></trkpt><trkpt lat="42.08241" lon="12.1581083"><ele>263.0</ele><time>2026-05-02T09:43:23.351Z</time></trkpt><trkpt lat="42.0823817" lon="12.1581967"><ele>262.85714285714283</ele><time>2026-05-02T09:43:24.356Z</time></trkpt><trkpt lat="42.0823583" lon="12.1582817"><ele>262.71428571428567</ele><time>2026-05-02T09:43:25.35Z</time></trkpt><trkpt lat="42.082335" lon="12.1583633"><ele>262.57142857142856</ele><time>2026-05-02T09:43:26.35Z</time></trkpt><trkpt lat="42.0823117" lon="12.1584483"><ele>262.42857142857144</ele><time>2026-05-02T09:43:27.35Z</time></trkpt><trkpt lat="42.0822933" lon="12.1585317"><ele>262.28571428571433</ele><time>2026-05-02T09:43:28.35Z</time></trkpt><trkpt lat="42.0822783" lon="12.1586167"><ele>262.14285714285717</ele><time>2026-05-02T09:43:29.35Z</time></trkpt><trkpt lat="42.0822633" lon="12.1587"><ele>262.0</ele><time>2026-05-02T09:43:30.351Z</time></trkpt><trkpt lat="42.0822467" lon="12.1587867"><ele>262.0</ele><time>2026-05-02T09:43:31.356Z</time></trkpt><trkpt lat="42.0822283" lon="12.158875"><ele>262.0</ele><time>2026-05-02T09:43:32.351Z</time></trkpt><trkpt lat="42.082195" lon="12.1590267"><ele>262.0</ele><time>2026-05-02T09:43:34.351Z</time></trkpt><trkpt lat="42.08216" lon="12.1591567"><ele>262.0</ele><time>2026-05-02T09:43:36.352Z</time></trkpt><trkpt lat="42.0821283" lon="12.15929"><ele>262.0</ele><time>2026-05-02T09:43:38.358Z</time></trkpt><trkpt lat="42.0821033" lon="12.15942"><ele>262.6</ele><time>2026-05-02T09:43:40.352Z</time></trkpt><trkpt lat="42.0820833" lon="12.159545"><ele>263.2</ele><time>2026-05-02T09:43:42.349Z</time></trkpt><trkpt lat="42.082055" lon="12.1596683"><ele>263.8</ele><time>2026-05-02T09:43:44.362Z</time></trkpt><trkpt lat="42.0820117" lon="12.1597917"><ele>264.4</ele><time>2026-05-02T09:43:46.349Z</time></trkpt><trkpt lat="42.08197" lon="12.1599167"><ele>265.0</ele><time>2026-05-02T09:43:48.352Z</time></trkpt><trkpt lat="42.0819467" lon="12.1600233"><ele>266.0</ele><time>2026-05-02T09:43:50.35Z</time></trkpt><trkpt lat="42.0819217" lon="12.1601183"><ele>267.0</ele><time>2026-05-02T09:43:52.353Z</time></trkpt><trkpt lat="42.0819" lon="12.1602233"><ele>268.0</ele><time>2026-05-02T09:43:54.35Z</time></trkpt><trkpt lat="42.0818783" lon="12.160325"><ele>269.0</ele><time>2026-05-02T09:43:56.35Z</time></trkpt><trkpt lat="42.0818533" lon="12.16042"><ele>270.0</ele><time>2026-05-02T09:43:58.349Z</time></trkpt><trkpt lat="42.0818317" lon="12.1605233"><ele>271.0</ele><time>2026-05-02T09:44:00.351Z</time></trkpt><trkpt lat="42.0818183" lon="12.160625"><ele>271.16666666666663</ele><time>2026-05-02T09:44:02.354Z</time></trkpt><trkpt lat="42.0818" lon="12.1607117"><ele>271.3333333333333</ele><time>2026-05-02T09:44:04.351Z</time></trkpt><trkpt lat="42.081765" lon="12.160825"><ele>271.5</ele><time>2026-05-02T09:44:07.351Z</time></trkpt><trkpt lat="42.0817333" lon="12.1609317"><ele>271.6666666666667</ele><time>2026-05-02T09:44:10.357Z</time></trkpt><trkpt lat="42.0817033" lon="12.161035"><ele>271.83333333333337</ele><time>2026-05-02T09:44:13.35Z</time></trkpt><trkpt lat="42.081675" lon="12.16113"><ele>272.0</ele><time>2026-05-02T09:44:16.351Z</time></trkpt><trkpt lat="42.0816517" lon="12.161225"><ele>271.99999999999994</ele><time>2026-05-02T09:44:19.35Z</time></trkpt><trkpt lat="42.08164" lon="12.1613217"><ele>272.0</ele><time>2026-05-02T09:44:22.351Z</time></trkpt><trkpt lat="42.0816233" lon="12.1614133"><ele>272.0</ele><time>2026-05-02T09:44:25.352Z</time></trkpt><trkpt lat="42.0815917" lon="12.1615117"><ele>272.0</ele><time>2026-05-02T09:44:28.35Z</time></trkpt><trkpt lat="42.081575" lon="12.1616"><ele>272.0</ele><time>2026-05-02T09:44:31.354Z</time></trkpt><trkpt lat="42.08155" lon="12.16169"><ele>271.99999999999994</ele><time>2026-05-02T09:44:34.354Z</time></trkpt><trkpt lat="42.0815283" lon="12.16178"><ele>272.0</ele><time>2026-05-02T09:44:37.355Z</time></trkpt><trkpt lat="42.0815267" lon="12.1618817"><ele>272.1666666666667</ele><time>2026-05-02T09:44:41.353Z</time></trkpt><trkpt lat="42.0814867" lon="12.1619583"><ele>272.33333333333337</ele><time>2026-05-02T09:44:45.354Z</time></trkpt><trkpt lat="42.0814617" lon="12.162055"><ele>272.5</ele><time>2026-05-02T09:44:49.353Z</time></trkpt><trkpt lat="42.0814367" lon="12.1621733"><ele>272.6666666666667</ele><time>2026-05-02T09:44:52.352Z</time></trkpt><trkpt lat="42.08142" lon="12.1622683"><ele>272.8333333333333</ele><time>2026-05-02T09:44:54.352Z</time></trkpt><trkpt lat="42.0814017" lon="12.1623783"><ele>273.0</ele><time>2026-05-02T09:44:56.353Z</time></trkpt><trkpt lat="42.0813817" lon="12.16251"><ele>272.5</ele><time>2026-05-02T09:44:58.353Z</time></trkpt><trkpt lat="42.0813467" lon="12.1626517"><ele>272.0</ele><time>2026-05-02T09:45:00.356Z</time></trkpt><trkpt lat="42.081325" lon="12.1627367"><ele>271.5</ele><time>2026-05-02T09:45:01.349Z</time></trkpt><trkpt lat="42.0813033" lon="12.1628333"><ele>271.0</ele><time>2026-05-02T09:45:02.352Z</time></trkpt><trkpt lat="42.0812867" lon="12.1629317"><ele>270.5</ele><time>2026-05-02T09:45:03.353Z</time></trkpt><trkpt lat="42.0812683" lon="12.163035"><ele>270.0</ele><time>2026-05-02T09:45:04.351Z</time></trkpt><trkpt lat="42.081245" lon="12.163135"><ele>269.8333333333333</ele><time>2026-05-02T09:45:05.349Z</time></trkpt><trkpt lat="42.0812233" lon="12.1632417"><ele>269.6666666666667</ele><time>2026-05-02T09:45:06.352Z</time></trkpt><trkpt lat="42.0812017" lon="12.1633533"><ele>269.5</ele><time>2026-05-02T09:45:07.351Z</time></trkpt><trkpt lat="42.0811783" lon="12.16346"><ele>269.33333333333337</ele><time>2026-05-02T09:45:08.358Z</time></trkpt><trkpt lat="42.0811567" lon="12.16357"><ele>269.1666666666667</ele><time>2026-05-02T09:45:09.354Z</time></trkpt><trkpt lat="42.0811333" lon="12.163675"><ele>269.0</ele><time>2026-05-02T09:45:10.35Z</time></trkpt><trkpt lat="42.08111" lon="12.1637783"><ele>269.0</ele><time>2026-05-02T09:45:11.35Z</time></trkpt><trkpt lat="42.0810867" lon="12.1638833"><ele>269.0</ele><time>2026-05-02T09:45:12.355Z</time></trkpt><trkpt lat="42.081065" lon="12.1639883"><ele>269.0</ele><time>2026-05-02T09:45:13.362Z</time></trkpt><trkpt lat="42.0810433" lon="12.1640867"><ele>269.0</ele><time>2026-05-02T09:45:14.351Z</time></trkpt><trkpt lat="42.081025" lon="12.1641817"><ele>269.0</ele><time>2026-05-02T09:45:15.35Z</time></trkpt><trkpt lat="42.0810017" lon="12.1642717"><ele>269.0</ele><time>2026-05-02T09:45:16.353Z</time></trkpt><trkpt lat="42.08098" lon="12.1643617"><ele>269.0</ele><time>2026-05-02T09:45:17.354Z</time></trkpt><trkpt lat="42.0809617" lon="12.164445"><ele>269.0</ele><time>2026-05-02T09:45:18.359Z</time></trkpt><trkpt lat="42.0809417" lon="12.164535"><ele>269.0</ele><time>2026-05-02T09:45:19.351Z</time></trkpt><trkpt lat="42.0809283" lon="12.1646183"><ele>269.0</ele><time>2026-05-02T09:45:20.352Z</time></trkpt><trkpt lat="42.0809017" lon="12.164785"><ele>269.0</ele><time>2026-05-02T09:45:22.352Z</time></trkpt><trkpt lat="42.0808833" lon="12.1648683"><ele>269.0</ele><time>2026-05-02T09:45:23.358Z</time></trkpt><trkpt lat="42.0808633" lon="12.1649533"><ele>269.0</ele><time>2026-05-02T09:45:24.355Z</time></trkpt><trkpt lat="42.0808317" lon="12.1651067"><ele>269.0</ele><time>2026-05-02T09:45:26.358Z</time></trkpt><trkpt lat="42.0808183" lon="12.1651983"><ele>269.0</ele><time>2026-05-02T09:45:27.355Z</time></trkpt><trkpt lat="42.0807783" lon="12.1653317"><ele>269.0</ele><time>2026-05-02T09:45:29.353Z</time></trkpt><trkpt lat="42.0807617" lon="12.165425"><ele>269.0</ele><time>2026-05-02T09:45:30.351Z</time></trkpt><trkpt lat="42.080745" lon="12.1655083"><ele>269.0</ele><time>2026-05-02T09:45:31.362Z</time></trkpt><trkpt lat="42.080735" lon="12.1655933"><ele>269.1666666666667</ele><time>2026-05-02T09:45:32.351Z</time></trkpt><trkpt lat="42.0807183" lon="12.1656817"><ele>269.33333333333337</ele><time>2026-05-02T09:45:33.356Z</time></trkpt><trkpt lat="42.0807017" lon="12.1657733"><ele>269.5</ele><time>2026-05-02T09:45:34.351Z</time></trkpt><trkpt lat="42.0806883" lon="12.16586"><ele>269.6666666666667</ele><time>2026-05-02T09:45:35.35Z</time></trkpt><trkpt lat="42.080655" lon="12.1660233"><ele>269.8333333333333</ele><time>2026-05-02T09:45:37.351Z</time></trkpt><trkpt lat="42.080625" lon="12.1661783"><ele>270.0</ele><time>2026-05-02T09:45:39.352Z</time></trkpt><trkpt lat="42.0805867" lon="12.1663333"><ele>270.0</ele><time>2026-05-02T09:45:41.356Z</time></trkpt><trkpt lat="42.080555" lon="12.16647"><ele>270.0</ele><time>2026-05-02T09:45:43.355Z</time></trkpt><trkpt lat="42.0805283" lon="12.1666017"><ele>270.0</ele><time>2026-05-02T09:45:45.353Z</time></trkpt><trkpt lat="42.0804983" lon="12.166735"><ele>270.0</ele><time>2026-05-02T09:45:47.352Z</time></trkpt><trkpt lat="42.0804617" lon="12.1668783"><ele>270.0</ele><time>2026-05-02T09:45:49.353Z</time></trkpt><trkpt lat="42.080435" lon="12.1670167"><ele>269.6</ele><time>2026-05-02T09:45:51.349Z</time></trkpt><trkpt lat="42.0804083" lon="12.16715"><ele>269.2</ele><time>2026-05-02T09:45:53.35Z</time></trkpt><trkpt lat="42.08038" lon="12.1672783"><ele>268.8</ele><time>2026-05-02T09:45:55.358Z</time></trkpt><trkpt lat="42.08035" lon="12.167435"><ele>268.4</ele><time>2026-05-02T09:45:57.354Z</time></trkpt><trkpt lat="42.0803167" lon="12.1675867"><ele>268.0</ele><time>2026-05-02T09:45:59.352Z</time></trkpt><trkpt lat="42.0802783" lon="12.1677417"><ele>267.8</ele><time>2026-05-02T09:46:01.35Z</time></trkpt><trkpt lat="42.0802483" lon="12.1678983"><ele>267.6</ele><time>2026-05-02T09:46:03.351Z</time></trkpt><trkpt lat="42.0802333" lon="12.167985"><ele>267.4</ele><time>2026-05-02T09:46:04.352Z</time></trkpt><trkpt lat="42.080205" lon="12.1681433"><ele>267.2</ele><time>2026-05-02T09:46:06.352Z</time></trkpt><trkpt lat="42.0801733" lon="12.168295"><ele>267.0</ele><time>2026-05-02T09:46:08.353Z</time></trkpt><trkpt lat="42.08014" lon="12.1684433"><ele>267.0</ele><time>2026-05-02T09:46:10.35Z</time></trkpt><trkpt lat="42.0801083" lon="12.16859"><ele>267.0</ele><time>2026-05-02T09:46:12.351Z</time></trkpt><trkpt lat="42.08008" lon="12.16874"><ele>267.0</ele><time>2026-05-02T09:46:14.353Z</time></trkpt><trkpt lat="42.0800533" lon="12.1688833"><ele>267.0</ele><time>2026-05-02T09:46:16.352Z</time></trkpt><trkpt lat="42.0800217" lon="12.1690183"><ele>267.0</ele><time>2026-05-02T09:46:18.351Z</time></trkpt><trkpt lat="42.0799967" lon="12.1691483"><ele>267.6</ele><time>2026-05-02T09:46:20.353Z</time></trkpt><trkpt lat="42.0799933" lon="12.1692817"><ele>268.2</ele><time>2026-05-02T09:46:22.348Z</time></trkpt><trkpt lat="42.0799917" lon="12.1694083"><ele>268.8</ele><time>2026-05-02T09:46:24.351Z</time></trkpt><trkpt lat="42.0799933" lon="12.1695317"><ele>269.4</ele><time>2026-05-02T09:46:26.357Z</time></trkpt><trkpt lat="42.0800017" lon="12.1696617"><ele>270.0</ele><time>2026-05-02T09:46:28.355Z</time></trkpt><trkpt lat="42.0800083" lon="12.1697867"><ele>270.5</ele><time>2026-05-02T09:46:30.351Z</time></trkpt><trkpt lat="42.0800083" lon="12.169905"><ele>271.0</ele><time>2026-05-02T09:46:32.352Z</time></trkpt><trkpt lat="42.0800033" lon="12.1700017"><ele>271.5</ele><time>2026-05-02T09:46:34.359Z</time></trkpt><trkpt lat="42.079975" lon="12.1701283"><ele>272.0</ele><time>2026-05-02T09:47:12.351Z</time></trkpt><trkpt lat="42.0800517" lon="12.1701467"><ele>272.5</ele><time>2026-05-02T09:47:15.359Z</time></trkpt><trkpt lat="42.080125" lon="12.1701417"><ele>273.0</ele><time>2026-05-02T09:47:17.353Z</time></trkpt><trkpt lat="42.0802033" lon="12.1701317"><ele>273.0</ele><time>2026-05-02T09:47:19.354Z</time></trkpt><trkpt lat="42.08028" lon="12.170115"><ele>273.0</ele><time>2026-05-02T09:47:21.352Z</time></trkpt><trkpt lat="42.080355" lon="12.1701067"><ele>273.0</ele><time>2026-05-02T09:47:23.352Z</time></trkpt><trkpt lat="42.080435" lon="12.1700983"><ele>273.0</ele><time>2026-05-02T09:47:25.352Z</time></trkpt><trkpt lat="42.080515" lon="12.1700833"><ele>273.0</ele><time>2026-05-02T09:47:27.357Z</time></trkpt><trkpt lat="42.0805983" lon="12.1700683"><ele>273.0</ele><time>2026-05-02T09:47:29.348Z</time></trkpt><trkpt lat="42.0806867" lon="12.1700467"><ele>273.2</ele><time>2026-05-02T09:47:31.352Z</time></trkpt><trkpt lat="42.0807783" lon="12.1700233"><ele>273.4</ele><time>2026-05-02T09:47:33.359Z</time></trkpt><trkpt lat="42.0808733" lon="12.1700067"><ele>273.59999999999997</ele><time>2026-05-02T09:47:35.352Z</time></trkpt><trkpt lat="42.0809667" lon="12.169985"><ele>273.8</ele><time>2026-05-02T09:47:37.352Z</time></trkpt><trkpt lat="42.08106" lon="12.1699617"><ele>274.0</ele><time>2026-05-02T09:47:39.352Z</time></trkpt><trkpt lat="42.0811483" lon="12.16994"><ele>274.0</ele><time>2026-05-02T09:47:41.352Z</time></trkpt><trkpt lat="42.0812367" lon="12.1699233"><ele>274.0</ele><time>2026-05-02T09:47:43.353Z</time></trkpt><trkpt lat="42.0813267" lon="12.16991"><ele>274.0</ele><time>2026-05-02T09:47:45.353Z</time></trkpt><trkpt lat="42.0814133" lon="12.1698917"><ele>274.0</ele><time>2026-05-02T09:47:47.357Z</time></trkpt><trkpt lat="42.0815017" lon="12.1698733"><ele>274.0</ele><time>2026-05-02T09:47:49.351Z</time></trkpt><trkpt lat="42.08159" lon="12.1698533"><ele>274.0</ele><time>2026-05-02T09:47:51.352Z</time></trkpt><trkpt lat="42.081675" lon="12.169835"><ele>274.42857142857144</ele><time>2026-05-02T09:47:53.352Z</time></trkpt><trkpt lat="42.0817567" lon="12.16982"><ele>274.8571428571429</ele><time>2026-05-02T09:47:55.359Z</time></trkpt><trkpt lat="42.08183" lon="12.16981"><ele>275.2857142857143</ele><time>2026-05-02T09:47:57.357Z</time></trkpt><trkpt lat="42.0819" lon="12.1697917"><ele>275.7142857142857</ele><time>2026-05-02T09:47:59.356Z</time></trkpt><trkpt lat="42.081965" lon="12.1697733"><ele>276.1428571428571</ele><time>2026-05-02T09:48:01.351Z</time></trkpt><trkpt lat="42.08204" lon="12.1697567"><ele>276.57142857142856</ele><time>2026-05-02T09:48:03.354Z</time></trkpt><trkpt lat="42.0821117" lon="12.1697417"><ele>277.0</ele><time>2026-05-02T09:48:05.351Z</time></trkpt><trkpt lat="42.08219" lon="12.169725"><ele>277.0</ele><time>2026-05-02T09:48:07.351Z</time></trkpt><trkpt lat="42.0822617" lon="12.169715"><ele>277.0</ele><time>2026-05-02T09:48:09.351Z</time></trkpt><trkpt lat="42.0823383" lon="12.169705"><ele>277.0</ele><time>2026-05-02T09:48:11.352Z</time></trkpt><trkpt lat="42.0824083" lon="12.1696917"><ele>277.0</ele><time>2026-05-02T09:48:13.351Z</time></trkpt><trkpt lat="42.082475" lon="12.1696717"><ele>277.0</ele><time>2026-05-02T09:48:15.354Z</time></trkpt><trkpt lat="42.0825417" lon="12.169655"><ele>277.0</ele><time>2026-05-02T09:48:17.351Z</time></trkpt><trkpt lat="42.082605" lon="12.1696333"><ele>277.0</ele><time>2026-05-02T09:48:19.351Z</time></trkpt><trkpt lat="42.0826917" lon="12.169615"><ele>277.66666666666663</ele><time>2026-05-02T09:48:22.352Z</time></trkpt><trkpt lat="42.0827783" lon="12.1695867"><ele>278.3333333333333</ele><time>2026-05-02T09:48:25.356Z</time></trkpt><trkpt lat="42.0828617" lon="12.1695733"><ele>279.0</ele><time>2026-05-02T09:48:28.353Z</time></trkpt><trkpt lat="42.0829433" lon="12.1695533"><ele>279.6666666666667</ele><time>2026-05-02T09:48:31.351Z</time></trkpt><trkpt lat="42.083025" lon="12.1695367"><ele>280.33333333333337</ele><time>2026-05-02T09:48:34.353Z</time></trkpt><trkpt lat="42.0831067" lon="12.16953"><ele>281.0</ele><time>2026-05-02T09:48:37.351Z</time></trkpt><trkpt lat="42.0831833" lon="12.16952"><ele>281.83333333333337</ele><time>2026-05-02T09:48:40.352Z</time></trkpt><trkpt lat="42.083265" lon="12.1695017"><ele>282.6666666666667</ele><time>2026-05-02T09:48:43.355Z</time></trkpt><trkpt lat="42.0833483" lon="12.1694867"><ele>283.5</ele><time>2026-05-02T09:48:46.36Z</time></trkpt><trkpt lat="42.0834333" lon="12.169475"><ele>284.3333333333333</ele><time>2026-05-02T09:48:49.352Z</time></trkpt><trkpt lat="42.083515" lon="12.16946"><ele>285.16666666666663</ele><time>2026-05-02T09:48:52.353Z</time></trkpt><trkpt lat="42.0835967" lon="12.1694417"><ele>286.0</ele><time>2026-05-02T09:48:55.348Z</time></trkpt><trkpt lat="42.0836783" lon="12.1694233"><ele>285.99999999999994</ele><time>2026-05-02T09:48:58.36Z</time></trkpt><trkpt lat="42.0837517" lon="12.1694083"><ele>286.0</ele><time>2026-05-02T09:49:01.351Z</time></trkpt><trkpt lat="42.0838183" lon="12.16938"><ele>286.0</ele><time>2026-05-02T09:49:04.352Z</time></trkpt><trkpt lat="42.0838833" lon="12.169355"><ele>286.0</ele><time>2026-05-02T09:49:07.355Z</time></trkpt><trkpt lat="42.0839617" lon="12.1693617"><ele>286.0</ele><time>2026-05-02T09:49:11.351Z</time></trkpt><trkpt lat="42.0839983" lon="12.16945"><ele>285.99999999999994</ele><time>2026-05-02T09:49:15.353Z</time></trkpt><trkpt lat="42.083995" lon="12.1695567"><ele>286.0</ele><time>2026-05-02T09:49:19.353Z</time></trkpt><trkpt lat="42.0840117" lon="12.1696633"><ele>286.0</ele><time>2026-05-02T09:49:23.352Z</time></trkpt><trkpt lat="42.0840133" lon="12.1697533"><ele>286.0</ele><time>2026-05-02T09:49:27.362Z</time></trkpt><trkpt lat="42.084025" lon="12.1698383"><ele>286.0</ele><time>2026-05-02T09:49:31.354Z</time></trkpt><trkpt lat="42.08404" lon="12.170005"><ele>286.0</ele><time>2026-05-02T09:49:58.351Z</time></trkpt><trkpt lat="42.0840483" lon="12.170135"><ele>286.0</ele><time>2026-05-02T09:50:01.357Z</time></trkpt><trkpt lat="42.0840483" lon="12.1702433"><ele>286.0</ele><time>2026-05-02T09:50:03.353Z</time></trkpt><trkpt lat="42.0840483" lon="12.1703583"><ele>286.40000000000003</ele><time>2026-05-02T09:50:05.35Z</time></trkpt><trkpt lat="42.08404" lon="12.17048"><ele>286.8</ele><time>2026-05-02T09:50:07.352Z</time></trkpt><trkpt lat="42.0840333" lon="12.1706083"><ele>287.20000000000005</ele><time>2026-05-02T09:50:09.351Z</time></trkpt><trkpt lat="42.0840367" lon="12.1707367"><ele>287.6</ele><time>2026-05-02T09:50:11.352Z</time></trkpt><trkpt lat="42.084045" lon="12.170865"><ele>288.0</ele><time>2026-05-02T09:50:13.357Z</time></trkpt><trkpt lat="42.0840483" lon="12.1709833"><ele>288.3333333333333</ele><time>2026-05-02T09:50:15.352Z</time></trkpt><trkpt lat="42.0840567" lon="12.1710933"><ele>288.6666666666667</ele><time>2026-05-02T09:50:17.35Z</time></trkpt><trkpt lat="42.08406" lon="12.171205"><ele>289.0</ele><time>2026-05-02T09:50:19.35Z</time></trkpt><trkpt lat="42.08406" lon="12.1713067"><ele>289.33333333333337</ele><time>2026-05-02T09:50:21.354Z</time></trkpt><trkpt lat="42.08406" lon="12.1714033"><ele>289.6666666666667</ele><time>2026-05-02T09:50:23.351Z</time></trkpt><trkpt lat="42.0840633" lon="12.1715083"><ele>290.0</ele><time>2026-05-02T09:50:25.351Z</time></trkpt><trkpt lat="42.0840733" lon="12.1716133"><ele>290.0</ele><time>2026-05-02T09:50:27.351Z</time></trkpt><trkpt lat="42.0840767" lon="12.1717217"><ele>290.0</ele><time>2026-05-02T09:50:29.349Z</time></trkpt><trkpt lat="42.0840817" lon="12.1718333"><ele>290.0</ele><time>2026-05-02T09:50:31.352Z</time></trkpt><trkpt lat="42.0840817" lon="12.1719417"><ele>290.0</ele><time>2026-05-02T09:50:33.354Z</time></trkpt><trkpt lat="42.0840833" lon="12.17206"><ele>290.0</ele><time>2026-05-02T09:50:35.351Z</time></trkpt><trkpt lat="42.084085" lon="12.172185"><ele>290.0</ele><time>2026-05-02T09:50:37.354Z</time></trkpt><trkpt lat="42.0840867" lon="12.1723267"><ele>291.0</ele><time>2026-05-02T09:50:39.358Z</time></trkpt><trkpt lat="42.0840983" lon="12.1724783"><ele>292.0</ele><time>2026-05-02T09:50:41.349Z</time></trkpt><trkpt lat="42.0841017" lon="12.1726367"><ele>293.0</ele><time>2026-05-02T09:50:43.353Z</time></trkpt><trkpt lat="42.0841133" lon="12.1728367"><ele>294.0</ele><time>2026-05-02T09:50:45.35Z</time></trkpt><trkpt lat="42.0841183" lon="12.1729717"><ele>294.0</ele><time>2026-05-02T09:50:46.352Z</time></trkpt><trkpt lat="42.0841183" lon="12.1731133"><ele>294.0</ele><time>2026-05-02T09:50:47.351Z</time></trkpt><trkpt lat="42.084125" lon="12.173255"><ele>294.0</ele><time>2026-05-02T09:50:48.355Z</time></trkpt><trkpt lat="42.08413" lon="12.1733933"><ele>294.0</ele><time>2026-05-02T09:50:49.353Z</time></trkpt><trkpt lat="42.08413" lon="12.1735283"><ele>294.0</ele><time>2026-05-02T09:50:50.353Z</time></trkpt><trkpt lat="42.0841333" lon="12.1736567"><ele>293.2</ele><time>2026-05-02T09:50:51.352Z</time></trkpt><trkpt lat="42.0841383" lon="12.173785"><ele>292.4</ele><time>2026-05-02T09:50:52.35Z</time></trkpt><trkpt lat="42.0841417" lon="12.173915"><ele>291.6</ele><time>2026-05-02T09:50:53.351Z</time></trkpt><trkpt lat="42.0841417" lon="12.1740433"><ele>290.8</ele><time>2026-05-02T09:50:54.35Z</time></trkpt><trkpt lat="42.08414" lon="12.1741733"><ele>290.0</ele><time>2026-05-02T09:50:55.353Z</time></trkpt><trkpt lat="42.0841433" lon="12.1743017"><ele>289.4</ele><time>2026-05-02T09:50:56.351Z</time></trkpt><trkpt lat="42.08415" lon="12.1744333"><ele>288.8</ele><time>2026-05-02T09:50:57.356Z</time></trkpt><trkpt lat="42.0841567" lon="12.1745667"><ele>288.2</ele><time>2026-05-02T09:50:58.349Z</time></trkpt><trkpt lat="42.08416" lon="12.1747017"><ele>287.6</ele><time>2026-05-02T09:50:59.353Z</time></trkpt><trkpt lat="42.0841617" lon="12.1748333"><ele>287.0</ele><time>2026-05-02T09:51:00.352Z</time></trkpt><trkpt lat="42.08417" lon="12.1749617"><ele>286.5</ele><time>2026-05-02T09:51:01.353Z</time></trkpt><trkpt lat="42.084175" lon="12.175085"><ele>286.0</ele><time>2026-05-02T09:51:02.354Z</time></trkpt><trkpt lat="42.0841767" lon="12.1752033"><ele>285.5</ele><time>2026-05-02T09:51:03.353Z</time></trkpt><trkpt lat="42.0841783" lon="12.17532"><ele>285.0</ele><time>2026-05-02T09:51:04.35Z</time></trkpt><trkpt lat="42.0841833" lon="12.1754333"><ele>284.5</ele><time>2026-05-02T09:51:05.35Z</time></trkpt><trkpt lat="42.08419" lon="12.1755517"><ele>284.0</ele><time>2026-05-02T09:51:06.347Z</time></trkpt><trkpt lat="42.0841917" lon="12.1756767"><ele>283.59999999999997</ele><time>2026-05-02T09:51:07.349Z</time></trkpt><trkpt lat="42.0841917" lon="12.1758067"><ele>283.2</ele><time>2026-05-02T09:51:08.353Z</time></trkpt><trkpt lat="42.0842" lon="12.1759383"><ele>282.79999999999995</ele><time>2026-05-02T09:51:09.354Z</time></trkpt><trkpt lat="42.084205" lon="12.1760633"><ele>282.4</ele><time>2026-05-02T09:51:10.354Z</time></trkpt><trkpt lat="42.0842133" lon="12.1761883"><ele>282.0</ele><time>2026-05-02T09:51:11.352Z</time></trkpt><trkpt lat="42.0842167" lon="12.17631"><ele>282.0</ele><time>2026-05-02T09:51:12.351Z</time></trkpt><trkpt lat="42.0842183" lon="12.1764283"><ele>282.0</ele><time>2026-05-02T09:51:13.351Z</time></trkpt><trkpt lat="42.0842233" lon="12.1765417"><ele>282.0</ele><time>2026-05-02T09:51:14.357Z</time></trkpt><trkpt lat="42.0842233" lon="12.1766567"><ele>282.0</ele><time>2026-05-02T09:51:15.351Z</time></trkpt><trkpt lat="42.0842267" lon="12.17677"><ele>282.0</ele><time>2026-05-02T09:51:16.351Z</time></trkpt><trkpt lat="42.0842317" lon="12.176875"><ele>282.0</ele><time>2026-05-02T09:51:17.355Z</time></trkpt><trkpt lat="42.0842367" lon="12.17698"><ele>281.8333333333333</ele><time>2026-05-02T09:51:18.35Z</time></trkpt><trkpt lat="42.084245" lon="12.17708"><ele>281.6666666666667</ele><time>2026-05-02T09:51:19.364Z</time></trkpt><trkpt lat="42.08425" lon="12.17718"><ele>281.5</ele><time>2026-05-02T09:51:20.353Z</time></trkpt><trkpt lat="42.084255" lon="12.1772783"><ele>281.33333333333337</ele><time>2026-05-02T09:51:21.359Z</time></trkpt><trkpt lat="42.0842567" lon="12.1773717"><ele>281.1666666666667</ele><time>2026-05-02T09:51:22.352Z</time></trkpt><trkpt lat="42.084255" lon="12.17746"><ele>281.0</ele><time>2026-05-02T09:51:23.353Z</time></trkpt><trkpt lat="42.0842517" lon="12.1775933"><ele>280.5</ele><time>2026-05-02T09:51:25.354Z</time></trkpt><trkpt lat="42.0842417" lon="12.17768"><ele>280.0</ele><time>2026-05-02T09:51:27.353Z</time></trkpt><trkpt lat="42.0843" lon="12.1777533"><ele>279.5</ele><time>2026-05-02T09:51:43.35Z</time></trkpt><trkpt lat="42.08435" lon="12.1778333"><ele>279.0</ele><time>2026-05-02T09:51:45.352Z</time></trkpt><trkpt lat="42.0844117" lon="12.17792"><ele>278.5</ele><time>2026-05-02T09:51:47.351Z</time></trkpt><trkpt lat="42.0844933" lon="12.1780083"><ele>278.0</ele><time>2026-05-02T09:51:49.356Z</time></trkpt><trkpt lat="42.08458" lon="12.1781233"><ele>277.6666666666667</ele><time>2026-05-02T09:51:51.36Z</time></trkpt><trkpt lat="42.0846317" lon="12.178185"><ele>277.33333333333337</ele><time>2026-05-02T09:51:52.351Z</time></trkpt><trkpt lat="42.0846817" lon="12.1782583"><ele>277.0</ele><time>2026-05-02T09:51:53.353Z</time></trkpt><trkpt lat="42.084745" lon="12.1783333"><ele>276.6666666666667</ele><time>2026-05-02T09:51:54.35Z</time></trkpt><trkpt lat="42.0848033" lon="12.178415"><ele>276.3333333333333</ele><time>2026-05-02T09:51:55.351Z</time></trkpt><trkpt lat="42.0848583" lon="12.1785017"><ele>276.0</ele><time>2026-05-02T09:51:56.354Z</time></trkpt><trkpt lat="42.08492" lon="12.1785733"><ele>275.1666666666667</ele><time>2026-05-02T09:51:57.351Z</time></trkpt><trkpt lat="42.084985" lon="12.1786317"><ele>274.3333333333333</ele><time>2026-05-02T09:51:58.362Z</time></trkpt><trkpt lat="42.08506" lon="12.17866"><ele>273.5</ele><time>2026-05-02T09:51:59.35Z</time></trkpt><trkpt lat="42.0851417" lon="12.17868"><ele>272.66666666666663</ele><time>2026-05-02T09:52:00.358Z</time></trkpt><trkpt lat="42.08521" lon="12.1787117"><ele>271.8333333333333</ele><time>2026-05-02T09:52:01.351Z</time></trkpt><trkpt lat="42.085295" lon="12.17882"><ele>271.0</ele><time>2026-05-02T09:52:03.352Z</time></trkpt><trkpt lat="42.0853067" lon="12.1789883"><ele>270.0</ele><time>2026-05-02T09:52:05.351Z</time></trkpt><trkpt lat="42.0852883" lon="12.1790733"><ele>269.0</ele><time>2026-05-02T09:52:06.357Z</time></trkpt><trkpt lat="42.085245" lon="12.1791517"><ele>268.0</ele><time>2026-05-02T09:52:07.351Z</time></trkpt><trkpt lat="42.0851917" lon="12.1792283"><ele>267.0</ele><time>2026-05-02T09:52:08.35Z</time></trkpt><trkpt lat="42.0851383" lon="12.1793183"><ele>266.0</ele><time>2026-05-02T09:52:09.353Z</time></trkpt><trkpt lat="42.0850767" lon="12.1794033"><ele>265.0</ele><time>2026-05-02T09:52:10.355Z</time></trkpt><trkpt lat="42.0850183" lon="12.179485"><ele>265.0</ele><time>2026-05-02T09:52:11.353Z</time></trkpt><trkpt lat="42.0849583" lon="12.1795583"><ele>265.0</ele><time>2026-05-02T09:52:12.362Z</time></trkpt><trkpt lat="42.0848867" lon="12.1796133"><ele>265.0</ele><time>2026-05-02T09:52:13.351Z</time></trkpt><trkpt lat="42.084815" lon="12.17964"><ele>265.0</ele><time>2026-05-02T09:52:14.35Z</time></trkpt><trkpt lat="42.084745" lon="12.1796417"><ele>265.0</ele><time>2026-05-02T09:52:15.352Z</time></trkpt><trkpt lat="42.0846317" lon="12.1796417"><ele>265.0</ele><time>2026-05-02T09:52:17.351Z</time></trkpt><trkpt lat="42.084535" lon="12.17965"><ele>265.57142857142856</ele><time>2026-05-02T09:52:19.352Z</time></trkpt><trkpt lat="42.0844617" lon="12.1796533"><ele>266.1428571428571</ele><time>2026-05-02T09:52:21.354Z</time></trkpt><trkpt lat="42.0843983" lon="12.1796717"><ele>266.7142857142857</ele><time>2026-05-02T09:52:23.354Z</time></trkpt><trkpt lat="42.0843767" lon="12.1795733"><ele>267.2857142857143</ele><time>2026-05-02T09:52:43.35Z</time></trkpt><trkpt lat="42.084375" lon="12.1794767"><ele>267.8571428571429</ele><time>2026-05-02T09:52:47.358Z</time></trkpt><trkpt lat="42.0843733" lon="12.1793733"><ele>268.42857142857144</ele><time>2026-05-02T09:52:51.353Z</time></trkpt><trkpt lat="42.08436" lon="12.1792617"><ele>269.0</ele><time>2026-05-02T09:52:54.352Z</time></trkpt><trkpt lat="42.0843717" lon="12.1791767"><ele>269.0</ele><time>2026-05-02T09:52:56.353Z</time></trkpt><trkpt lat="42.0843633" lon="12.1790533"><ele>269.0</ele><time>2026-05-02T09:52:59.352Z</time></trkpt></trkseg></trk></gpx>